Provisional Data: Moose Creek near Plymptonville, PA


Please select a monitoring station.
Please select start date.
Please select start date.

Toggle Unit: C/F Toggle Unit: C/F
Sample Time Temperature (C) Temperature (F) Specific Conductivity (mS/cm) pH   Turbidity (NTU+) DO (mg/L)
5/17/2022 12:00:00 AM 10.8 51.44 0.082 6.49 2.15 10.72
5/17/2022 12:15:00 AM 10.78 51.404 0.083 6.49 2.14 10.73
5/17/2022 12:30:00 AM 10.74 51.332 0.083 6.5 2.24 10.73
5/17/2022 12:45:00 AM 10.71 51.278 0.083 6.49 2.22 10.74
5/17/2022 1:00:00 AM 10.67 51.206 0.083 6.49 2.17 10.75
5/17/2022 1:15:00 AM 10.63 51.134 0.083 6.49 2.17 10.77
5/17/2022 1:30:00 AM 10.58 51.044 0.081 6.47 3.17 10.78
5/17/2022 1:45:00 AM 10.53 50.954 0.083 6.49 2.11 10.8
5/17/2022 2:00:00 AM 10.49 50.882 0.083 6.46 2.28 10.81
5/17/2022 2:15:00 AM 10.46 50.828 0.082 6.46 2.36 10.82
5/17/2022 2:30:00 AM 10.42 50.756 0.082 6.45 2.32 10.82
5/17/2022 2:45:00 AM 10.39 50.702 0.082 6.46 2.16 10.83
5/17/2022 3:00:00 AM 10.36 50.648 0.082 6.46 2.16 10.84
5/17/2022 3:15:00 AM 10.33 50.594 0.083 6.47 2.14 10.85
5/17/2022 3:30:00 AM 10.3 50.54 0.083 6.47 2.07 10.85
5/17/2022 3:45:00 AM 10.28 50.504 0.083 6.47 2.14 10.86
5/17/2022 4:00:00 AM 10.26 50.468 0.083 6.46 2.18 10.86
5/17/2022 4:15:00 AM 10.23 50.414 0.083 6.47 2.13 10.87
5/17/2022 4:30:00 AM 10.21 50.378 0.083 6.47 2.12 10.88
5/17/2022 4:45:00 AM 10.19 50.342 0.083 6.47 2.1 10.88
5/17/2022 5:00:00 AM 10.16 50.288 0.083 6.46 2.29 10.88
5/17/2022 5:15:00 AM 10.14 50.252 0.083 6.46 2.09 10.9
5/17/2022 5:30:00 AM 10.11 50.198 0.083 6.45 2.14 10.9
5/17/2022 5:45:00 AM 10.09 50.162 0.083 6.43 2.11 10.91
5/17/2022 6:00:00 AM 10.07 50.126 0.083 6.46 2.07 10.92
5/17/2022 6:15:00 AM 10.04 50.072 0.083 6.45 2.17 10.92
5/17/2022 6:30:00 AM 10.02 50.036 0.083 6.46 2.08 10.93
5/17/2022 6:45:00 AM 10 50 0.083 6.46 2.07 10.95
5/17/2022 7:00:00 AM 10 50 0.083 6.45 2.09 10.95
5/17/2022 7:15:00 AM 10 50 0.082 6.45 2.07 10.94
5/17/2022 7:30:00 AM 10.02 50.036 0.082 6.46 1.97 10.95
5/17/2022 7:45:00 AM 10.06 50.108 0.082 6.47 2.1 10.95
5/17/2022 8:00:00 AM 10.09 50.162 0.083 6.47 2.01 10.94
5/17/2022 8:15:00 AM 10.13 50.234 0.082 6.46 2.1 10.93
5/17/2022 8:30:00 AM 10.18 50.324 0.082 6.47 1.97 10.92
5/17/2022 8:45:00 AM 10.25 50.45 0.082 6.46 2 10.91
5/17/2022 9:00:00 AM 10.34 50.612 0.082 6.47 2.04 10.89
5/17/2022 9:15:00 AM 10.43 50.774 0.082 6.47 2.01 10.87
5/17/2022 9:30:00 AM 10.53 50.954 0.082 6.47 2.01 10.85
5/17/2022 9:45:00 AM 10.63 51.134 0.082 6.48 2 10.82
5/17/2022 10:00:00 AM 10.74 51.332 0.082 6.48 1.99 10.79
5/17/2022 10:15:00 AM 10.85 51.53 0.082 6.48 1.98 10.77
5/17/2022 10:30:00 AM 10.97 51.746 0.082 6.49 2 10.74
5/17/2022 10:45:00 AM 11.09 51.962 0.083 6.49 2.06 10.71
5/17/2022 11:00:00 AM 11.21 52.178 0.083 6.49 2.01 10.68
5/17/2022 11:15:00 AM 11.35 52.43 0.083 6.43 2.05 10.63
5/17/2022 11:30:00 AM 11.51 52.718 0.083 6.49 2.15 10.59
5/17/2022 11:45:00 AM 11.68 53.024 0.082 6.5 2.12 10.55
5/17/2022 12:00:00 PM 11.86 53.348 0.082 6.5 2.1 10.51
5/17/2022 12:15:00 PM 12.03 53.654 0.082 6.5 2.07 10.45
5/17/2022 12:30:00 PM 12.18 53.924 0.082 6.5 2.14 10.42
5/17/2022 12:45:00 PM 12.31 54.158 0.082 6.5 2.19 10.39
5/17/2022 1:00:00 PM 12.42 54.356 0.082 6.51 2.01 10.36
5/17/2022 1:15:00 PM 12.51 54.518 0.082 6.51 1.95 10.33
5/17/2022 1:30:00 PM 12.6 54.68 0.082 6.5 2.18 10.31
5/17/2022 1:45:00 PM 12.66 54.788 0.082 6.46 2.14 10.29
5/17/2022 2:00:00 PM 12.7 54.86 0.082 6.51 2.09 10.28
5/17/2022 2:15:00 PM 12.72 54.896 0.082 6.48 2.14 10.27
5/17/2022 2:30:00 PM 12.73 54.914 0.082 6.51 2.18 10.27
5/17/2022 2:45:00 PM 12.74 54.932 0.082 6.51 2.09 10.27
5/17/2022 3:00:00 PM 12.73 54.914 0.082 6.5 2.15 10.27
5/17/2022 3:15:00 PM 12.71 54.878 0.082 6.51 2.18 10.28
5/17/2022 3:30:00 PM 12.69 54.842 0.082 6.51 2.12 10.28
5/17/2022 3:45:00 PM 12.67 54.806 0.082 6.5 2.27 10.28
5/17/2022 4:00:00 PM 12.63 54.734 0.082 6.5 2.19 10.29
5/17/2022 4:15:00 PM 12.59 54.662 0.083 6.5 2.18 10.3
5/17/2022 4:30:00 PM 12.56 54.608 0.083 6.5 2.25 10.31
5/17/2022 4:45:00 PM 12.52 54.536 0.083 6.5 2.17 10.32
5/17/2022 5:00:00 PM 12.47 54.446 0.083 6.49 2.18 10.33
5/17/2022 5:15:00 PM 12.41 54.338 0.083 6.5 2.35 10.35
5/17/2022 5:30:00 PM 12.34 54.212 0.083 6.5 2.12 10.37
5/17/2022 5:45:00 PM 12.25 54.05 0.083 6.5 2.11 10.39
5/17/2022 6:00:00 PM 12.17 53.906 0.083 6.49 2.2 10.41
5/17/2022 6:15:00 PM 12.09 53.762 0.083 6.49 2.13 10.43
5/17/2022 6:30:00 PM 12 53.6 0.083 6.48 2.2 10.45
5/17/2022 6:45:00 PM 11.9 53.42 0.083 6.48 2.29 10.47
5/17/2022 7:00:00 PM 11.79 53.222 0.083 6.48 2.11 10.5
5/17/2022 7:15:00 PM 11.7 53.06 0.083 6.48 2.23 10.53
5/17/2022 7:30:00 PM 11.6 52.88 0.083 6.48 2.06 10.55
5/17/2022 7:45:00 PM 11.5 52.7 0.083 6.47 2.18 10.58
5/17/2022 8:00:00 PM 11.42 52.556 0.083 6.47 2.19 10.6
5/17/2022 8:15:00 PM 11.34 52.412 0.083 6.46 2.16 10.62
5/17/2022 8:30:00 PM 11.26 52.268 0.083 6.45 2.96 10.65
5/17/2022 8:45:00 PM 11.19 52.142 0.083 6.46 2.54 10.67
5/17/2022 9:00:00 PM 11.12 52.016 0.083 6.46 2.26 10.69
5/17/2022 9:15:00 PM 11.05 51.89 0.083 6.46 2.19 10.71
5/17/2022 9:30:00 PM 10.99 51.782 0.083 6.45 2.13 10.73
5/17/2022 9:45:00 PM 10.92 51.656 0.083 6.45 2.21 10.74
5/17/2022 10:00:00 PM 10.85 51.53 0.083 6.45 2.18 10.76
5/17/2022 10:15:00 PM 10.79 51.422 0.083 6.45 2.31 10.78
5/17/2022 10:30:00 PM 10.72 51.296 0.083 6.44 2.1 10.8
5/17/2022 10:45:00 PM 10.65 51.17 0.083 6.45 2.29 10.82
5/17/2022 11:00:00 PM 10.58 51.044 0.083 6.44 2.13 10.84
5/17/2022 11:15:00 PM 10.51 50.918 0.083 6.44 2.14 10.86
5/17/2022 11:30:00 PM 10.44 50.792 0.083 6.44 2.02 10.88
5/17/2022 11:45:00 PM 10.38 50.684 0.083 6.44 2.26 10.9
5/18/2022 12:00:00 AM 10.31 50.558 0.083 6.44 2.16 10.91
5/18/2022 12:15:00 AM 10.25 50.45 0.083 6.42 2 10.93
5/18/2022 12:30:00 AM 10.19 50.342 0.083 6.41 2.14 10.95
5/18/2022 12:45:00 AM 10.13 50.234 0.083 6.41 2.06 10.96
5/18/2022 1:00:00 AM 10.07 50.126 0.083 6.41 2.22 10.98
5/18/2022 1:15:00 AM 10.01 50.018 0.083 6.4 2.23 10.99
5/18/2022 1:30:00 AM 9.95 49.91 0.083 6.4 2.02 11
5/18/2022 1:45:00 AM 9.9 49.82 0.083 6.39 2.17 11.03
5/18/2022 2:00:00 AM 9.84 49.712 0.083 6.39 2.1 11.04
5/18/2022 2:15:00 AM 9.79 49.622 0.083 6.4 2.05 11.05
5/18/2022 2:30:00 AM 9.75 49.55 0.083 6.39 1.97 11.07
5/18/2022 2:45:00 AM 9.7 49.46 0.083 6.39 2.02 11.08
5/18/2022 3:00:00 AM 9.65 49.37 0.083 6.39 1.95 11.09
5/18/2022 3:15:00 AM 9.61 49.298 0.083 6.4 2.15 11.11
5/18/2022 3:30:00 AM 9.57 49.226 0.083 6.39 2.06 11.11
5/18/2022 3:45:00 AM 9.53 49.154 0.083 6.39 2.06 11.12
5/18/2022 4:00:00 AM 9.49 49.082 0.084 6.4 2.08 11.13
5/18/2022 4:15:00 AM 9.45 49.01 0.084 6.4 2.11 11.14
5/18/2022 4:30:00 AM 9.41 48.938 0.083 6.39 2.4 11.16
5/18/2022 4:45:00 AM 9.37 48.866 0.083 6.35 2.07 11.17
5/18/2022 5:00:00 AM 9.32 48.776 0.083 6.39 1.99 11.18
5/18/2022 5:15:00 AM 9.28 48.704 0.083 6.38 1.94 11.2
5/18/2022 5:30:00 AM 9.24 48.632 0.083 6.38 2.06 11.21
5/18/2022 5:45:00 AM 9.19 48.542 0.083 6.38 1.96 11.22
5/18/2022 6:00:00 AM 9.15 48.47 0.083 6.38 1.98 11.24
5/18/2022 6:15:00 AM 9.11 48.398 0.083 6.38 2.08 11.25
5/18/2022 6:30:00 AM 9.07 48.326 0.083 6.38 2.01 11.26
5/18/2022 6:45:00 AM 9.04 48.272 0.083 6.39 1.96 11.28
5/18/2022 7:00:00 AM 9.02 48.236 0.083 6.38 1.85 11.29
5/18/2022 7:15:00 AM 9.01 48.218 0.083 6.39 1.86 11.29
5/18/2022 7:30:00 AM 9.01 48.218 0.083 6.39 1.87 11.3
5/18/2022 7:45:00 AM 9.03 48.254 0.083 6.34 1.92 11.3
5/18/2022 8:00:00 AM 9.07 48.326 0.083 6.4 1.93 11.29
5/18/2022 8:15:00 AM 9.12 48.416 0.083 6.41 1.78 11.28
5/18/2022 8:30:00 AM 9.2 48.56 0.083 6.41 1.75 11.26
5/18/2022 8:45:00 AM 9.28 48.704 0.083 6.42 1.77 11.24
5/18/2022 9:00:00 AM 9.36 48.848 0.083 6.42 1.83 11.22
5/18/2022 9:15:00 AM 9.46 49.028 0.083 6.43 1.79 11.19
5/18/2022 9:30:00 AM 9.57 49.226 0.083 6.43 1.83 11.16
5/18/2022 9:45:00 AM 9.69 49.442 0.083 6.43 1.81 11.14
5/18/2022 10:00:00 AM 9.81 49.658 0.083 6.43 1.9 11.1
5/18/2022 10:15:00 AM 9.94 49.892 0.083 6.44 1.85 11.07
5/18/2022 10:30:00 AM 10.07 50.126 0.083 6.44 1.87 11.03
5/18/2022 10:45:00 AM 10.21 50.378 0.083 6.44 1.85 10.99
5/18/2022 11:00:00 AM 10.36 50.648 0.083 6.44 1.81 10.95
5/18/2022 11:15:00 AM 10.52 50.936 0.083 6.45 1.91 10.91
5/18/2022 11:30:00 AM 10.64 51.152 0.083 6.45 1.85 10.87
5/18/2022 11:45:00 AM 10.84 51.512 0.083 6.46 1.87 10.82
5/18/2022 12:00:00 PM 11.04 51.872 0.083 6.46 1.81 10.77
5/18/2022 12:15:00 PM 11.24 52.232 0.083 6.45 1.94 10.71
5/18/2022 12:30:00 PM 11.43 52.574 0.083 6.47 2.1 10.65
5/18/2022 12:45:00 PM 11.53 52.754 0.083 6.46 1.92 10.63
5/18/2022 1:00:00 PM 11.54 52.772 0.083 6.47 1.97 10.61
5/18/2022 1:15:00 PM 11.46 52.628 0.083 6.43 1.94 10.63
5/18/2022 1:30:00 PM 11.37 52.466 0.083 6.47 1.88 10.65
5/18/2022 1:45:00 PM 11.29 52.322 0.083 6.42 1.94 10.67
5/18/2022 2:00:00 PM 11.17 52.106 0.083 6.47 1.96 10.7
5/18/2022 2:15:00 PM 11.08 51.944 0.083 6.46 2 10.72
5/18/2022 2:30:00 PM 11.01 51.818 0.083 6.46 2 10.73
5/18/2022 2:45:00 PM 10.98 51.764 0.084 6.46 2.08 10.76
5/18/2022 3:00:00 PM 10.95 51.71 0.084 6.46 1.91 10.75
5/18/2022 3:15:00 PM 10.95 51.71 0.084 6.46 2 10.75
5/18/2022 3:30:00 PM 10.94 51.692 0.084 6.46 2.09 10.75
5/18/2022 3:45:00 PM 10.92 51.656 0.084 6.45 1.93 10.75
5/18/2022 4:00:00 PM 10.89 51.602 0.084 6.44 1.85 10.75
5/18/2022 4:15:00 PM 10.85 51.53 0.084 6.4 2.15 10.75
5/18/2022 4:30:00 PM 10.82 51.476 0.084 6.44 2.07 10.76
5/18/2022 4:45:00 PM 10.8 51.44 0.084 6.45 2.02 10.76
5/18/2022 5:00:00 PM 10.78 51.404 0.084 6.45 2.02 10.77
5/18/2022 5:15:00 PM 10.77 51.386 0.084 6.45 1.93 10.76
5/18/2022 5:30:00 PM 10.75 51.35 0.084 6.45 1.95 10.76
5/18/2022 5:45:00 PM 10.73 51.314 0.084 6.44 1.88 10.76
5/18/2022 6:00:00 PM 10.71 51.278 0.084 6.43 1.96 10.76
5/18/2022 6:15:00 PM 10.7 51.26 0.084 6.45 1.92 10.77
5/18/2022 6:30:00 PM 10.68 51.224 0.084 6.43 1.97 10.77
5/18/2022 6:45:00 PM 10.66 51.188 0.084 6.45 1.96 10.77
5/18/2022 7:00:00 PM 10.64 51.152 0.084 6.44 2.03 10.77
5/18/2022 7:15:00 PM 10.62 51.116 0.084 6.43 1.96 10.77
5/18/2022 7:30:00 PM 10.6 51.08 0.084 6.43 1.93 10.78
5/18/2022 7:45:00 PM 10.57 51.026 0.084 6.42 1.9 10.79
5/18/2022 8:00:00 PM 10.54 50.972 0.084 6.44 2.22 10.79
5/18/2022 8:15:00 PM 10.5 50.9 0.084 6.45 2.11 10.81
5/18/2022 8:30:00 PM 10.47 50.846 0.084 6.44 2.17 10.82
5/18/2022 8:45:00 PM 10.43 50.774 0.084 6.45 2.22 10.83
5/18/2022 9:00:00 PM 10.4 50.72 0.084 6.45 2.33 10.84
5/18/2022 9:15:00 PM 10.37 50.666 0.084 6.45 2.18 10.85
5/18/2022 9:30:00 PM 10.34 50.612 0.084 6.45 2.32 10.86
5/18/2022 9:45:00 PM 10.32 50.576 0.084 6.43 2.36 10.86
5/18/2022 10:00:00 PM 10.29 50.522 0.084 6.45 2.35 10.87
5/18/2022 10:15:00 PM 10.27 50.486 0.084 6.45 2.44 10.87
5/18/2022 10:30:00 PM 10.25 50.45 0.084 6.45 2.36 10.87
5/18/2022 10:45:00 PM 10.24 50.432 0.084 6.46 2.31 10.88
5/18/2022 11:00:00 PM 10.23 50.414 0.084 6.46 2.41 10.88
5/18/2022 11:15:00 PM 10.21 50.378 0.084 6.46 2.34 10.88
5/18/2022 11:30:00 PM 10.2 50.36 0.084 6.46 2.39 10.88
5/18/2022 11:45:00 PM 10.18 50.324 0.084 6.47 2.35 10.88
5/19/2022 12:00:00 AM 10.17 50.306 0.084 6.47 2.26 10.88
5/19/2022 12:15:00 AM 10.15 50.27 0.085 6.45 2.56 10.88
5/19/2022 12:30:00 AM 10.13 50.234 0.085 6.48 2.32 10.88
5/19/2022 12:45:00 AM 10.12 50.216 0.086 6.48 2.45 10.89
5/19/2022 1:00:00 AM 10.11 50.198 0.086 6.49 2.3 10.88
5/19/2022 1:15:00 AM 10.1 50.18 0.086 6.49 2.17 10.88
5/19/2022 1:30:00 AM 10.09 50.162 0.086 6.5 2.23 10.88
5/19/2022 1:45:00 AM 10.08 50.144 0.086 6.47 2.1 10.89
5/19/2022 2:00:00 AM 10.08 50.144 0.086 6.5 2.18 10.89
5/19/2022 2:15:00 AM 10.08 50.144 0.086 6.5 2.22 10.88
5/19/2022 2:30:00 AM 10.07 50.126 0.086 6.49 2.05 10.88
5/19/2022 2:45:00 AM 10.07 50.126 0.086 6.45 2.09 10.88
5/19/2022 3:00:00 AM 10.07 50.126 0.087 6.48 2.09 10.87
5/19/2022 3:15:00 AM 10.07 50.126 0.087 6.47 2.06 10.88
5/19/2022 3:30:00 AM 10.07 50.126 0.087 6.48 2.18 10.87
5/19/2022 3:45:00 AM 10.07 50.126 0.087 6.47 2.14 10.87
5/19/2022 4:00:00 AM 10.07 50.126 0.087 6.46 2.59 10.87
5/19/2022 4:15:00 AM 10.07 50.126 0.087 6.46 2.17 10.87
5/19/2022 4:30:00 AM 10.08 50.144 0.087 6.45 2.34 10.87
5/19/2022 4:45:00 AM 10.08 50.144 0.087 6.46 2.3 10.87
5/19/2022 5:00:00 AM 10.08 50.144 0.087 6.46 2.06 10.86
5/19/2022 5:15:00 AM 10.08 50.144 0.087 6.46 2.13 10.87
5/19/2022 5:30:00 AM 10.09 50.162 0.087 6.46 2.13 10.86
5/19/2022 5:45:00 AM 10.09 50.162 0.087 6.46 2.16 10.86
5/19/2022 6:00:00 AM 10.09 50.162 0.087 6.46 2.27 10.86
5/19/2022 6:15:00 AM 10.09 50.162 0.087 6.45 2.15 10.87
5/19/2022 6:30:00 AM 10.09 50.162 0.087 6.45 2.08 10.87
5/19/2022 6:45:00 AM 10.1 50.18 0.087 6.45 1.96 10.86
5/19/2022 7:00:00 AM 10.1 50.18 0.087 6.45 2.03 10.87
5/19/2022 7:15:00 AM 10.12 50.216 0.087 6.4 2.02 10.86
5/19/2022 7:30:00 AM 10.13 50.234 0.087 6.45 2.08 10.86
5/19/2022 7:45:00 AM 10.14 50.252 0.087 6.46 1.92 10.86
5/19/2022 8:00:00 AM 10.16 50.288 0.087 6.45 2.01 10.86
5/19/2022 8:15:00 AM 10.18 50.324 0.087 6.44 1.95 10.85
5/19/2022 8:30:00 AM 10.22 50.396 0.087 6.45 1.85 10.85
5/19/2022 8:45:00 AM 10.27 50.486 0.087 6.47 1.94 10.84
5/19/2022 9:00:00 AM 10.3 50.54 0.086 6.48 2.02 10.83
5/19/2022 9:15:00 AM 10.34 50.612 0.086 6.46 1.96 10.82
5/19/2022 9:30:00 AM 10.38 50.684 0.086 6.47 2.02 10.81
5/19/2022 9:45:00 AM 10.42 50.756 0.086 6.45 1.9 10.8
5/19/2022 10:00:00 AM 10.45 50.81 0.086 6.48 1.96 10.79
5/19/2022 10:15:00 AM 10.47 50.846 0.086 6.49 1.96 10.79
5/19/2022 10:30:00 AM 10.5 50.9 0.086 6.47 1.96 10.78
5/19/2022 10:45:00 AM 10.52 50.936 0.086 6.48 1.92 10.77
5/19/2022 11:00:00 AM 10.55 50.99 0.086 6.49 1.92 10.77
5/19/2022 11:15:00 AM 10.58 51.044 0.086 6.49 2 10.76
5/19/2022 11:30:00 AM 10.61 51.098 0.086 6.49 1.89 10.75
5/19/2022 11:45:00 AM 10.65 51.17 0.086 6.49 1.85 10.75
5/19/2022 12:00:00 PM 10.71 51.278 0.086 6.5 1.86 10.74
5/19/2022 12:15:00 PM 10.78 51.404 0.086 6.49 1.88 10.71
5/19/2022 12:30:00 PM 10.87 51.566 0.086 6.5 1.98 10.7
5/19/2022 12:45:00 PM 10.99 51.782 0.086 6.47 1.87 10.68
5/19/2022 1:00:00 PM 11.11 51.998 0.086 6.5 1.91 10.64
5/19/2022 1:15:00 PM 11.28 52.304 0.086 6.51 1.96 10.6
5/19/2022 1:30:00 PM 11.42 52.556 0.086 6.51 1.86 10.55
5/19/2022 1:45:00 PM 11.51 52.718 0.086 6.52 2.11 10.54
5/19/2022 2:00:00 PM 11.59 52.862 0.086 6.51 1.94 10.52
5/19/2022 2:15:00 PM 11.76 53.168 0.086 6.52 1.93 10.48
5/19/2022 2:30:00 PM 11.86 53.348 0.086 6.52 1.98 10.45
5/19/2022 2:45:00 PM 11.99 53.582 0.086 6.52 1.98 10.4
5/19/2022 3:00:00 PM 12.12 53.816 0.086 6.5 1.98 10.37
5/19/2022 3:15:00 PM 12.21 53.978 0.086 6.49 1.95 10.35
5/19/2022 3:30:00 PM 12.25 54.05 0.086 6.52 2 10.33
5/19/2022 3:45:00 PM 12.28 54.104 0.086 6.51 1.95 10.33
5/19/2022 4:00:00 PM 12.28 54.104 0.086 6.52 1.93 10.33
5/19/2022 4:15:00 PM 12.31 54.158 0.086 6.51 1.94 10.32
5/19/2022 4:30:00 PM 12.33 54.194 0.086 6.52 1.97 10.32
5/19/2022 4:45:00 PM 12.33 54.194 0.086 6.5 1.89 10.31
5/19/2022 5:00:00 PM 12.32 54.176 0.086 6.48 2.11 10.31
5/19/2022 5:15:00 PM 12.32 54.176 0.086 6.52 2.06 10.32
5/19/2022 5:30:00 PM 12.33 54.194 0.086 6.52 1.98 10.31
5/19/2022 5:45:00 PM 12.3 54.14 0.086 6.51 2.05 10.32
5/19/2022 6:00:00 PM 12.27 54.086 0.086 6.51 1.95 10.33
5/19/2022 6:15:00 PM 12.24 54.032 0.086 6.51 1.95 10.33
5/19/2022 6:30:00 PM 12.2 53.96 0.086 6.51 1.96 10.34
5/19/2022 6:45:00 PM 12.17 53.906 0.086 6.49 1.97 10.35
5/19/2022 7:00:00 PM 12.13 53.834 0.086 6.5 2.02 10.36
5/19/2022 7:15:00 PM 12.09 53.762 0.086 6.49 2.04 10.36
5/19/2022 7:30:00 PM 12.04 53.672 0.086 6.47 1.98 10.37
5/19/2022 7:45:00 PM 11.98 53.564 0.086 6.46 1.91 10.39
5/19/2022 8:00:00 PM 11.92 53.456 0.086 6.46 2.17 10.4
5/19/2022 8:15:00 PM 11.86 53.348 0.086 6.45 2.11 10.42
5/19/2022 8:30:00 PM 11.8 53.24 0.086 6.44 2.04 10.44
5/19/2022 8:45:00 PM 11.75 53.15 0.086 6.44 1.9 10.45
5/19/2022 9:00:00 PM 11.69 53.042 0.086 6.43 2.26 10.47
5/19/2022 9:15:00 PM 11.65 52.97 0.086 6.42 2.14 10.48
5/19/2022 9:30:00 PM 11.61 52.898 0.086 6.4 2.09 10.49
5/19/2022 9:45:00 PM 11.57 52.826 0.086 6.42 2.02 10.5
5/19/2022 10:00:00 PM 11.53 52.754 0.086 6.41 2.22 10.51
5/19/2022 10:15:00 PM 11.49 52.682 0.086 6.41 1.94 10.52
5/19/2022 10:30:00 PM 11.45 52.61 0.086 6.41 2.04 10.53
5/19/2022 10:45:00 PM 11.4 52.52 0.086 6.41 2.04 10.54
5/19/2022 11:00:00 PM 11.36 52.448 0.087 6.37 2.22 10.55
5/19/2022 11:15:00 PM 11.32 52.376 0.087 6.41 2.23 10.56
5/19/2022 11:30:00 PM 11.28 52.304 0.087 6.42 2.14 10.57
5/19/2022 11:45:00 PM 11.25 52.25 0.087 6.42 1.98 10.58
5/20/2022 12:00:00 AM 11.21 52.178 0.087 6.42 1.99 10.6
5/20/2022 12:15:00 AM 11.19 52.142 0.087 6.42 2 10.61
5/20/2022 12:30:00 AM 11.16 52.088 0.087 6.42 1.98 10.61
5/20/2022 12:45:00 AM 11.14 52.052 0.087 6.41 1.96 10.62
5/20/2022 1:00:00 AM 11.11 51.998 0.087 6.41 1.94 10.62
5/20/2022 1:15:00 AM 11.09 51.962 0.086 6.41 2.01 10.63
5/20/2022 1:30:00 AM 11.06 51.908 0.086 6.41 2.04 10.63
5/20/2022 1:45:00 AM 11.04 51.872 0.087 6.41 2.08 10.64
5/20/2022 2:00:00 AM 11.01 51.818 0.086 6.39 2.01 10.64
5/20/2022 2:15:00 AM 10.98 51.764 0.087 6.41 1.94 10.65
5/20/2022 2:30:00 AM 10.95 51.71 0.087 6.4 2.05 10.66
5/20/2022 2:45:00 AM 10.92 51.656 0.087 6.4 2.07 10.66
5/20/2022 3:00:00 AM 10.89 51.602 0.087 6.4 2.02 10.68
5/20/2022 3:15:00 AM 10.85 51.53 0.087 6.4 2.01 10.68
5/20/2022 3:30:00 AM 10.83 51.494 0.087 6.41 2.06 10.68
5/20/2022 3:45:00 AM 10.8 51.44 0.087 6.4 1.96 10.69
5/20/2022 4:00:00 AM 10.77 51.386 0.087 6.39 1.98 10.7
5/20/2022 4:15:00 AM 10.74 51.332 0.087 6.39 1.91 10.71
5/20/2022 4:30:00 AM 10.71 51.278 0.087 6.39 2.05 10.71
5/20/2022 4:45:00 AM 10.69 51.242 0.087 6.39 1.99 10.72
5/20/2022 5:00:00 AM 10.67 51.206 0.087 6.35 2.04 10.73
5/20/2022 5:15:00 AM 10.65 51.17 0.087 6.39 2.03 10.74
5/20/2022 5:30:00 AM 10.64 51.152 0.087 6.39 1.99 10.74
5/20/2022 5:45:00 AM 10.64 51.152 0.087 6.35 2.01 10.74
5/20/2022 6:00:00 AM 10.64 51.152 0.087 6.4 2.06 10.75
5/20/2022 6:15:00 AM 10.64 51.152 0.087 6.39 1.97 10.75
5/20/2022 6:30:00 AM 10.65 51.17 0.087 6.39 1.99 10.75
5/20/2022 6:45:00 AM 10.66 51.188 0.087 6.39 1.97 10.75
5/20/2022 7:00:00 AM 10.68 51.224 0.087 6.4 1.94 10.75
5/20/2022 7:15:00 AM 10.69 51.242 0.087 6.36 1.95 10.74
5/20/2022 7:30:00 AM 10.72 51.296 0.087 6.41 1.9 10.74
5/20/2022 7:45:00 AM 10.75 51.35 0.087 6.42 1.86 10.74
5/20/2022 8:00:00 AM 10.79 51.422 0.087 6.43 1.92 10.73
5/20/2022 8:15:00 AM 10.83 51.494 0.087 6.44 1.92 10.71
5/20/2022 8:30:00 AM 10.87 51.566 0.087 6.44 1.99 10.7
5/20/2022 8:45:00 AM 10.91 51.638 0.087 6.44 1.83 10.7
5/20/2022 9:00:00 AM 10.95 51.71 0.087 6.45 1.93 10.69
5/20/2022 9:15:00 AM 10.98 51.764 0.087 6.44 1.86 10.68
5/20/2022 9:30:00 AM 11 51.8 0.087 6.44 1.84 10.68
5/20/2022 9:45:00 AM 11.06 51.908 0.087 6.44 1.88 10.68
5/20/2022 10:00:00 AM 11.17 52.106 0.087 6.46 1.79 10.66
5/20/2022 10:15:00 AM 11.32 52.376 0.087 6.41 1.91 10.62
5/20/2022 10:30:00 AM 11.48 52.664 0.086 6.48 1.83 10.58
5/20/2022 10:45:00 AM 11.62 52.916 0.086 6.47 1.83 10.54
5/20/2022 11:00:00 AM 11.72 53.096 0.086 6.48 1.89 10.51
5/20/2022 11:15:00 AM 11.89 53.402 0.086 6.48 1.9 10.48
5/20/2022 11:30:00 AM 11.97 53.546 0.086 6.48 1.89 10.45
5/20/2022 11:45:00 AM 12.01 53.618 0.086 6.48 1.84 10.42
5/20/2022 12:00:00 PM 12.07 53.726 0.087 6.48 1.96 10.42
5/20/2022 12:15:00 PM 12.13 53.834 0.086 6.43 1.96 10.4
5/20/2022 12:30:00 PM 12.15 53.87 0.087 6.49 1.89 10.39
5/20/2022 12:45:00 PM 12.17 53.906 0.087 6.49 2.04 10.38
5/20/2022 1:00:00 PM 12.16 53.888 0.087 6.49 1.97 10.38
5/20/2022 1:15:00 PM 12.15 53.87 0.086 6.49 1.96 10.38
5/20/2022 1:30:00 PM 12.14 53.852 0.086 6.48 2.07 10.39
5/20/2022 1:45:00 PM 12.13 53.834 0.086 6.49 2.16 10.39
5/20/2022 2:00:00 PM 12.11 53.798 0.086 6.48 2.02 10.39
5/20/2022 2:15:00 PM 12.11 53.798 0.086 6.47 2.24 10.39
5/20/2022 2:30:00 PM 12.1 53.78 0.086 6.47 2.37 10.39
5/20/2022 2:45:00 PM 12.07 53.726 0.086 6.46 2.4 10.39
5/20/2022 3:00:00 PM 12.06 53.708 0.087 6.47 2.26 10.41
5/20/2022 3:15:00 PM 12.08 53.744 0.087 6.49 2.34 10.4
5/20/2022 3:30:00 PM 12.09 53.762 0.087 6.49 2.36 10.4
5/20/2022 3:45:00 PM 12.12 53.816 0.087 6.43 2.19 10.4
5/20/2022 4:00:00 PM 12.14 53.852 0.087 6.5 2.36 10.39
5/20/2022 4:15:00 PM 12.17 53.906 0.087 6.44 2.32 10.38
5/20/2022 4:30:00 PM 12.18 53.924 0.087 6.5 2.29 10.37
5/20/2022 4:45:00 PM 12.21 53.978 0.088 6.5 2.3 10.37
5/20/2022 5:00:00 PM 12.26 54.068 0.088 6.52 2.17 10.36
5/20/2022 5:15:00 PM 12.3 54.14 0.088 6.52 2.14 10.35
5/20/2022 5:30:00 PM 12.35 54.23 0.088 6.53 2.15 10.34
5/20/2022 5:45:00 PM 12.42 54.356 0.088 6.54 2.16 10.32
5/20/2022 6:00:00 PM 12.45 54.41 0.088 6.53 2.05 10.3
5/20/2022 6:15:00 PM 12.45 54.41 0.088 6.52 2.08 10.29
5/20/2022 6:30:00 PM 12.43 54.374 0.088 6.51 1.94 10.3
5/20/2022 6:45:00 PM 12.4 54.32 0.088 6.49 2.01 10.31
5/20/2022 7:00:00 PM 12.35 54.23 0.088 6.49 2.01 10.32
5/20/2022 7:15:00 PM 12.31 54.158 0.088 6.48 2.09 10.33
5/20/2022 7:30:00 PM 12.28 54.104 0.088 6.47 2.12 10.34
5/20/2022 7:45:00 PM 12.25 54.05 0.088 6.47 2.18 10.34
5/20/2022 8:00:00 PM 12.22 53.996 0.088 6.44 2 10.35
5/20/2022 8:15:00 PM 12.2 53.96 0.089 6.45 2.22 10.35
5/20/2022 8:30:00 PM 12.17 53.906 0.089 6.42 2.21 10.35
5/20/2022 8:45:00 PM 12.15 53.87 0.089 6.42 1.92 10.36
5/20/2022 9:00:00 PM 12.13 53.834 0.089 6.43 2.1 10.37
5/20/2022 9:15:00 PM 12.1 53.78 0.089 6.42 2.1 10.38
5/20/2022 9:30:00 PM 12.07 53.726 0.089 6.42 2.18 10.39
5/20/2022 9:45:00 PM 12.05 53.69 0.089 6.42 2.14 10.39
5/20/2022 10:00:00 PM 12.02 53.636 0.089 6.39 2.35 10.4
5/20/2022 10:15:00 PM 12 53.6 0.089 6.4 2.22 10.4
5/20/2022 10:30:00 PM 11.98 53.564 0.089 6.36 2.21 10.41
5/20/2022 10:45:00 PM 11.96 53.528 0.089 6.4 2.23 10.41
5/20/2022 11:00:00 PM 11.95 53.51 0.089 6.41 2.1 10.42
5/20/2022 11:15:00 PM 11.94 53.492 0.089 6.35 2.18 10.42
5/20/2022 11:30:00 PM 11.93 53.474 0.089 6.38 2.57 10.42
5/20/2022 11:45:00 PM 11.91 53.438 0.089 6.42 2.23 10.43
5/21/2022 12:00:00 AM 11.89 53.402 0.089 6.41 2.16 10.43
5/21/2022 12:15:00 AM 11.88 53.384 0.089 6.41 2.24 10.44
5/21/2022 12:30:00 AM 11.86 53.348 0.089 6.41 1.98 10.45
5/21/2022 12:45:00 AM 11.85 53.33 0.089 6.38 1.97 10.46
5/21/2022 1:00:00 AM 11.84 53.312 0.089 6.42 2.29 10.46
5/21/2022 1:15:00 AM 11.83 53.294 0.089 6.42 2.03 10.47
5/21/2022 1:30:00 AM 11.82 53.276 0.089 6.43 2.16 10.47
5/21/2022 1:45:00 AM 11.81 53.258 0.089 6.43 2 10.48
5/21/2022 2:00:00 AM 11.79 53.222 0.089 6.43 2.16 10.49
5/21/2022 2:15:00 AM 11.77 53.186 0.089 6.42 2.04 10.49
5/21/2022 2:30:00 AM 11.76 53.168 0.089 6.43 2.09 10.49
5/21/2022 2:45:00 AM 11.74 53.132 0.089 6.42 2.05 10.5
5/21/2022 3:00:00 AM 11.72 53.096 0.089 6.42 2.19 10.5
5/21/2022 3:15:00 AM 11.7 53.06 0.089 6.41 2.57 10.51
5/21/2022 3:30:00 AM 11.68 53.024 0.089 6.41 2.29 10.51
5/21/2022 3:45:00 AM 11.67 53.006 0.089 6.42 2.32 10.52
5/21/2022 4:00:00 AM 11.66 52.988 0.089 6.42 2.47 10.52
5/21/2022 4:15:00 AM 11.66 52.988 0.089 6.42 2.23 10.52
5/21/2022 4:30:00 AM 11.68 53.024 0.089 6.43 2.6 10.52
5/21/2022 4:45:00 AM 11.71 53.078 0.089 6.46 2.11 10.52
5/21/2022 5:00:00 AM 11.74 53.132 0.089 6.46 2.68 10.51
5/21/2022 5:15:00 AM 11.76 53.168 0.089 6.46 2.35 10.51
5/21/2022 5:30:00 AM 11.8 53.24 0.088 6.47 2.27 10.5
5/21/2022 5:45:00 AM 11.86 53.348 0.088 6.46 2.43 10.49
5/21/2022 6:00:00 AM 11.9 53.42 0.088 6.5 2.33 10.48
5/21/2022 6:15:00 AM 11.94 53.492 0.088 6.5 2.09 10.47
5/21/2022 6:30:00 AM 11.98 53.564 0.088 6.5 2.19 10.46
5/21/2022 6:45:00 AM 12.01 53.618 0.088 6.5 2.06 10.46
5/21/2022 7:00:00 AM 12.04 53.672 0.088 6.51 2.05 10.45
5/21/2022 7:15:00 AM 12.07 53.726 0.088 6.51 2.03 10.45
5/21/2022 7:30:00 AM 12.1 53.78 0.088 6.51 2.05 10.45
5/21/2022 7:45:00 AM 12.14 53.852 0.088 6.51 1.99 10.44
5/21/2022 8:00:00 AM 12.18 53.924 0.088 6.51 2 10.44
5/21/2022 8:15:00 AM 12.24 54.032 0.088 6.51 2.12 10.43
5/21/2022 8:30:00 AM 12.29 54.122 0.088 6.51 1.96 10.41
5/21/2022 8:45:00 AM 12.38 54.284 0.088 6.52 1.92 10.4
5/21/2022 9:00:00 AM 12.5 54.5 0.088 6.52 2 10.37
5/21/2022 9:15:00 AM 12.61 54.698 0.088 6.53 1.89 10.34
5/21/2022 9:30:00 AM 12.74 54.932 0.088 6.53 2.02 10.32
5/21/2022 9:45:00 AM 12.87 55.166 0.088 6.53 2.01 10.29
5/21/2022 10:00:00 AM 12.98 55.364 0.088 6.53 1.95 10.27
5/21/2022 10:15:00 AM 13.14 55.652 0.088 6.54 2.15 10.22
5/21/2022 10:30:00 AM 13.28 55.904 0.088 6.54 1.95 10.19
5/21/2022 10:45:00 AM 13.4 56.12 0.088 6.54 2.06 10.16
5/21/2022 11:00:00 AM 13.5 56.3 0.088 6.54 2.08 10.14
5/21/2022 11:15:00 AM 13.56 56.408 0.088 6.54 1.97 10.13
5/21/2022 11:30:00 AM 13.69 56.642 0.088 6.54 2.01 10.1
5/21/2022 11:45:00 AM 13.78 56.804 0.088 6.55 2.14 10.07
5/21/2022 12:00:00 PM 13.92 57.056 0.088 6.55 1.97 10.04
5/21/2022 12:15:00 PM 14.04 57.272 0.089 6.55 2.08 10.02
5/21/2022 12:30:00 PM 14.15 57.47 0.089 6.56 2.04 9.99
5/21/2022 12:45:00 PM 14.16 57.488 0.089 6.56 3.33 9.99
5/21/2022 1:00:00 PM 14.25 57.65 0.089 6.56 2.06 9.98
5/21/2022 1:15:00 PM 14.34 57.812 0.089 6.54 2 9.96
5/21/2022 1:30:00 PM 14.41 57.938 0.089 6.56 2.09 9.93
5/21/2022 1:45:00 PM 14.48 58.064 0.089 6.56 1.98 9.91
5/21/2022 2:00:00 PM 14.62 58.316 0.089 6.57 2.03 9.88
5/21/2022 2:15:00 PM 14.64 58.352 0.089 6.56 2.11 9.87
5/21/2022 2:30:00 PM 14.69 58.442 0.089 6.57 2.08 9.86
5/21/2022 2:45:00 PM 14.69 58.442 0.089 6.57 1.97 9.86
5/21/2022 3:00:00 PM 14.73 58.514 0.089 6.57 2.05 9.86
5/21/2022 3:15:00 PM 14.74 58.532 0.089 6.57 2.13 9.84
5/21/2022 3:30:00 PM 14.77 58.586 0.089 6.56 2.1 9.84
5/21/2022 3:45:00 PM 14.8 58.64 0.089 6.56 2.17 9.83
5/21/2022 4:00:00 PM 14.78 58.604 0.089 6.56 2.17 9.83
5/21/2022 4:15:00 PM 14.78 58.604 0.089 6.56 2.24 9.83
5/21/2022 4:30:00 PM 14.79 58.622 0.089 6.56 2.18 9.83
5/21/2022 4:45:00 PM 14.77 58.586 0.089 6.56 2.38 9.82
5/21/2022 5:00:00 PM 14.73 58.514 0.089 6.55 2.06 9.83
5/21/2022 5:15:00 PM 14.74 58.532 0.089 6.55 2.03 9.82
5/21/2022 5:30:00 PM 14.73 58.514 0.089 6.55 2.08 9.82
5/21/2022 5:45:00 PM 14.69 58.442 0.089 6.54 2.14 9.82
5/21/2022 6:00:00 PM 14.68 58.424 0.089 6.54 2.12 9.83
5/21/2022 6:15:00 PM 14.65 58.37 0.089 6.55 2.25 9.83
5/21/2022 6:30:00 PM 14.6 58.28 0.089 6.54 2.16 9.84
5/21/2022 6:45:00 PM 14.56 58.208 0.089 6.53 2.27 9.85
5/21/2022 7:00:00 PM 14.5 58.1 0.089 6.51 2.27 9.85
5/21/2022 7:15:00 PM 14.44 57.992 0.089 6.51 2.62 9.87
5/21/2022 7:30:00 PM 14.37 57.866 0.089 6.5 2.22 9.88
5/21/2022 7:45:00 PM 14.3 57.74 0.09 6.49 2 9.9
5/21/2022 8:00:00 PM 14.21 57.578 0.09 6.48 2.04 9.93
5/21/2022 8:15:00 PM 14.13 57.434 0.09 6.48 2.21 9.95
5/21/2022 8:30:00 PM 14.05 57.29 0.09 6.47 2.09 9.96
5/21/2022 8:45:00 PM 14 57.2 0.09 6.46 2.09 9.98
5/21/2022 9:00:00 PM 13.94 57.092 0.09 6.46 2.05 9.99
5/21/2022 9:15:00 PM 13.88 56.984 0.09 6.43 2.26 10.01
5/21/2022 9:30:00 PM 13.84 56.912 0.09 6.47 2.14 10.02
5/21/2022 9:45:00 PM 13.79 56.822 0.09 6.46 2.21 10.03
5/21/2022 10:00:00 PM 13.78 56.804 0.09 6.48 2.37 10.04
5/21/2022 10:15:00 PM 13.76 56.768 0.09 6.49 2.2 10.05
5/21/2022 10:30:00 PM 13.74 56.732 0.09 6.51 2.16 10.05
5/21/2022 10:45:00 PM 13.73 56.714 0.09 6.53 2.17 10.06
5/21/2022 11:00:00 PM 13.69 56.642 0.09 6.53 2.11 10.07
5/21/2022 11:15:00 PM 13.64 56.552 0.09 6.52 2.18 10.08
5/21/2022 11:30:00 PM 13.59 56.462 0.09 6.51 2.1 10.09
5/21/2022 11:45:00 PM 13.52 56.336 0.09 6.49 2.18 10.11
5/22/2022 12:00:00 AM 13.46 56.228 0.09 6.48 2.13 10.12
5/22/2022 12:15:00 AM 13.4 56.12 0.09 6.48 2.25 10.13
5/22/2022 12:30:00 AM 13.34 56.012 0.09 6.47 2.27 10.15
5/22/2022 12:45:00 AM 13.28 55.904 0.09 6.48 2.31 10.16
5/22/2022 1:00:00 AM 13.22 55.796 0.09 6.48 2.44 10.17
5/22/2022 1:15:00 AM 13.17 55.706 0.09 6.48 2.29 10.18
5/22/2022 1:30:00 AM 13.12 55.616 0.09 6.46 2.63 10.19
5/22/2022 1:45:00 AM 13.06 55.508 0.09 6.48 2.17 10.21
5/22/2022 2:00:00 AM 13.02 55.436 0.09 6.47 2.3 10.22
5/22/2022 2:15:00 AM 12.97 55.346 0.09 6.44 2.21 10.23
5/22/2022 2:30:00 AM 12.93 55.274 0.09 6.46 2.14 10.24
5/22/2022 2:45:00 AM 12.89 55.202 0.09 6.47 2.23 10.25
5/22/2022 3:00:00 AM 12.85 55.13 0.09 6.46 2.17 10.25
5/22/2022 3:15:00 AM 12.82 55.076 0.09 6.46 2.29 10.26
5/22/2022 3:30:00 AM 12.78 55.004 0.09 6.47 2.2 10.27
5/22/2022 3:45:00 AM 12.74 54.932 0.09 6.46 2.19 10.28
5/22/2022 4:00:00 AM 12.7 54.86 0.09 6.46 2.17 10.29
5/22/2022 4:15:00 AM 12.66 54.788 0.09 6.45 2.41 10.3
5/22/2022 4:30:00 AM 12.62 54.716 0.09 6.45 2.6 10.31
5/22/2022 4:45:00 AM 12.58 54.644 0.09 6.45 2.33 10.32
5/22/2022 5:00:00 AM 12.54 54.572 0.09 6.45 2.34 10.32
5/22/2022 5:15:00 AM 12.51 54.518 0.09 6.45 2.32 10.34
5/22/2022 5:30:00 AM 12.47 54.446 0.09 6.45 2.21 10.35
5/22/2022 5:45:00 AM 12.44 54.392 0.09 6.44 2.18 10.35
5/22/2022 6:00:00 AM 12.41 54.338 0.09 6.45 2.12 10.37
5/22/2022 6:15:00 AM 12.39 54.302 0.09 6.45 2.15 10.38
5/22/2022 6:30:00 AM 12.37 54.266 0.09 6.45 2.27 10.39
5/22/2022 6:45:00 AM 12.36 54.248 0.09 6.46 2.13 10.39
5/22/2022 7:00:00 AM 12.36 54.248 0.09 6.45 2.05 10.39
5/22/2022 7:15:00 AM 12.36 54.248 0.09 6.44 2.07 10.39
5/22/2022 7:30:00 AM 12.37 54.266 0.09 6.45 2.08 10.39
5/22/2022 7:45:00 AM 12.38 54.284 0.09 6.44 2.05 10.39
5/22/2022 8:00:00 AM 12.4 54.32 0.09 6.46 2.04 10.39
5/22/2022 8:15:00 AM 12.44 54.392 0.09 6.47 1.97 10.38
5/22/2022 8:30:00 AM 12.5 54.5 0.09 6.48 2.06 10.36
5/22/2022 8:45:00 AM 12.57 54.626 0.09 6.54 1.92 10.35
5/22/2022 9:00:00 AM 12.65 54.77 0.09 6.51 2.06 10.33
5/22/2022 9:15:00 AM 12.75 54.95 0.09 6.52 1.92 10.31
5/22/2022 9:30:00 AM 12.85 55.13 0.09 6.52 2.03 10.3
5/22/2022 9:45:00 AM 12.96 55.328 0.09 6.54 2.04 10.26
5/22/2022 10:00:00 AM 13.01 55.418 0.09 6.53 2.12 10.25
5/22/2022 10:15:00 AM 13.1 55.58 0.09 6.53 1.94 10.23
5/22/2022 10:30:00 AM 13.26 55.868 0.09 6.62 1.97 10.19
5/22/2022 10:45:00 AM 13.4 56.12 0.09 6.54 2.02 10.16
5/22/2022 11:00:00 AM 13.53 56.354 0.09 6.55 2.03 10.14
5/22/2022 11:15:00 AM 13.72 56.696 0.09 6.52 2.03 10.1
5/22/2022 11:30:00 AM 13.87 56.966 0.09 6.6 2.01 10.05
5/22/2022 11:45:00 AM 14.05 57.29 0.09 6.55 1.96 10.02
5/22/2022 12:00:00 PM 14.22 57.596 0.09 6.56 1.98 9.98
5/22/2022 12:15:00 PM 14.34 57.812 0.09 6.54 1.98 9.94
5/22/2022 12:30:00 PM 14.42 57.956 0.09 6.66 1.99 9.92
5/22/2022 12:45:00 PM 14.46 58.028 0.09 6.66 2 9.91
5/22/2022 1:00:00 PM 14.5 58.1 0.09 6.7 2.03 9.91
5/22/2022 1:15:00 PM 14.53 58.154 0.09 6.61 2 9.89
5/22/2022 1:30:00 PM 14.56 58.208 0.09 6.65 2.08 9.89
5/22/2022 1:45:00 PM 14.58 58.244 0.09 6.65 2.02 9.88
5/22/2022 2:00:00 PM 14.64 58.352 0.09 6.66 1.98 9.88
5/22/2022 2:15:00 PM 14.69 58.442 0.09 6.68 2.05 9.86
5/22/2022 2:30:00 PM 14.69 58.442 0.09 6.67 2.04 9.85
5/22/2022 2:45:00 PM 14.72 58.496 0.09 6.69 2.03 9.84
5/22/2022 3:00:00 PM 14.75 58.55 0.09 6.71 2.05 9.83
5/22/2022 3:15:00 PM 14.73 58.514 0.09 6.71 2.06 9.83
5/22/2022 3:30:00 PM 14.75 58.55 0.09 6.71 2.09 9.83
5/22/2022 3:45:00 PM 14.71 58.478 0.09 6.69 2.02 9.83
5/22/2022 4:00:00 PM 14.66 58.388 0.09 6.7 2.22 9.84
5/22/2022 4:15:00 PM 14.65 58.37 0.09 6.72 2.01 9.86
5/22/2022 4:30:00 PM 14.61 58.298 0.09 6.72 1.97 9.87
5/22/2022 4:45:00 PM 14.53 58.154 0.09 6.69 2.06 9.87
5/22/2022 5:00:00 PM 14.47 58.046 0.09 6.75 2.19 9.88
5/22/2022 5:15:00 PM 14.4 57.92 0.091 6.78 2.18 9.91
5/22/2022 5:30:00 PM 14.31 57.758 0.091 6.78 2.04 9.93
5/22/2022 5:45:00 PM 14.22 57.596 0.089 6.81 3.19 9.96
5/22/2022 6:00:00 PM 14.13 57.434 0.091 6.83 2.06 9.97
5/22/2022 6:15:00 PM 14.05 57.29 0.091 6.86 2.23 10
5/22/2022 6:30:00 PM 13.98 57.164 0.091 6.86 2.08 10.01
5/22/2022 6:45:00 PM 13.91 57.038 0.091 6.9 2.42 10.02
5/22/2022 7:00:00 PM 13.85 56.93 0.091 7.04 2.15 10.03
5/22/2022 7:15:00 PM 13.79 56.822 0.091 7.05 1.96 10.05
5/22/2022 7:30:00 PM 13.73 56.714 0.091 7.06 2.07 10.07
5/22/2022 7:45:00 PM 13.67 56.606 0.091 7.09 2.01 10.09
5/22/2022 8:00:00 PM 13.6 56.48 0.091 7.06 2.02 10.1
5/22/2022 8:15:00 PM 13.53 56.354 0.091 6.93 2.07 10.12
5/22/2022 8:30:00 PM 13.46 56.228 0.091 6.94 2.07 10.14
5/22/2022 8:45:00 PM 13.38 56.084 0.091 6.9 2.06 10.16
5/22/2022 9:00:00 PM 13.31 55.958 0.091 6.92 2.18 10.18
5/22/2022 9:15:00 PM 13.22 55.796 0.091 7 2.35 10.2
5/22/2022 9:30:00 PM 13.15 55.67 0.091 7.14 2.09 10.22
5/22/2022 9:45:00 PM 13.06 55.508 0.091 7.19 2.13 10.24
5/22/2022 10:00:00 PM 12.98 55.364 0.091 7.18 2.3 10.27
5/22/2022 10:15:00 PM 12.9 55.22 0.091 7.25 2.37 10.29
5/22/2022 10:30:00 PM 12.83 55.094 0.091 7.25 2.02 10.31
5/22/2022 10:45:00 PM 12.76 54.968 0.091 7.24 2.1 10.32
5/22/2022 11:00:00 PM 12.68 54.824 0.091 7.32 2.12 10.34
5/22/2022 11:15:00 PM 12.62 54.716 0.091 7.29 2.21 10.36
5/22/2022 11:30:00 PM 12.55 54.59 0.091 7.35 2.03 10.37
5/22/2022 11:45:00 PM 12.47 54.446 0.091 7.24 2.25 10.4
5/23/2022 12:00:00 AM 12.4 54.32 0.091 7.28 2.13 10.42
5/23/2022 12:15:00 AM 12.32 54.176 0.091 7.29 2.03 10.44
5/23/2022 12:30:00 AM 12.24 54.032 0.091 7.26 2.21 10.46
5/23/2022 12:45:00 AM 12.16 53.888 0.091 7.21 2.23 10.48
5/23/2022 1:00:00 AM 12.08 53.744 0.091 7.12 2.13 10.5
5/23/2022 1:15:00 AM 12.01 53.618 0.091 7.27 2.07 10.52
5/23/2022 1:30:00 AM 11.94 53.492 0.091 7.29 2.1 10.54
5/23/2022 1:45:00 AM 11.89 53.402 0.091 7.24 1.93 10.55
5/23/2022 2:00:00 AM 11.83 53.294 0.091 7.31 2.15 10.57
5/23/2022 2:15:00 AM 11.77 53.186 0.091 7.31 2.12 10.59
5/23/2022 2:30:00 AM 11.72 53.096 0.091 7.29 1.99 10.6
5/23/2022 2:45:00 AM 11.68 53.024 0.091 7.31 2.12 10.6
5/23/2022 3:00:00 AM 11.64 52.952 0.091 7.33 2.07 10.62
5/23/2022 3:15:00 AM 11.6 52.88 0.091 7.11 2.06 10.63
5/23/2022 3:30:00 AM 11.56 52.808 0.091 7.36 1.98 10.64
5/23/2022 3:45:00 AM 11.52 52.736 0.091 7.41 2.18 10.65
5/23/2022 4:00:00 AM 11.49 52.682 0.091 7.34 2.33 10.65
5/23/2022 4:15:00 AM 11.47 52.646 0.091 7.3 2.24 10.66
5/23/2022 4:30:00 AM 11.44 52.592 0.091 7.27 2.06 10.67
5/23/2022 4:45:00 AM 11.42 52.556 0.091 7.31 2.05 10.67
5/23/2022 5:00:00 AM 11.39 52.502 0.091 7.47 1.93 10.68
5/23/2022 5:15:00 AM 11.37 52.466 0.091 7.33 2.08 10.68
5/23/2022 5:30:00 AM 11.34 52.412 0.091 7.31 2.18 10.69
5/23/2022 5:45:00 AM 11.32 52.376 0.091 7.23 2.09 10.7
5/23/2022 6:00:00 AM 11.29 52.322 0.091 7.22 2.07 10.7
5/23/2022 6:15:00 AM 11.26 52.268 0.091 7.25 2.04 10.71
5/23/2022 6:30:00 AM 11.23 52.214 0.091 7.28 1.96 10.72
5/23/2022 6:45:00 AM 11.21 52.178 0.091 7.27 1.93 10.74
5/23/2022 7:00:00 AM 11.2 52.16 0.091 7.35 2.01 10.74
5/23/2022 7:15:00 AM 11.18 52.124 0.091 7.26 2.04 10.75
5/23/2022 7:30:00 AM 11.18 52.124 0.091 7.28 1.85 10.76
5/23/2022 7:45:00 AM 11.17 52.106 0.091 7.18 1.9 10.76
5/23/2022 8:00:00 AM 11.17 52.106 0.091 7.24 1.85 10.76
5/23/2022 8:15:00 AM 11.17 52.106 0.091 7.17 2.01 10.77
5/23/2022 8:30:00 AM 11.18 52.124 0.091 7.11 1.91 10.76
5/23/2022 8:45:00 AM 11.2 52.16 0.091 7.16 1.88 10.76
5/23/2022 9:00:00 AM 11.24 52.232 0.091 7.2 1.88 10.75
5/23/2022 9:15:00 AM 11.29 52.322 0.091 7.22 1.89 10.74
5/23/2022 9:30:00 AM 11.34 52.412 0.091 7.3 1.9 10.73
5/23/2022 9:45:00 AM 11.39 52.502 0.091 7.26 1.86 10.73
5/23/2022 10:00:00 AM 11.44 52.592 0.091 7.18 1.87 10.71
5/23/2022 10:15:00 AM 11.5 52.7 0.091 7.05 1.88 10.7
5/23/2022 10:30:00 AM 11.55 52.79 0.091 6.98 2.03 10.69
5/23/2022 10:45:00 AM 11.59 52.862 0.091 6.86 2.01 10.67
5/23/2022 11:00:00 AM 11.64 52.952 0.091 6.92 2.03 10.67
5/23/2022 11:15:00 AM 11.7 53.06 0.091 6.98 2.11 10.65
5/23/2022 11:30:00 AM 11.75 53.15 0.091 6.96 1.94 10.64
5/23/2022 11:45:00 AM 11.79 53.222 0.091 7.02 1.93 10.63
5/23/2022 12:00:00 PM 11.85 53.33 0.091 7.08 2.08 10.61
5/23/2022 12:15:00 PM 11.9 53.42 0.091 6.91 2 10.59
5/23/2022 12:30:00 PM 11.96 53.528 0.091 6.97 1.8 10.58
5/23/2022 12:45:00 PM 11.99 53.582 0.091 6.99 1.92 10.56
5/23/2022 1:00:00 PM 12.01 53.618 0.091 7.08 1.87 10.56
5/23/2022 1:15:00 PM 12.05 53.69 0.091 7.09 2.03 10.55
5/23/2022 1:30:00 PM 12.08 53.744 0.091 7.24 1.99 10.54
5/23/2022 1:45:00 PM 12.09 53.762 0.091 7.34 1.91 10.53
5/23/2022 2:00:00 PM 12.09 53.762 0.091 7.15 1.97 10.53
5/23/2022 2:15:00 PM 12.09 53.762 0.091 7 1.89 10.53
5/23/2022 2:30:00 PM 12.09 53.762 0.091 6.95 1.89 10.52
5/23/2022 2:45:00 PM 12.08 53.744 0.091 7.05 1.92 10.53
5/23/2022 3:00:00 PM 12.06 53.708 0.091 7.16 2.04 10.53
5/23/2022 3:15:00 PM 12.04 53.672 0.091 7.12 1.86 10.54
5/23/2022 3:30:00 PM 12.04 53.672 0.091 7.1 1.89 10.54
5/23/2022 3:45:00 PM 12.03 53.654 0.091 7.16 1.95 10.54
5/23/2022 4:00:00 PM 12.02 53.636 0.091 7.2 1.88 10.54
5/23/2022 4:15:00 PM 12.01 53.618 0.091 7.27 1.93 10.53
5/23/2022 4:30:00 PM 12 53.6 0.091 7.21 2.01 10.54
5/23/2022 4:45:00 PM 11.98 53.564 0.091 7.09 1.9 10.53
5/23/2022 5:00:00 PM 11.97 53.546 0.091 7.19 2 10.54
5/23/2022 5:15:00 PM 11.96 53.528 0.092 7.22 2.13 10.54
5/23/2022 5:30:00 PM 11.95 53.51 0.092 7.1 2.07 10.54
5/23/2022 5:45:00 PM 11.93 53.474 0.092 7.24 1.95 10.54
5/23/2022 6:00:00 PM 11.92 53.456 0.092 7.17 1.98 10.54
5/23/2022 6:15:00 PM 11.91 53.438 0.092 7.14 1.99 10.54
5/23/2022 6:30:00 PM 11.9 53.42 0.092 7.15 1.87 10.55
5/23/2022 6:45:00 PM 11.88 53.384 0.092 7.16 2.57 10.55
5/23/2022 7:00:00 PM 11.86 53.348 0.092 7.25 2.38 10.55
5/23/2022 7:15:00 PM 11.84 53.312 0.092 7.21 2.5 10.56
5/23/2022 7:30:00 PM 11.82 53.276 0.092 7.19 2.09 10.56
5/23/2022 7:45:00 PM 11.8 53.24 0.092 7.16 2.2 10.57
5/23/2022 8:00:00 PM 11.78 53.204 0.092 7.23 2.11 10.57
5/23/2022 8:15:00 PM 11.75 53.15 0.092 7.29 1.99 10.58
5/23/2022 8:30:00 PM 11.73 53.114 0.092 7.31 2 10.58
5/23/2022 8:45:00 PM 11.7 53.06 0.092 7.33 1.97 10.59
5/23/2022 9:00:00 PM 11.67 53.006 0.092 7.28 1.99 10.6
5/23/2022 9:15:00 PM 11.64 52.952 0.092 7.24 2.07 10.6
5/23/2022 9:30:00 PM 11.61 52.898 0.092 7.22 1.95 10.61
5/23/2022 9:45:00 PM 11.58 52.844 0.092 7.17 1.94 10.62
5/23/2022 10:00:00 PM 11.55 52.79 0.092 7.22 1.9 10.63
5/23/2022 10:15:00 PM 11.53 52.754 0.092 7.37 2.03 10.64
5/23/2022 10:30:00 PM 11.5 52.7 0.092 7.44 2.12 10.65
5/23/2022 10:45:00 PM 11.47 52.646 0.092 7.59 1.99 10.65
5/23/2022 11:00:00 PM 11.44 52.592 0.092 7.53 2.11 10.66
5/23/2022 11:15:00 PM 11.4 52.52 0.092 7.27 1.88 10.67
5/23/2022 11:30:00 PM 11.37 52.466 0.092 7.39 1.96 10.67
5/23/2022 11:45:00 PM 11.34 52.412 0.092 7.28 2.01 10.68
5/24/2022 12:00:00 AM 11.31 52.358 0.092 7.1 2.14 10.69
5/24/2022 12:15:00 AM 11.27 52.286 0.092 7.35 1.99 10.7
5/24/2022 12:30:00 AM 11.24 52.232 0.092 7.48 2.02 10.71
5/24/2022 12:45:00 AM 11.22 52.196 0.092 7.55 2.02 10.72
5/24/2022 1:00:00 AM 11.19 52.142 0.092 7.5 1.99 10.73
5/24/2022 1:15:00 AM 11.17 52.106 0.092 6.98 1.99 10.73
5/24/2022 1:30:00 AM 11.14 52.052 0.092 7.04 2.03 10.74
5/24/2022 1:45:00 AM 11.11 51.998 0.092 7.33 1.87 10.75
5/24/2022 2:00:00 AM 11.08 51.944 0.092 7.68 1.9 10.75
5/24/2022 2:15:00 AM 11.05 51.89 0.092 7.78 1.94 10.76
5/24/2022 2:30:00 AM 11.01 51.818 0.092 7.7 1.97 10.77
5/24/2022 2:45:00 AM 10.97 51.746 0.092 7.75 1.99 10.78
5/24/2022 3:00:00 AM 10.92 51.656 0.092 7.42 1.93 10.79
5/24/2022 3:15:00 AM 10.87 51.566 0.092 7.56 1.92 10.79
5/24/2022 3:30:00 AM 10.82 51.476 0.092 7.89 1.98 10.81
5/24/2022 3:45:00 AM 10.78 51.404 0.092 7.88 2.11 10.82
5/24/2022 4:00:00 AM 10.73 51.314 0.092 7.59 2.09 10.83
5/24/2022 4:15:00 AM 10.69 51.242 0.092 7.94 2.01 10.84
5/24/2022 4:30:00 AM 10.64 51.152 0.092 7.88 1.91 10.85
5/24/2022 4:45:00 AM 10.61 51.098 0.092 7.83 1.9 10.87
5/24/2022 5:00:00 AM 10.57 51.026 0.092 7.64 1.89 10.88
5/24/2022 5:15:00 AM 10.54 50.972 0.092 7.98 2.01 10.89
5/24/2022 5:30:00 AM 10.51 50.918 0.092 7.95 2.09 10.9
5/24/2022 5:45:00 AM 10.48 50.864 0.092 7.9 2.01 10.9
5/24/2022 6:00:00 AM 10.46 50.828 0.092 7.63 2.1 10.91
5/24/2022 6:15:00 AM 10.45 50.81 0.092 8.02 2.13 10.92
5/24/2022 6:30:00 AM 10.44 50.792 0.092 8.03 2.1 10.92
5/24/2022 6:45:00 AM 10.45 50.81 0.092 7.9 2.03 10.93
5/24/2022 7:00:00 AM 10.46 50.828 0.092 8.12 1.88 10.92
5/24/2022 7:15:00 AM 10.48 50.864 0.092 8.04 1.85 10.92
5/24/2022 7:30:00 AM 10.5 50.9 0.092 8.07 1.86 10.92
5/24/2022 7:45:00 AM 10.52 50.936 0.092 8.17 1.82 10.91
5/24/2022 8:00:00 AM 10.54 50.972 0.092 8.41 1.78 10.91
5/24/2022 8:15:00 AM 10.56 51.008 0.092 8.27 1.9 10.91
5/24/2022 8:30:00 AM 10.58 51.044 0.092 8.41 1.89 10.9
5/24/2022 8:45:00 AM 10.6 51.08 0.092 8.22 1.92 10.9
5/24/2022 9:00:00 AM 10.63 51.134 0.092 8.27 1.87 10.9
5/24/2022 9:15:00 AM 10.66 51.188 0.092 8.31 1.83 10.89
5/24/2022 9:30:00 AM 10.71 51.278 0.092 8.4 1.87 10.87
5/24/2022 9:45:00 AM 10.75 51.35 0.092 8.12 1.82 10.86
5/24/2022 10:00:00 AM 10.79 51.422 0.092 8.06 1.78 10.85
5/24/2022 10:15:00 AM 10.83 51.494 0.092 8.26 1.87 10.84
5/24/2022 10:30:00 AM 10.86 51.548 0.092 8.45 1.87 10.84
5/24/2022 10:45:00 AM 10.88 51.584 0.092 8.56 1.83 10.83
5/24/2022 11:00:00 AM 10.91 51.638 0.092 8.74 1.94 10.82
5/24/2022 11:15:00 AM 10.95 51.71 0.092 8.53 1.9 10.82
5/24/2022 11:30:00 AM 10.98 51.764 0.092 8.79 1.87 10.81
5/24/2022 11:45:00 AM 11.01 51.818 0.092 8.42 1.84 10.8
5/24/2022 12:00:00 PM 11.04 51.872 0.092 8.89 1.84 10.79
5/24/2022 12:15:00 PM 11.08 51.944 0.092 9.17 1.79 10.78
5/24/2022 12:30:00 PM 11.1 51.98 0.092 8.99 1.82 10.78
5/24/2022 12:45:00 PM 11.12 52.016 0.092 8.93 1.87 10.77
5/24/2022 1:00:00 PM 11.14 52.052 0.092 9.14 1.9 10.77
5/24/2022 1:15:00 PM 11.16 52.088 0.092 9.1 1.92 10.76
5/24/2022 1:30:00 PM 11.16 52.088 0.092 9.02 1.96 10.76
5/24/2022 1:45:00 PM 11.17 52.106 0.092 9.3 1.76 10.75
5/24/2022 2:00:00 PM 11.18 52.124 0.092 9.42 1.78 10.75
5/24/2022 2:15:00 PM 11.19 52.142 0.092 9.38 2.02 10.75
5/24/2022 2:30:00 PM 11.21 52.178 0.092 9.37 1.85 10.75
5/24/2022 2:45:00 PM 11.24 52.232 0.092 9.5 1.89 10.74
5/24/2022 3:00:00 PM 11.26 52.268 0.092 9.42 1.82 10.73
5/24/2022 3:15:00 PM 11.28 52.304 0.092 9.4 1.96 10.72
5/24/2022 3:30:00 PM 11.29 52.322 0.092 9.38 1.84 10.71
5/24/2022 3:45:00 PM 11.31 52.358 0.092 9.37 1.86 10.71
5/24/2022 4:00:00 PM 11.31 52.358 0.092 9.41 1.81 10.71
5/24/2022 4:15:00 PM 11.31 52.358 0.092 9.35 1.87 10.7
5/24/2022 4:30:00 PM 11.3 52.34 0.092 9.35 2.71 10.69
5/24/2022 4:45:00 PM 11.29 52.322 0.092 9.37 2 10.7
5/24/2022 5:00:00 PM 11.28 52.304 0.092 9.34 2.07 10.7
5/24/2022 5:15:00 PM 11.28 52.304 0.092 9.4 1.89 10.71
5/24/2022 5:30:00 PM 11.28 52.304 0.092 9.45 2.13 10.7
5/24/2022 5:45:00 PM 11.29 52.322 0.092 9.38 2 10.7
5/24/2022 6:00:00 PM 11.3 52.34 0.092 9.39 4.08 10.7
5/24/2022 6:15:00 PM 11.3 52.34 0.092 9.41 1.96 10.7
5/24/2022 6:30:00 PM 11.3 52.34 0.092 9.31 2.2 10.7
5/24/2022 6:45:00 PM 11.29 52.322 0.092 9.43 1.94 10.7
5/24/2022 7:00:00 PM 11.28 52.304 0.092 9.33 1.88 10.7
5/24/2022 7:15:00 PM 11.27 52.286 0.092 9.25 1.87 10.71
5/24/2022 7:30:00 PM 11.25 52.25 0.092 9.35 1.97 10.71
5/24/2022 7:45:00 PM 11.24 52.232 0.092 9.36 1.83 10.72
5/24/2022 8:00:00 PM 11.23 52.214 0.092 9.29 2.05 10.72
5/24/2022 8:15:00 PM 11.21 52.178 0.093 9.36 1.99 10.72
5/24/2022 8:30:00 PM 11.2 52.16 0.092 9.28 1.91 10.73
5/24/2022 8:45:00 PM 11.18 52.124 0.093 9.34 1.96 10.73
5/24/2022 9:00:00 PM 11.17 52.106 0.092 9.42 1.9 10.74
5/24/2022 9:15:00 PM 11.16 52.088 0.092 9.46 2.36 10.74
5/24/2022 9:30:00 PM 11.15 52.07 0.092 9.45 2.13 10.74
5/24/2022 9:45:00 PM 11.14 52.052 0.093 9.4 2.1 10.74
5/24/2022 10:00:00 PM 11.14 52.052 0.093 9.48 2.06 10.75
5/24/2022 10:15:00 PM 11.13 52.034 0.093 9.55 2.04 10.75
5/24/2022 10:30:00 PM 11.12 52.016 0.093 9.49 2.02 10.75
5/24/2022 10:45:00 PM 11.12 52.016 0.093 9.46 2.05 10.76
5/24/2022 11:00:00 PM 11.11 51.998 0.093 9.43 2.1 10.76
5/24/2022 11:15:00 PM 11.11 51.998 0.088 9.38 3.05 10.76
5/24/2022 11:30:00 PM 11.1 51.98 0.093 9.4 2 10.76
5/24/2022 11:45:00 PM 11.1 51.98 0.093 9.41 2.1 10.76
5/25/2022 12:00:00 AM 11.09 51.962 0.093 9.42 2.07 10.77
5/25/2022 12:15:00 AM 11.09 51.962 0.093 9.48 2.15 10.77
5/25/2022 12:30:00 AM 11.08 51.944 0.093 9.47 2.07 10.78
5/25/2022 12:45:00 AM 11.07 51.926 0.093 9.59 2.14 10.77
5/25/2022 1:00:00 AM 11.07 51.926 0.093 9.62 2.1 10.77
5/25/2022 1:15:00 AM 11.06 51.908 0.093 9.48 2.11 10.77
5/25/2022 1:30:00 AM 11.05 51.89 0.093 9.29 2.67 10.77
5/25/2022 1:45:00 AM 11.04 51.872 0.093 9.42 2 10.78
5/25/2022 2:00:00 AM 11.03 51.854 0.093 9.45 4.59 10.78
5/25/2022 2:15:00 AM 11.02 51.836 0.093 9.25 2.25 10.78
5/25/2022 2:30:00 AM 11.01 51.818 0.093 9.68 2.19 10.79
5/25/2022 2:45:00 AM 10.99 51.782 0.093 9.6 2.17 10.79
5/25/2022 3:00:00 AM 10.96 51.728 0.093 9.84 1.93 10.8
5/25/2022 3:15:00 AM 10.94 51.692 0.093 9.58 1.93 10.8
5/25/2022 3:30:00 AM 10.91 51.638 0.093 9.47 1.89 10.81
5/25/2022 3:45:00 AM 10.89 51.602 0.093 9.29 1.89 10.82
5/25/2022 4:00:00 AM 10.86 51.548 0.093 9.36 2.03 10.82
5/25/2022 4:15:00 AM 10.84 51.512 0.093 9.31 1.93 10.83
5/25/2022 4:30:00 AM 10.83 51.494 0.093 9.4 2.15 10.83
5/25/2022 4:45:00 AM 10.82 51.476 0.093 9.37 2.01 10.83
5/25/2022 5:00:00 AM 10.8 51.44 0.093 9.49 1.95 10.84
5/25/2022 5:15:00 AM 10.79 51.422 0.093 9.9 1.94 10.84
5/25/2022 5:30:00 AM 10.78 51.404 0.093 9.92 1.97 10.85
5/25/2022 5:45:00 AM 10.77 51.386 0.093 9.88 2.36 10.85
5/25/2022 6:00:00 AM 10.76 51.368 0.093 9.93 2.03 10.86
5/25/2022 6:15:00 AM 10.75 51.35 0.093 10.13 2.09 10.86
5/25/2022 6:30:00 AM 10.75 51.35 0.093 9.98 1.87 10.86
5/25/2022 6:45:00 AM 10.75 51.35 0.093 9.92 1.94 10.87
5/25/2022 7:00:00 AM 10.75 51.35 0.093 10.04 1.97 10.87
5/25/2022 7:15:00 AM 10.75 51.35 0.093 10.17 1.93 10.87
5/25/2022 7:30:00 AM 10.76 51.368 0.093 9.96 1.78 10.87
5/25/2022 7:45:00 AM 10.77 51.386 0.093 10.19 1.91 10.87
5/25/2022 8:00:00 AM 10.78 51.404 0.093 9.91 1.83 10.87
5/25/2022 8:15:00 AM 10.79 51.422 0.093 10.1 1.83 10.87
5/25/2022 8:30:00 AM 10.82 51.476 0.092 10.33 1.75 10.86
5/25/2022 8:45:00 AM 10.84 51.512 0.093 10.18 1.81 10.86
5/25/2022 9:00:00 AM 10.86 51.548 0.092 10.27 1.93 10.85
5/25/2022 9:15:00 AM 10.9 51.62 0.092 10.26 1.86 10.85
5/25/2022 9:30:00 AM 10.93 51.674 0.092 9.82 1.84 10.84
5/25/2022 9:45:00 AM 10.97 51.746 0.092 10.12 1.87 10.84
5/25/2022 10:00:00 AM 11.01 51.818 0.092 10.1 1.82 10.83
5/25/2022 10:15:00 AM 11.07 51.926 0.092 9.91 1.87 10.81
5/25/2022 10:30:00 AM 11.14 52.052 0.092 9.91 1.79 10.8
5/25/2022 10:45:00 AM 11.21 52.178 0.092 10.02 1.82 10.78
5/25/2022 11:00:00 AM 11.27 52.286 0.092 10.1 1.84 10.76
5/25/2022 11:15:00 AM 11.36 52.448 0.092 10.04 1.78 10.74
5/25/2022 11:30:00 AM 11.47 52.646 0.092 10.08 1.85 10.71
5/25/2022 11:45:00 AM 11.56 52.808 0.092 9.96 1.93 10.68
5/25/2022 12:00:00 PM 11.65 52.97 0.092 9.68 1.8 10.66
5/25/2022 12:15:00 PM 11.77 53.186 0.092 9.72 1.94 10.64
5/25/2022 12:30:00 PM 11.89 53.402 0.092 10 1.89 10.6
5/25/2022 12:45:00 PM 11.97 53.546 0.092 9.95 1.85 10.57
5/25/2022 1:00:00 PM 12.11 53.798 0.092 9.81 1.9 10.54
5/25/2022 1:15:00 PM 12.21 53.978 0.093 9.51 1.91 10.52
5/25/2022 1:30:00 PM 12.33 54.194 0.092 10.01 1.94 10.48
5/25/2022 1:45:00 PM 12.44 54.392 0.093 10 2.01 10.45
5/25/2022 2:00:00 PM 12.52 54.536 0.093 9.99 1.98 10.43
5/25/2022 2:15:00 PM 12.59 54.662 0.093 9.74 1.87 10.4
5/25/2022 2:30:00 PM 12.66 54.788 0.093 10.11 1.84 10.38
5/25/2022 2:45:00 PM 12.73 54.914 0.093 10.16 1.83 10.36
5/25/2022 3:00:00 PM 12.8 55.04 0.093 10.03 1.81 10.34
5/25/2022 3:15:00 PM 12.84 55.112 0.093 10.07 1.8 10.33
5/25/2022 3:30:00 PM 12.85 55.13 0.093 10.03 1.86 10.33
5/25/2022 3:45:00 PM 12.9 55.22 0.093 10.11 1.83 10.32
5/25/2022 4:00:00 PM 12.94 55.292 0.093 10.09 2.83 10.3
5/25/2022 4:15:00 PM 12.97 55.346 0.093 10.12 2.13 10.29
5/25/2022 4:30:00 PM 12.98 55.364 0.093 10.19 2.02 10.28
5/25/2022 4:45:00 PM 12.96 55.328 0.093 10.14 2.6 10.29
5/25/2022 5:00:00 PM 12.94 55.292 0.093 10.15 2.18 10.29
5/25/2022 5:15:00 PM 12.93 55.274 0.093 10.11 1.96 10.29
5/25/2022 5:30:00 PM 12.9 55.22 0.093 10.05 1.8 10.3
5/25/2022 5:45:00 PM 12.84 55.112 0.093 10.11 1.81 10.31
5/25/2022 6:00:00 PM 12.79 55.022 0.093 10.25 1.88 10.32
5/25/2022 6:15:00 PM 12.75 54.95 0.093 10.16 1.92 10.32
5/25/2022 6:30:00 PM 12.71 54.878 0.093 10.28 1.92 10.33
5/25/2022 6:45:00 PM 12.67 54.806 0.093 10.04 2.21 10.34
5/25/2022 7:00:00 PM 12.63 54.734 0.093 10.09 2.12 10.34
5/25/2022 7:15:00 PM 12.59 54.662 0.093 10.21 2.35 10.36
5/25/2022 7:30:00 PM 12.54 54.572 0.093 10.1 2.02 10.36
5/25/2022 7:45:00 PM 12.5 54.5 0.093 10.41 2.04 10.38
5/25/2022 8:00:00 PM 12.46 54.428 0.093 10.16 1.96 10.39
5/25/2022 8:15:00 PM 12.42 54.356 0.093 10.32 1.98 10.4
5/25/2022 8:30:00 PM 12.38 54.284 0.093 10.2 2.04 10.41
5/25/2022 8:45:00 PM 12.34 54.212 0.093 10.13 2.27 10.42
5/25/2022 9:00:00 PM 12.31 54.158 0.093 10.48 1.97 10.43
5/25/2022 9:15:00 PM 12.27 54.086 0.094 10.29 1.88 10.43
5/25/2022 9:30:00 PM 12.24 54.032 0.094 10.29 1.89 10.44
5/25/2022 9:45:00 PM 12.21 53.978 0.094 9.99 1.94 10.45
5/25/2022 10:00:00 PM 12.18 53.924 0.094 10.22 2.03 10.45
5/25/2022 10:15:00 PM 12.15 53.87 0.094 10.22 1.9 10.46
5/25/2022 10:30:00 PM 12.12 53.816 0.094 10.08 2.02 10.47
5/25/2022 10:45:00 PM 12.09 53.762 0.094 10.06 2.05 10.48
5/25/2022 11:00:00 PM 12.06 53.708 0.094 10.22 1.94 10.49
5/25/2022 11:15:00 PM 12.02 53.636 0.094 10.1 1.81 10.49
5/25/2022 11:30:00 PM 11.99 53.582 0.094 10.16 1.87 10.5
5/25/2022 11:45:00 PM 11.95 53.51 0.094 10.16 2.09 10.5
5/26/2022 12:00:00 AM 11.92 53.456 0.094 10.15 2.06 10.51
5/26/2022 12:15:00 AM 11.89 53.402 0.094 10.16 1.94 10.52
5/26/2022 12:30:00 AM 11.86 53.348 0.094 10.09 1.89 10.53
5/26/2022 12:45:00 AM 11.83 53.294 0.094 10.15 1.86 10.54
5/26/2022 1:00:00 AM 11.8 53.24 0.094 10.11 2.01 10.55
5/26/2022 1:15:00 AM 11.78 53.204 0.094 10.16 1.93 10.55
5/26/2022 1:30:00 AM 11.75 53.15 0.094 10.1 1.99 10.56
5/26/2022 1:45:00 AM 11.73 53.114 0.094 10.16 2.15 10.57
5/26/2022 2:00:00 AM 11.71 53.078 0.094 10.25 1.99 10.57
5/26/2022 2:15:00 AM 11.69 53.042 0.094 9.95 2.09 10.57
5/26/2022 2:30:00 AM 11.67 53.006 0.094 10.1 2.03 10.57
5/26/2022 2:45:00 AM 11.65 52.97 0.094 10.04 1.92 10.58
5/26/2022 3:00:00 AM 11.62 52.916 0.094 10.11 1.96 10.59
5/26/2022 3:15:00 AM 11.6 52.88 0.094 10.05 1.77 10.59
5/26/2022 3:30:00 AM 11.57 52.826 0.094 10.12 1.82 10.6
5/26/2022 3:45:00 AM 11.54 52.772 0.094 10.01 1.84 10.61
5/26/2022 4:00:00 AM 11.51 52.718 0.094 10.06 1.95 10.61
5/26/2022 4:15:00 AM 11.48 52.664 0.093 10.05 1.91 10.62
5/26/2022 4:30:00 AM 11.45 52.61 0.094 10.02 2.03 10.62
5/26/2022 4:45:00 AM 11.43 52.574 0.094 10.02 1.9 10.63
5/26/2022 5:00:00 AM 11.41 52.538 0.094 10.02 1.95 10.64
5/26/2022 5:15:00 AM 11.39 52.502 0.094 9.83 1.95 10.64
5/26/2022 5:30:00 AM 11.37 52.466 0.094 9.96 1.83 10.64
5/26/2022 5:45:00 AM 11.34 52.412 0.094 10.06 1.92 10.65
5/26/2022 6:00:00 AM 11.32 52.376 0.094 10.01 1.97 10.66
5/26/2022 6:15:00 AM 11.3 52.34 0.094 10.09 2 10.66
5/26/2022 6:30:00 AM 11.27 52.286 0.094 10.25 1.92 10.67
5/26/2022 6:45:00 AM 11.25 52.25 0.094 10.42 1.9 10.68
5/26/2022 7:00:00 AM 11.22 52.196 0.094 10.14 1.85 10.69
5/26/2022 7:15:00 AM 11.2 52.16 0.094 10.26 1.83 10.7
5/26/2022 7:30:00 AM 11.2 52.16 0.094 10.4 1.86 10.7
5/26/2022 7:45:00 AM 11.19 52.142 0.094 10.65 1.78 10.7
5/26/2022 8:00:00 AM 11.2 52.16 0.094 10.44 1.86 10.7
5/26/2022 8:15:00 AM 11.22 52.196 0.093 10.81 1.74 10.7
5/26/2022 8:30:00 AM 11.26 52.268 0.093 10.55 1.73 10.69
5/26/2022 8:45:00 AM 11.3 52.34 0.093 10.95 1.7 10.68
5/26/2022 9:00:00 AM 11.36 52.448 0.093 10.72 1.83 10.66
5/26/2022 9:15:00 AM 11.43 52.574 0.093 10.87 1.77 10.65
5/26/2022 9:30:00 AM 11.51 52.718 0.093 11.19 1.94 10.64
5/26/2022 9:45:00 AM 11.59 52.862 0.093 10.83 1.8 10.62
5/26/2022 10:00:00 AM 11.64 52.952 0.093 10.92 1.83 10.6
5/26/2022 10:15:00 AM 11.7 53.06 0.093 10.85 1.83 10.59
5/26/2022 10:30:00 AM 11.8 53.24 0.093 11.05 1.79 10.57
5/26/2022 10:45:00 AM 11.91 53.438 0.093 10.96 1.77 10.54
5/26/2022 11:00:00 AM 12.03 53.654 0.094 10.86 1.75 10.51
5/26/2022 11:15:00 AM 12.16 53.888 0.094 10.78 1.64 10.47
5/26/2022 11:30:00 AM 12.33 54.194 0.094 10.78 1.8 10.43
5/26/2022 11:45:00 AM 12.47 54.446 0.094 10.67 1.83 10.4
5/26/2022 12:00:00 PM 12.64 54.752 0.094 10.6 1.85 10.35
5/26/2022 12:15:00 PM 12.82 55.076 0.094 10.73 1.71 10.31
5/26/2022 12:30:00 PM 13 55.4 0.094 10.54 1.76 10.26
5/26/2022 12:45:00 PM 13.18 55.724 0.094 10.63 1.77 10.21
5/26/2022 1:00:00 PM 13.36 56.048 0.094 10.3 1.68 10.16
5/26/2022 1:15:00 PM 13.5 56.3 0.094 10.27 1.88 10.13
5/26/2022 1:30:00 PM 13.6 56.48 0.094 10.29 1.77 10.1
5/26/2022 1:45:00 PM 13.73 56.714 0.094 10.19 1.75 10.07
5/26/2022 2:00:00 PM 13.84 56.912 0.094 10.23 1.83 10.04
5/26/2022 2:15:00 PM 13.86 56.948 0.094 10.12 1.81 10.03
5/26/2022 2:30:00 PM 13.93 57.074 0.094 10.07 1.82 10.01
5/26/2022 2:45:00 PM 14 57.2 0.094 10.12 1.86 9.99
5/26/2022 3:00:00 PM 13.97 57.146 0.094 10.28 1.85 9.99
5/26/2022 3:15:00 PM 13.98 57.164 0.094 10.11 1.91 9.99
5/26/2022 3:30:00 PM 14 57.2 0.094 10.15 1.85 9.98
5/26/2022 3:45:00 PM 14 57.2 0.094 10.05 1.85 9.98
5/26/2022 4:00:00 PM 13.99 57.182 0.094 9.7 1.83 9.97
5/26/2022 4:15:00 PM 13.99 57.182 0.094 10.03 1.95 9.97
5/26/2022 4:30:00 PM 13.98 57.164 0.094 9.93 1.97 9.97
5/26/2022 4:45:00 PM 13.98 57.164 0.094 10 2.03 9.97
5/26/2022 5:00:00 PM 13.98 57.164 0.092 10.03 3.1 9.97
5/26/2022 5:15:00 PM 13.99 57.182 0.094 10.02 1.9 9.96
5/26/2022 5:30:00 PM 13.97 57.146 0.094 10.28 1.84 9.96
5/26/2022 5:45:00 PM 13.97 57.146 0.091 10.18 2.7 9.96
5/26/2022 6:00:00 PM 13.96 57.128 0.095 10.28 1.76 9.97
5/26/2022 6:15:00 PM 13.94 57.092 0.093 10.34 2.81 9.97
5/26/2022 6:30:00 PM 13.89 57.002 0.095 10.49 1.84 9.97
5/26/2022 6:45:00 PM 13.85 56.93 0.091 10.48 3.05 9.97
5/26/2022 7:00:00 PM 13.8 56.84 0.095 10.59 1.95 9.98
5/26/2022 7:15:00 PM 13.75 56.75 0.095 10.53 2.09 9.99
5/26/2022 7:30:00 PM 13.69 56.642 0.095 9.81 1.93 10.01
5/26/2022 7:45:00 PM 13.63 56.534 0.095 9.51 1.94 10.03
5/26/2022 8:00:00 PM 13.57 56.426 0.095 9.94 1.97 10.04
5/26/2022 8:15:00 PM 13.52 56.336 0.095 9.74 1.89 10.05
5/26/2022 8:30:00 PM 13.47 56.246 0.095 9.93 1.94 10.07
5/26/2022 8:45:00 PM 13.42 56.156 0.095 9.93 1.95 10.08
5/26/2022 9:00:00 PM 13.38 56.084 0.095 9.89 2.23 10.08
5/26/2022 9:15:00 PM 13.34 56.012 0.095 9.73 2.93 10.09
5/26/2022 9:30:00 PM 13.3 55.94 0.095 9.66 2.21 10.1
5/26/2022 9:45:00 PM 13.27 55.886 0.095 9.63 2.19 10.1
5/26/2022 10:00:00 PM 13.24 55.832 0.095 9.74 2.1 10.1
5/26/2022 10:15:00 PM 13.21 55.778 0.095 10.17 2.07 10.11
5/26/2022 10:30:00 PM 13.17 55.706 0.095 8.16 1.95 10.12
5/26/2022 10:45:00 PM 13.14 55.652 0.095 9.94 1.91 10.14
5/26/2022 11:00:00 PM 13.11 55.598 0.095 9.49 1.99 10.14
5/26/2022 11:15:00 PM 13.09 55.562 0.095 9.78 1.97 10.15
5/26/2022 11:30:00 PM 13.05 55.49 0.095 10.2 2.02 10.16
5/26/2022 11:45:00 PM 13.03 55.454 0.095 10.11 1.97 10.16
5/27/2022 12:00:00 AM 13.01 55.418 0.095 9.77 1.92 10.17
5/27/2022 12:15:00 AM 13 55.4 0.095 9.77 1.91 10.17
5/27/2022 12:30:00 AM 12.98 55.364 0.095 9.91 1.97 10.17
5/27/2022 12:45:00 AM 12.96 55.328 0.095 10.3 2.61 10.17
5/27/2022 1:00:00 AM 12.94 55.292 0.095 9.17 2.16 10.18
5/27/2022 1:15:00 AM 12.91 55.238 0.095 9.12 2.02 10.18
5/27/2022 1:30:00 AM 12.9 55.22 0.095 9.58 2.08 10.19
5/27/2022 1:45:00 AM 12.88 55.184 0.095 9.48 1.96 10.19
5/27/2022 2:00:00 AM 12.85 55.13 0.095 9.72 2.27 10.19
5/27/2022 2:15:00 AM 12.83 55.094 0.095 9.32 1.89 10.19
5/27/2022 2:30:00 AM 12.8 55.04 0.095 9.61 2.14 10.2
5/27/2022 2:45:00 AM 12.78 55.004 0.095 9.04 2 10.2
5/27/2022 3:00:00 AM 12.75 54.95 0.095 9.16 2.25 10.2
5/27/2022 3:15:00 AM 12.73 54.914 0.095 8.95 2.69 10.21
5/27/2022 3:30:00 AM 12.71 54.878 0.095 8.99 2.8 10.21
5/27/2022 3:45:00 AM 12.7 54.86 0.095 8.81 2.26 10.21
5/27/2022 4:00:00 AM 12.68 54.824 0.095 8.59 2.14 10.21
5/27/2022 4:15:00 AM 12.66 54.788 0.095 8.83 2.21 10.22
5/27/2022 4:30:00 AM 12.65 54.77 0.095 8.49 2.25 10.21
5/27/2022 4:45:00 AM 12.64 54.752 0.095 8.11 2.54 10.21
5/27/2022 5:00:00 AM 12.63 54.734 0.094 8.46 2.55 10.21
5/27/2022 5:15:00 AM 12.61 54.698 0.094 8.19 2.66 10.21
5/27/2022 5:30:00 AM 12.61 54.698 0.095 8.21 2.27 10.22
5/27/2022 5:45:00 AM 12.6 54.68 0.095 7.96 2.4 10.23
5/27/2022 6:00:00 AM 12.6 54.68 0.094 8.17 2.32 10.22
5/27/2022 6:15:00 AM 12.59 54.662 0.094 8.33 2.42 10.23
5/27/2022 6:30:00 AM 12.59 54.662 0.094 8.52 2.41 10.22
5/27/2022 6:45:00 AM 12.58 54.644 0.094 8.38 2.46 10.23
5/27/2022 7:00:00 AM 12.58 54.644 0.094 8.39 2.47 10.23
5/27/2022 7:15:00 AM 12.57 54.626 0.094 8.44 2.54 10.23
5/27/2022 7:30:00 AM 12.57 54.626 0.094 8.47 2.58 10.23
5/27/2022 7:45:00 AM 12.56 54.608 0.094 8.47 3.59 10.23
5/27/2022 8:00:00 AM 12.55 54.59 0.094 8.78 2.6 10.24
5/27/2022 8:15:00 AM 12.55 54.59 0.094 8.84 2.42 10.24
5/27/2022 8:30:00 AM 12.54 54.572 0.094 8.84 2.33 10.24
5/27/2022 8:45:00 AM 12.53 54.554 0.094 8.82 2.32 10.24
5/27/2022 9:00:00 AM 12.53 54.554 0.094 8.67 2.38 10.24
5/27/2022 9:15:00 AM 12.54 54.572 0.094 8.48 2.54 10.24
5/27/2022 9:30:00 AM 12.54 54.572 0.094 8.59 2.45 10.23
5/27/2022 9:45:00 AM 12.55 54.59 0.094 8.55 2.59 10.23
5/27/2022 10:00:00 AM 12.56 54.608 0.094 8.65 2.46 10.23
5/27/2022 10:15:00 AM 12.63 54.734 0.093 8.7 3.18 10.22
5/27/2022 10:30:00 AM 12.72 54.896 0.091 8.86 4.7 10.2
5/27/2022 10:45:00 AM 12.75 54.95 0.09 8.67 6.52 10.2
5/27/2022 11:00:00 AM 12.79 55.022 0.092 8.64 8.29 10.18
5/27/2022 11:15:00 AM 12.81 55.058 0.096 8.93 10.19 10.19
5/27/2022 11:30:00 AM 12.85 55.13 0.096 8.75 17.03 10.2
5/27/2022 11:45:00 AM 12.93 55.274 0.098 8.84 21.15 10.19
5/27/2022 12:00:00 PM 13.03 55.454 0.098 8.78 18.54 10.16
5/27/2022 12:15:00 PM 13.09 55.562 0.096 8.86 14.59 10.15
5/27/2022 12:30:00 PM 13.13 55.634 0.098 9.01 12.26 10.14
5/27/2022 12:45:00 PM 13.13 55.634 0.099 9.07 10.19 10.13
5/27/2022 1:00:00 PM 13.13 55.634 0.1 9.21 8.7 10.13
5/27/2022 1:15:00 PM 13.13 55.634 0.1 8.99 7.45 10.12
5/27/2022 1:30:00 PM 13.13 55.634 0.099 9.05 6.65 10.12
5/27/2022 1:45:00 PM 13.15 55.67 0.099 9.02 6.08 10.11
5/27/2022 2:00:00 PM 13.17 55.706 0.099 9.09 5.53 10.1
5/27/2022 2:15:00 PM 13.2 55.76 0.1 8.98 4.99 10.09
5/27/2022 2:30:00 PM 13.23 55.814 0.1 8.88 4.71 10.07
5/27/2022 2:45:00 PM 13.25 55.85 0.1 9.1 4.5 10.07
5/27/2022 3:00:00 PM 13.28 55.904 0.1 8.98 4.21 10.07
5/27/2022 3:15:00 PM 13.29 55.922 0.1 9.07 4.31 10.07
5/27/2022 3:30:00 PM 13.29 55.922 0.1 8.99 4.13 10.07
5/27/2022 3:45:00 PM 13.32 55.976 0.1 9.01 4.26 10.06
5/27/2022 4:00:00 PM 13.33 55.994 0.099 8.87 4.26 10.06
5/27/2022 4:15:00 PM 13.33 55.994 0.099 8.73 4.17 10.06
5/27/2022 4:30:00 PM 13.33 55.994 0.099 8.86 3.85 10.06
5/27/2022 4:45:00 PM 13.36 56.048 0.099 8.82 4.16 10.05
5/27/2022 5:00:00 PM 13.36 56.048 0.099 8.89 4.11 10.05
5/27/2022 5:15:00 PM 13.38 56.084 0.099 8.83 3.82 10.05
5/27/2022 5:30:00 PM 13.38 56.084 0.099 9.1 3.79 10.04
5/27/2022 5:45:00 PM 13.39 56.102 0.099 9.03 3.55 10.04
5/27/2022 6:00:00 PM 13.37 56.066 0.099 9.01 3.64 10.04
5/27/2022 6:15:00 PM 13.36 56.048 0.099 9.55 3.49 10.04
5/27/2022 6:30:00 PM 13.34 56.012 0.099 9.31 3.59 10.04
5/27/2022 6:45:00 PM 13.32 55.976 0.099 9.06 3.6 10.04
5/27/2022 7:00:00 PM 13.29 55.922 0.098 9.02 3.58 10.04
5/27/2022 7:15:00 PM 13.26 55.868 0.098 9.31 3.45 10.05
5/27/2022 7:30:00 PM 13.23 55.814 0.098 9.54 3.39 10.05
5/27/2022 7:45:00 PM 13.18 55.724 0.098 9.71 3.35 10.06
5/27/2022 8:00:00 PM 13.13 55.634 0.098 9.72 3.33 10.08
5/27/2022 8:15:00 PM 13.07 55.526 0.098 9.77 3.48 10.09
5/27/2022 8:30:00 PM 13.02 55.436 0.098 9.84 3.23 10.11
5/27/2022 8:45:00 PM 12.97 55.346 0.098 9.52 3.37 10.12
5/27/2022 9:00:00 PM 12.92 55.256 0.098 9.11 3.43 10.13
5/27/2022 9:15:00 PM 12.88 55.184 0.098 8.93 3.4 10.14
5/27/2022 9:30:00 PM 12.85 55.13 0.098 9.28 3.07 10.15
5/27/2022 9:45:00 PM 12.82 55.076 0.098 9.13 3.02 10.16
5/27/2022 10:00:00 PM 12.79 55.022 0.098 9.15 3.12 10.17
5/27/2022 10:15:00 PM 12.76 54.968 0.098 9.11 2.99 10.17
5/27/2022 10:30:00 PM 12.73 54.914 0.098 9.06 3.06 10.18
5/27/2022 10:45:00 PM 12.71 54.878 0.098 9.04 3.14 10.18
5/27/2022 11:00:00 PM 12.68 54.824 0.098 9.01 3.35 10.19
5/27/2022 11:15:00 PM 12.67 54.806 0.098 9.29 3.13 10.19
5/27/2022 11:30:00 PM 12.66 54.788 0.098 8.93 3.19 10.19
5/27/2022 11:45:00 PM 12.64 54.752 0.098 9.31 3.03 10.2
5/28/2022 12:00:00 AM 12.62 54.716 0.098 9.28 2.92 10.2
5/28/2022 12:15:00 AM 12.6 54.68 0.098 9.3 2.83 10.21
5/28/2022 12:30:00 AM 12.57 54.626 0.099 9.59 2.81 10.21
5/28/2022 12:45:00 AM 12.54 54.572 0.099 9.59 2.75 10.22
5/28/2022 1:00:00 AM 12.51 54.518 0.099 9.69 2.79 10.23
5/28/2022 1:15:00 AM 12.49 54.482 0.099 9.8 2.62 10.23
5/28/2022 1:30:00 AM 12.46 54.428 0.099 10.02 2.91 10.25
5/28/2022 1:45:00 AM 12.43 54.374 0.099 9.6 2.96 10.25
5/28/2022 2:00:00 AM 12.41 54.338 0.099 9.72 2.82 10.25
5/28/2022 2:15:00 AM 12.39 54.302 0.099 10.04 2.73 10.26
5/28/2022 2:30:00 AM 12.37 54.266 0.099 10.08 2.68 10.26
5/28/2022 2:45:00 AM 12.34 54.212 0.099 9.8 2.56 10.26
5/28/2022 3:00:00 AM 12.32 54.176 0.099 10.07 2.57 10.28
5/28/2022 3:15:00 AM 12.3 54.14 0.099 10.16 2.57 10.28
5/28/2022 3:30:00 AM 12.28 54.104 0.099 9.97 2.55 10.28
5/28/2022 3:45:00 AM 12.26 54.068 0.099 9.79 2.51 10.28
5/28/2022 4:00:00 AM 12.24 54.032 0.099 9.62 2.52 10.29
5/28/2022 4:15:00 AM 12.23 54.014 0.099 9.66 2.63 10.28
5/28/2022 4:30:00 AM 12.21 53.978 0.099 9.36 2.58 10.3
5/28/2022 4:45:00 AM 12.19 53.942 0.099 9.29 2.66 10.31
5/28/2022 5:00:00 AM 12.17 53.906 0.099 9.32 2.82 10.31
5/28/2022 5:15:00 AM 12.15 53.87 0.099 9.52 3.06 10.31
5/28/2022 5:30:00 AM 12.13 53.834 0.099 9.36 2.67 10.33
5/28/2022 5:45:00 AM 12.12 53.816 0.099 9.24 2.97 10.33
5/28/2022 6:00:00 AM 12.1 53.78 0.099 9.52 2.97 10.33
5/28/2022 6:15:00 AM 12.09 53.762 0.099 9.18 2.86 10.34
5/28/2022 6:30:00 AM 12.09 53.762 0.099 9.16 2.51 10.34
5/28/2022 6:45:00 AM 12.08 53.744 0.099 8.95 2.42 10.34
5/28/2022 7:00:00 AM 12.07 53.726 0.099 9.37 2.4 10.34
5/28/2022 7:15:00 AM 12.06 53.708 0.099 9.57 2.36 10.35
5/28/2022 7:30:00 AM 12.06 53.708 0.099 9.89 2.49 10.35
5/28/2022 7:45:00 AM 12.06 53.708 0.099 10.03 2.24 10.35
5/28/2022 8:00:00 AM 12.07 53.726 0.099 10.07 2.17 10.36
5/28/2022 8:15:00 AM 12.07 53.726 0.099 9.95 2.24 10.36
5/28/2022 8:30:00 AM 12.09 53.762 0.099 9.94 2.36 10.36
5/28/2022 8:45:00 AM 12.1 53.78 0.099 9.61 2.31 10.36
5/28/2022 9:00:00 AM 12.11 53.798 0.099 9.66 2.21 10.36
5/28/2022 9:15:00 AM 12.13 53.834 0.099 9.54 2.39 10.35
5/28/2022 9:30:00 AM 12.14 53.852 0.099 9.1 2.33 10.35
5/28/2022 9:45:00 AM 12.15 53.87 0.099 9.47 2.28 10.35
5/28/2022 10:00:00 AM 12.15 53.87 0.099 9.33 2.28 10.35
5/28/2022 10:15:00 AM 12.15 53.87 0.099 9.21 2.21 10.35
5/28/2022 10:30:00 AM 12.15 53.87 0.099 9.35 2.08 10.36
5/28/2022 10:45:00 AM 12.15 53.87 0.099 9.55 2.12 10.36
5/28/2022 11:00:00 AM 12.15 53.87 0.099 9.42 2 10.36
5/28/2022 11:15:00 AM 12.15 53.87 0.099 9.27 2.1 10.36
5/28/2022 11:30:00 AM 12.16 53.888 0.099 9.47 2.05 10.35
5/28/2022 11:45:00 AM 12.18 53.924 0.099 9.43 2.09 10.36
5/28/2022 12:00:00 PM 12.25 54.05 0.099 9.52 2.16 10.35
5/28/2022 12:15:00 PM 12.35 54.23 0.099 9.53 2 10.33
5/28/2022 12:30:00 PM 12.45 54.41 0.099 9.23 2.14 10.31
5/28/2022 12:45:00 PM 12.56 54.608 0.099 9.46 2.12 10.26
5/28/2022 1:00:00 PM 12.71 54.878 0.099 9.24 2.15 10.23
5/28/2022 1:15:00 PM 12.83 55.094 0.099 9.23 2.16 10.2
5/28/2022 1:30:00 PM 12.94 55.292 0.099 8.87 2.1 10.18
5/28/2022 1:45:00 PM 13.03 55.454 0.099 9.3 2.16 10.16
5/28/2022 2:00:00 PM 13.09 55.562 0.099 9.47 2.28 10.14
5/28/2022 2:15:00 PM 13.13 55.634 0.099 9.39 2.24 10.12
5/28/2022 2:30:00 PM 13.17 55.706 0.099 9.16 2.38 10.11
5/28/2022 2:45:00 PM 13.2 55.76 0.099 9.68 2.15 10.1
5/28/2022 3:00:00 PM 13.22 55.796 0.099 9.53 3.14 10.1
5/28/2022 3:15:00 PM 13.18 55.724 0.099 9.41 2.52 10.1
5/28/2022 3:30:00 PM 13.23 55.814 0.099 9.25 2.24 10.1
5/28/2022 3:45:00 PM 13.22 55.796 0.099 9.36 2.27 10.1
5/28/2022 4:00:00 PM 13.22 55.796 0.099 9.38 2.27 10.1
5/28/2022 4:15:00 PM 13.23 55.814 0.099 9.46 2.15 10.09
5/28/2022 4:30:00 PM 13.22 55.796 0.1 9.37 2.37 10.08
5/28/2022 4:45:00 PM 13.2 55.76 0.099 9.33 2.28 10.1
5/28/2022 5:00:00 PM 13.15 55.67 0.099 9.38 2.26 10.11
5/28/2022 5:15:00 PM 13.12 55.616 0.099 9.14 2.38 10.13
5/28/2022 5:30:00 PM 13.08 55.544 0.099 9.11 2.2 10.14
5/28/2022 5:45:00 PM 13.05 55.49 0.099 9.21 2.22 10.15
5/28/2022 6:00:00 PM 13.03 55.454 0.099 9.01 1.95 10.15
5/28/2022 6:15:00 PM 13.01 55.418 0.099 9.06 2.04 10.15
5/28/2022 6:30:00 PM 13 55.4 0.1 8.66 2.11 10.15
5/28/2022 6:45:00 PM 12.98 55.364 0.1 8.73 2.31 10.16
5/28/2022 7:00:00 PM 12.95 55.31 0.1 8.79 2.16 10.17
5/28/2022 7:15:00 PM 12.93 55.274 0.1 8.79 2.14 10.17
5/28/2022 7:30:00 PM 12.9 55.22 0.1 8.83 2.31 10.18
5/28/2022 7:45:00 PM 12.86 55.148 0.1 8.94 2.42 10.18
5/28/2022 8:00:00 PM 12.82 55.076 0.1 9.13 2.21 10.2
5/28/2022 8:15:00 PM 12.78 55.004 0.1 8.96 2.29 10.21
5/28/2022 8:30:00 PM 12.74 54.932 0.1 9.07 2.16 10.22
5/28/2022 8:45:00 PM 12.7 54.86 0.1 9.36 2.26 10.23
5/28/2022 9:00:00 PM 12.65 54.77 0.1 9.3 2.4 10.24
5/28/2022 9:15:00 PM 12.61 54.698 0.1 9.33 2.25 10.24
5/28/2022 9:30:00 PM 12.57 54.626 0.1 9.36 2.61 10.26
5/28/2022 9:45:00 PM 12.52 54.536 0.1 9.14 2.29 10.28
5/28/2022 10:00:00 PM 12.48 54.464 0.1 8.97 2.38 10.3
5/28/2022 10:15:00 PM 12.44 54.392 0.1 8.83 2.34 10.31
5/28/2022 10:30:00 PM 12.39 54.302 0.1 9.08 2.34 10.32
5/28/2022 10:45:00 PM 12.35 54.23 0.1 9.42 2.28 10.34
5/28/2022 11:00:00 PM 12.31 54.158 0.1 9.55 2.19 10.34
5/28/2022 11:15:00 PM 12.28 54.104 0.1 9.22 2.19 10.35
5/28/2022 11:30:00 PM 12.24 54.032 0.1 9.22 2.22 10.36
5/28/2022 11:45:00 PM 12.2 53.96 0.1 9.33 2.12 10.37
5/29/2022 12:00:00 AM 12.16 53.888 0.1 9.4 2.12 10.38
5/29/2022 12:15:00 AM 12.12 53.816 0.1 9.56 2.07 10.39
5/29/2022 12:30:00 AM 12.08 53.744 0.1 9.62 2.05 10.39
5/29/2022 12:45:00 AM 12.03 53.654 0.1 9.72 2.11 10.41
5/29/2022 1:00:00 AM 11.98 53.564 0.1 9.66 2.07 10.42
5/29/2022 1:15:00 AM 11.94 53.492 0.1 9.82 2.41 10.44
5/29/2022 1:30:00 AM 11.88 53.384 0.1 9.75 2.18 10.45
5/29/2022 1:45:00 AM 11.83 53.294 0.1 9.47 2.18 10.47
5/29/2022 2:00:00 AM 11.78 53.204 0.1 9.33 2.03 10.48
5/29/2022 2:15:00 AM 11.74 53.132 0.1 9.56 2.06 10.5
5/29/2022 2:30:00 AM 11.69 53.042 0.1 9.42 2.13 10.51
5/29/2022 2:45:00 AM 11.64 52.952 0.1 9.26 2.07 10.52
5/29/2022 3:00:00 AM 11.59 52.862 0.1 9.03 1.96 10.53
5/29/2022 3:15:00 AM 11.54 52.772 0.1 9.36 1.94 10.54
5/29/2022 3:30:00 AM 11.5 52.7 0.1 9.37 2 10.55
5/29/2022 3:45:00 AM 11.45 52.61 0.1 9.86 2.01 10.57
5/29/2022 4:00:00 AM 11.4 52.52 0.1 9.92 2.05 10.58
5/29/2022 4:15:00 AM 11.36 52.448 0.1 10.12 2.14 10.58
5/29/2022 4:30:00 AM 11.32 52.376 0.1 10 1.99 10.6
5/29/2022 4:45:00 AM 11.27 52.286 0.1 9.93 1.87 10.62
5/29/2022 5:00:00 AM 11.23 52.214 0.1 9.5 1.99 10.63
5/29/2022 5:15:00 AM 11.19 52.142 0.1 9.46 1.94 10.65
5/29/2022 5:30:00 AM 11.15 52.07 0.1 9.09 2.12 10.65
5/29/2022 5:45:00 AM 11.11 51.998 0.1 9.09 1.89 10.67
5/29/2022 6:00:00 AM 11.07 51.926 0.1 8.98 2.05 10.68
5/29/2022 6:15:00 AM 11.04 51.872 0.1 9.44 2.05 10.69
5/29/2022 6:30:00 AM 11.01 51.818 0.1 9.31 2.02 10.7
5/29/2022 6:45:00 AM 10.98 51.764 0.1 9.91 1.91 10.71
5/29/2022 7:00:00 AM 10.97 51.746 0.1 9.88 1.88 10.72
5/29/2022 7:15:00 AM 10.96 51.728 0.1 9.49 1.9 10.73
5/29/2022 7:30:00 AM 10.96 51.728 0.1 9.42 1.83 10.73
5/29/2022 7:45:00 AM 10.97 51.746 0.1 9.64 1.82 10.73
5/29/2022 8:00:00 AM 10.99 51.782 0.1 9.43 1.82 10.73
5/29/2022 8:15:00 AM 11.03 51.854 0.1 9.33 1.8 10.72
5/29/2022 8:30:00 AM 11.08 51.944 0.1 9.56 1.83 10.71
5/29/2022 8:45:00 AM 11.14 52.052 0.1 9.72 1.81 10.7
5/29/2022 9:00:00 AM 11.19 52.142 0.1 9.41 1.82 10.69
5/29/2022 9:15:00 AM 11.27 52.286 0.1 9.38 1.76 10.67
5/29/2022 9:30:00 AM 11.36 52.448 0.1 9.28 1.78 10.64
5/29/2022 9:45:00 AM 11.45 52.61 0.1 9.49 1.76 10.63
5/29/2022 10:00:00 AM 11.57 52.826 0.1 9.35 1.74 10.6
5/29/2022 10:15:00 AM 11.68 53.024 0.1 9.62 1.83 10.57
5/29/2022 10:30:00 AM 11.79 53.222 0.1 9.66 1.81 10.54
5/29/2022 10:45:00 AM 11.89 53.402 0.1 9.47 1.83 10.51
5/29/2022 11:00:00 AM 12.01 53.618 0.1 9.59 1.75 10.48
5/29/2022 11:15:00 AM 12.12 53.816 0.1 9.71 2.02 10.45
5/29/2022 11:30:00 AM 12.21 53.978 0.1 9.43 1.84 10.43
5/29/2022 11:45:00 AM 12.3 54.14 0.1 9.27 1.8 10.4
5/29/2022 12:00:00 PM 12.42 54.356 0.1 8.99 1.84 10.38
5/29/2022 12:15:00 PM 12.54 54.572 0.1 8.96 1.9 10.34
5/29/2022 12:30:00 PM 12.69 54.842 0.1 8.93 1.94 10.31
5/29/2022 12:45:00 PM 12.89 55.202 0.1 8.81 1.9 10.26
5/29/2022 1:00:00 PM 13 55.4 0.1 9.14 1.92 10.23
5/29/2022 1:15:00 PM 13.07 55.526 0.1 9.11 2.05 10.2
5/29/2022 1:30:00 PM 13.16 55.688 0.1 9.1 1.87 10.18
5/29/2022 1:45:00 PM 13.29 55.922 0.1 8.87 1.83 10.15
5/29/2022 2:00:00 PM 13.28 55.904 0.1 8.99 1.8 10.15
5/29/2022 2:15:00 PM 13.28 55.904 0.1 8.8 1.87 10.15
5/29/2022 2:30:00 PM 13.37 56.066 0.1 9.09 1.9 10.14
5/29/2022 2:45:00 PM 13.41 56.138 0.1 9.11 1.96 10.13
5/29/2022 3:00:00 PM 13.38 56.084 0.1 8.99 1.88 10.12
5/29/2022 3:15:00 PM 13.43 56.174 0.1 9.15 2 10.12
5/29/2022 3:30:00 PM 13.47 56.246 0.1 9.09 2.12 10.1
5/29/2022 3:45:00 PM 13.51 56.318 0.101 9.12 1.93 10.09
5/29/2022 4:00:00 PM 13.55 56.39 0.101 9.18 1.92 10.08
5/29/2022 4:15:00 PM 13.55 56.39 0.101 9.1 2.01 10.07
5/29/2022 4:30:00 PM 13.55 56.39 0.101 9.25 2.02 10.08
5/29/2022 4:45:00 PM 13.53 56.354 0.101 9.17 1.94 10.08
5/29/2022 5:00:00 PM 13.5 56.3 0.101 9.18 1.95 10.08
5/29/2022 5:15:00 PM 13.45 56.21 0.101 9.17 1.98 10.09
5/29/2022 5:30:00 PM 13.43 56.174 0.101 9.41 2.04 10.09
5/29/2022 5:45:00 PM 13.43 56.174 0.101 9.39 1.84 10.09
5/29/2022 6:00:00 PM 13.43 56.174 0.101 9.3 2.11 10.09
5/29/2022 6:15:00 PM 13.43 56.174 0.101 9.41 2.12 10.09
5/29/2022 7:15:00 PM 13.31 55.958 0.101 9.65 2.02 10.11
5/29/2022 7:30:00 PM 13.29 55.922 0.101 9.97 1.93 10.11
5/29/2022 7:45:00 PM 13.26 55.868 0.101 9.87 1.93 10.12
5/29/2022 8:00:00 PM 13.23 55.814 0.101 9.75 1.96 10.13
5/29/2022 8:15:00 PM 13.18 55.724 0.101 9.83 1.83 10.14
5/29/2022 8:30:00 PM 13.13 55.634 0.101 9.75 1.87 10.15
5/29/2022 8:45:00 PM 13.08 55.544 0.101 9.67 1.91 10.17
5/29/2022 9:00:00 PM 13.04 55.472 0.101 9.85 2.24 10.18
5/29/2022 9:15:00 PM 13 55.4 0.102 9.98 2 10.19
5/29/2022 9:30:00 PM 12.96 55.328 0.102 10.04 2.17 10.21
5/29/2022 9:45:00 PM 12.91 55.238 0.102 10.08 1.99 10.22
5/29/2022 10:00:00 PM 12.86 55.148 0.102 9.92 1.98 10.23
5/29/2022 10:15:00 PM 12.82 55.076 0.102 10.03 2.07 10.24
5/29/2022 10:30:00 PM 12.78 55.004 0.102 9.91 2.39 10.25
5/29/2022 10:45:00 PM 12.74 54.932 0.101 10.02 1.92 10.25
5/29/2022 11:00:00 PM 12.7 54.86 0.102 9.97 1.96 10.27
5/29/2022 11:15:00 PM 12.67 54.806 0.102 9.87 1.87 10.28
5/29/2022 11:30:00 PM 12.63 54.734 0.102 9.9 2.01 10.29
5/29/2022 11:45:00 PM 12.59 54.662 0.102 10.03 1.89 10.3
5/30/2022 12:00:00 AM 12.55 54.59 0.102 10.07 1.91 10.31
5/30/2022 12:15:00 AM 12.51 54.518 0.102 10.13 1.95 10.32
5/30/2022 12:30:00 AM 12.48 54.464 0.102 10.25 1.88 10.33
5/30/2022 12:45:00 AM 12.45 54.41 0.102 10.11 2.1 10.34
5/30/2022 1:00:00 AM 12.41 54.338 0.102 10.03 2.02 10.34
5/30/2022 1:15:00 AM 12.38 54.284 0.102 10.12 2.02 10.35
5/30/2022 1:30:00 AM 12.34 54.212 0.102 10.2 1.87 10.37
5/30/2022 1:45:00 AM 12.31 54.158 0.102 10.13 1.99 10.38
5/30/2022 2:00:00 AM 12.28 54.104 0.102 10.1 2 10.38
5/30/2022 2:15:00 AM 12.25 54.05 0.102 10.26 2.03 10.39
5/30/2022 2:30:00 AM 12.22 53.996 0.102 10.31 1.9 10.39
5/30/2022 2:45:00 AM 12.19 53.942 0.102 10.1 1.88 10.4
5/30/2022 3:00:00 AM 12.16 53.888 0.102 10.1 1.93 10.41
5/30/2022 3:15:00 AM 12.13 53.834 0.102 10.24 1.94 10.42
5/30/2022 3:30:00 AM 12.11 53.798 0.102 10.2 1.95 10.42
5/30/2022 3:45:00 AM 12.08 53.744 0.102 10.09 1.84 10.43
5/30/2022 4:00:00 AM 12.05 53.69 0.102 10.3 1.94 10.43
5/30/2022 4:15:00 AM 12.03 53.654 0.102 10.03 1.79 10.44
5/30/2022 4:30:00 AM 12.01 53.618 0.101 10.18 1.99 10.44
5/30/2022 4:45:00 AM 11.98 53.564 0.101 10.12 2.06 10.45
5/30/2022 5:00:00 AM 11.96 53.528 0.101 10.17 2.21 10.45
5/30/2022 5:15:00 AM 11.94 53.492 0.101 9.95 2.09 10.46
5/30/2022 5:30:00 AM 11.92 53.456 0.102 9.78 2.33 10.47
5/30/2022 5:45:00 AM 11.9 53.42 0.102 10.03 2.14 10.48
5/30/2022 6:00:00 AM 11.88 53.384 0.102 9.89 2.74 10.48
5/30/2022 6:15:00 AM 11.86 53.348 0.102 10.1 2.1 10.49
5/30/2022 6:30:00 AM 11.85 53.33 0.101 10.14 4.26 10.5
5/30/2022 6:45:00 AM 11.83 53.294 0.101 10.12 3.79 10.5
5/30/2022 7:00:00 AM 11.82 53.276 0.101 10 1.9 10.51
5/30/2022 7:15:00 AM 11.81 53.258 0.102 10.01 1.81 10.52
5/30/2022 7:30:00 AM 11.82 53.276 0.102 9.97 1.83 10.52
5/30/2022 7:45:00 AM 11.83 53.294 0.101 10.05 1.81 10.51
5/30/2022 8:00:00 AM 11.84 53.312 0.101 9.99 1.93 10.52
5/30/2022 8:15:00 AM 11.86 53.348 0.101 9.66 1.8 10.51
5/30/2022 8:30:00 AM 11.9 53.42 0.101 10.21 1.91 10.5
5/30/2022 8:45:00 AM 11.95 53.51 0.101 9.99 1.9 10.48
5/30/2022 9:00:00 AM 12.02 53.636 0.101 9.81 1.71 10.47
5/30/2022 9:15:00 AM 12.1 53.78 0.101 10.01 1.75 10.46
5/30/2022 9:30:00 AM 12.19 53.942 0.101 10.04 1.68 10.44
5/30/2022 9:45:00 AM 12.29 54.122 0.101 10.01 1.73 10.42
5/30/2022 10:00:00 AM 12.38 54.284 0.101 9.78 1.79 10.4
5/30/2022 10:15:00 AM 12.48 54.464 0.101 9.61 1.76 10.37
5/30/2022 10:30:00 AM 12.58 54.644 0.101 9.74 1.73 10.34
5/30/2022 10:45:00 AM 12.71 54.878 0.101 9.36 1.91 10.31
5/30/2022 11:00:00 AM 12.85 55.13 0.101 9.78 1.83 10.28
5/30/2022 11:15:00 AM 13 55.4 0.101 9.63 1.75 10.25
5/30/2022 11:30:00 AM 13.13 55.634 0.101 9.51 1.86 10.22
5/30/2022 11:45:00 AM 13.27 55.886 0.101 9.63 1.85 10.18
5/30/2022 12:00:00 PM 13.44 56.192 0.101 9.41 1.82 10.14
5/30/2022 12:15:00 PM 13.63 56.534 0.101 9.5 1.84 10.1
5/30/2022 12:30:00 PM 13.81 56.858 0.101 9.45 1.87 10.05
5/30/2022 12:45:00 PM 13.99 57.182 0.101 9.48 1.82 10.01
5/30/2022 1:00:00 PM 14.15 57.47 0.101 9.4 1.8 9.97
5/30/2022 1:15:00 PM 14.3 57.74 0.101 9.39 1.96 9.93
5/30/2022 1:30:00 PM 14.42 57.956 0.101 9.52 1.86 9.9
5/30/2022 1:45:00 PM 14.54 58.172 0.101 9.64 1.8 9.86
5/30/2022 2:00:00 PM 14.66 58.388 0.102 9.6 1.84 9.84
5/30/2022 2:15:00 PM 14.74 58.532 0.102 9.34 1.81 9.83
5/30/2022 2:30:00 PM 14.81 58.658 0.102 9.38 1.84 9.81
5/30/2022 2:45:00 PM 14.86 58.748 0.102 9.43 1.79 9.8
5/30/2022 3:00:00 PM 14.88 58.784 0.102 8.77 1.76 9.79
5/30/2022 3:15:00 PM 14.92 58.856 0.102 9.23 1.84 9.78
5/30/2022 3:30:00 PM 14.93 58.874 0.102 9.16 1.98 9.77
5/30/2022 3:45:00 PM 14.95 58.91 0.102 9.45 2.01 9.76
5/30/2022 4:00:00 PM 14.96 58.928 0.102 9.62 1.84 9.75
5/30/2022 4:15:00 PM 14.97 58.946 0.102 9.69 1.88 9.75
5/30/2022 4:30:00 PM 14.96 58.928 0.098 9.72 3.03 9.75
5/30/2022 4:45:00 PM 14.94 58.892 0.102 9.75 1.85 9.75
5/30/2022 5:00:00 PM 14.94 58.892 0.097 9.73 3.37 9.76
5/30/2022 5:15:00 PM 14.93 58.874 0.103 9.73 1.95 9.75
5/30/2022 5:30:00 PM 14.93 58.874 0.103 9.72 1.88 9.75
5/30/2022 5:45:00 PM 14.92 58.856 0.101 9.7 3.09 9.75
5/30/2022 6:00:00 PM 14.88 58.784 0.103 9.55 1.78 9.76
5/30/2022 6:15:00 PM 14.85 58.73 0.1 9.82 3.97 9.77
5/30/2022 6:30:00 PM 14.82 58.676 0.103 10.1 2.15 9.77
5/30/2022 6:45:00 PM 14.78 58.604 0.103 10.09 2.04 9.78
5/30/2022 7:00:00 PM 14.74 58.532 0.101 10.27 3.23 9.79
5/30/2022 7:15:00 PM 14.69 58.442 0.103 10.32 2.23 9.79
5/30/2022 7:30:00 PM 14.65 58.37 0.103 10.21 2.17 9.79
5/30/2022 7:45:00 PM 14.6 58.28 0.103 10.16 2.25 9.81
5/30/2022 8:00:00 PM 14.54 58.172 0.103 10.26 2.43 9.81
5/30/2022 8:15:00 PM 14.47 58.046 0.103 10.2 1.93 9.83
5/30/2022 8:30:00 PM 14.41 57.938 0.103 10.23 1.84 9.85
5/30/2022 8:45:00 PM 14.34 57.812 0.103 10.22 1.89 9.87
5/30/2022 9:00:00 PM 14.28 57.704 0.103 10.28 2.14 9.89
5/30/2022 9:15:00 PM 14.22 57.596 0.104 10.3 2.02 9.9
5/30/2022 9:30:00 PM 14.16 57.488 0.104 10.28 1.95 9.91
5/30/2022 9:45:00 PM 14.11 57.398 0.104 10.28 2.03 9.93
5/30/2022 10:00:00 PM 14.06 57.308 0.103 10.29 1.94 9.94
5/30/2022 10:15:00 PM 14.01 57.218 0.103 10.31 1.91 9.95
5/30/2022 10:30:00 PM 13.97 57.146 0.104 10.38 2.06 9.96
5/30/2022 10:45:00 PM 13.92 57.056 0.104 10.28 2.21 9.97
5/30/2022 11:00:00 PM 13.88 56.984 0.104 10.36 1.98 9.98
5/30/2022 11:15:00 PM 13.84 56.912 0.104 10.39 2.38 9.98
5/30/2022 11:30:00 PM 13.79 56.822 0.104 10.39 2.16 10
5/30/2022 11:45:00 PM 13.75 56.75 0.104 10.42 1.92 10.01
5/31/2022 12:00:00 AM 13.71 56.678 0.104 10.3 1.98 10.02
5/31/2022 12:15:00 AM 13.67 56.606 0.104 10.51 1.91 10.04
5/31/2022 12:30:00 AM 13.63 56.534 0.104 10.68 2.06 10.04
5/31/2022 12:45:00 AM 13.6 56.48 0.104 10.5 1.94 10.06
5/31/2022 1:00:00 AM 13.56 56.408 0.104 10.6 2.24 10.06
5/31/2022 1:15:00 AM 13.52 56.336 0.103 10.46 2.12 10.07
5/31/2022 1:30:00 AM 13.48 56.264 0.103 10.5 2.02 10.07
5/31/2022 1:45:00 AM 13.45 56.21 0.103 10.46 2.09 10.08
5/31/2022 2:00:00 AM 13.41 56.138 0.103 10.61 1.88 10.09
5/31/2022 2:15:00 AM 13.38 56.084 0.103 10.46 2.17 10.1
5/31/2022 2:30:00 AM 13.34 56.012 0.103 10.48 2.42 10.1
5/31/2022 2:45:00 AM 13.31 55.958 0.103 10.58 2.91 10.11
5/31/2022 3:00:00 AM 13.28 55.904 0.103 10.63 2.29 10.12
5/31/2022 3:15:00 AM 13.25 55.85 0.103 10.71 2.25 10.13
5/31/2022 3:30:00 AM 13.22 55.796 0.103 10.66 2.1 10.13
5/31/2022 3:45:00 AM 13.19 55.742 0.103 10.59 2.15 10.14
5/31/2022 4:00:00 AM 13.16 55.688 0.103 10.56 2.03 10.15
5/31/2022 4:15:00 AM 13.14 55.652 0.103 10.65 2.7 10.15
5/31/2022 4:30:00 AM 13.12 55.616 0.103 10.63 2.11 10.16
5/31/2022 4:45:00 AM 13.1 55.58 0.103 10.74 2.09 10.16
5/31/2022 5:00:00 AM 13.08 55.544 0.103 10.58 2.55 10.17
5/31/2022 5:15:00 AM 13.07 55.526 0.103 10.65 2.17 10.18
5/31/2022 5:30:00 AM 13.05 55.49 0.103 10.76 2.07 10.18
5/31/2022 5:45:00 AM 13.04 55.472 0.103 10.69 2.19 10.19
5/31/2022 6:00:00 AM 13.02 55.436 0.103 10.74 2.09 10.2
5/31/2022 6:15:00 AM 13 55.4 0.103 10.57 2.11 10.2
5/31/2022 6:30:00 AM 12.99 55.382 0.103 10.55 2.03 10.21
5/31/2022 6:45:00 AM 12.98 55.364 0.103 10.6 2 10.21
5/31/2022 7:00:00 AM 12.96 55.328 0.103 10.6 1.9 10.22
5/31/2022 7:15:00 AM 12.96 55.328 0.103 10.64 1.87 10.22
5/31/2022 7:30:00 AM 12.96 55.328 0.103 10.65 1.89 10.22
5/31/2022 7:45:00 AM 12.97 55.346 0.103 10.78 1.86 10.22
5/31/2022 8:00:00 AM 12.99 55.382 0.103 10.74 1.74 10.22
5/31/2022 8:15:00 AM 13.01 55.418 0.103 10.75 1.87 10.21
5/31/2022 8:30:00 AM 13.06 55.508 0.103 10.68 1.77 10.2
5/31/2022 8:45:00 AM 13.13 55.634 0.103 10.59 1.8 10.18
5/31/2022 9:00:00 AM 13.22 55.796 0.103 10.46 1.8 10.17
5/31/2022 9:15:00 AM 13.31 55.958 0.103 10.53 1.93 10.15
5/31/2022 9:30:00 AM 13.42 56.156 0.103 10.54 1.97 10.13
5/31/2022 9:45:00 AM 13.51 56.318 0.103 10.38 2.36 10.11
5/31/2022 10:00:00 AM 13.62 56.516 0.103 10.51 1.8 10.09
5/31/2022 10:15:00 AM 13.75 56.75 0.103 10.6 1.84 10.05
5/31/2022 10:30:00 AM 13.87 56.966 0.103 10.41 1.79 10.02
5/31/2022 10:45:00 AM 13.98 57.164 0.101 10.41 2.83 9.99
5/31/2022 11:00:00 AM 14.1 57.38 0.103 10.51 1.81 9.97
5/31/2022 11:15:00 AM 14.21 57.578 0.103 10.44 1.79 9.94
5/31/2022 11:30:00 AM 14.33 57.794 0.103 10.41 1.86 9.92
5/31/2022 11:45:00 AM 14.44 57.992 0.103 10.3 1.82 9.89
5/31/2022 12:00:00 PM 14.53 58.154 0.101 10.45 2.72 9.86
5/31/2022 12:15:00 PM 14.67 58.406 0.103 10.52 1.83 9.84
5/31/2022 12:30:00 PM 14.82 58.676 0.103 10.47 1.81 9.8
5/31/2022 12:45:00 PM 14.99 58.982 0.103 10.38 1.85 9.77
5/31/2022 1:00:00 PM 15.13 59.234 0.1 10.3 3.16 9.72
5/31/2022 1:15:00 PM 15.26 59.468 0.103 10.37 2.47 9.7
5/31/2022 1:30:00 PM 15.39 59.702 0.103 10.3 1.82 9.67
5/31/2022 1:45:00 PM 15.52 59.936 0.104 10.28 1.88 9.64
5/31/2022 2:00:00 PM 15.61 60.098 0.104 10.24 1.85 9.62
5/31/2022 2:15:00 PM 15.64 60.152 0.102 10.25 3.08 9.61
5/31/2022 2:30:00 PM 15.72 60.296 0.104 10.13 1.89 9.59
5/31/2022 2:45:00 PM 15.78 60.404 0.104 10.2 1.81 9.57
5/31/2022 3:00:00 PM 15.78 60.404 0.102 10.16 3.5 9.57
5/31/2022 3:15:00 PM 15.79 60.422 0.104 10.17 1.76 9.56
5/31/2022 3:30:00 PM 15.81 60.458 0.102 10.25 2.84 9.56
5/31/2022 3:45:00 PM 15.82 60.476 0.104 10.23 2.01 9.55
5/31/2022 4:00:00 PM 15.82 60.476 0.104 10.24 1.87 9.55
5/31/2022 4:15:00 PM 15.81 60.458 0.105 10.26 1.88 9.54
5/31/2022 4:30:00 PM 15.8 60.44 0.102 10.31 3.15 9.54
5/31/2022 4:45:00 PM 15.79 60.422 0.102 10.41 3.05 9.54
5/31/2022 5:00:00 PM 15.78 60.404 0.105 10.33 1.9 9.54
5/31/2022 5:15:00 PM 15.77 60.386 0.105 10.35 1.78 9.54
5/31/2022 5:30:00 PM 15.75 60.35 0.1 10.34 4.29 9.54
5/31/2022 5:45:00 PM 15.73 60.314 0.105 10.36 1.75 9.55
5/31/2022 6:00:00 PM 15.72 60.296 0.105 10.42 1.88 9.55
5/31/2022 6:15:00 PM 15.68 60.224 0.105 10.44 2.01 9.56
5/31/2022 6:30:00 PM 15.65 60.17 0.103 10.49 3.36 9.56
5/31/2022 6:45:00 PM 15.6 60.08 0.105 10.65 1.86 9.58
5/31/2022 7:00:00 PM 15.54 59.972 0.105 10.46 1.89 9.58
5/31/2022 7:15:00 PM 15.49 59.882 0.105 10.53 1.93 9.6
5/31/2022 7:30:00 PM 15.44 59.792 0.106 10.57 1.9 9.6
5/31/2022 7:45:00 PM 15.39 59.702 0.106 10.6 2 9.61
5/31/2022 8:00:00 PM 15.33 59.594 0.101 10.64 2.75 9.62
5/31/2022 8:15:00 PM 15.26 59.468 0.1 10.4 2.89 9.63
5/31/2022 8:30:00 PM 15.19 59.342 0.106 10.56 1.8 9.65
5/31/2022 8:45:00 PM 15.12 59.216 0.106 10.57 1.82 9.66
5/31/2022 9:00:00 PM 15.05 59.09 0.106 10.64 1.9 9.68
5/31/2022 9:15:00 PM 14.98 58.964 0.104 10.53 2.97 9.7
5/31/2022 9:30:00 PM 14.92 58.856 0.104 10.54 2.73 9.71
5/31/2022 9:45:00 PM 14.85 58.73 0.106 10.57 2.32 9.72
5/31/2022 10:00:00 PM 14.8 58.64 0.104 10.65 2.92 9.74
5/31/2022 10:15:00 PM 14.74 58.532 0.104 10.74 3.81 9.76
5/31/2022 10:30:00 PM 14.69 58.442 0.106 10.62 2.14 9.77
5/31/2022 10:45:00 PM 14.64 58.352 0.106 10.58 2 9.78
5/31/2022 11:00:00 PM 14.6 58.28 0.106 10.49 1.89 9.79
5/31/2022 11:15:00 PM 14.55 58.19 0.106 10.63 2.07 9.8
5/31/2022 11:30:00 PM 14.51 58.118 0.106 10.59 1.96 9.8
5/31/2022 11:45:00 PM 14.48 58.064 0.106 10.54 1.9 9.82
6/1/2022 12:00:00 AM 14.44 57.992 0.106 10.5 1.92 9.82
6/1/2022 12:15:00 AM 14.41 57.938 0.106 10.57 2 9.83
6/1/2022 12:30:00 AM 14.38 57.884 0.106 10.59 1.97 9.84
6/1/2022 12:45:00 AM 14.35 57.83 0.106 10.77 1.95 9.85
6/1/2022 1:00:00 AM 14.31 57.758 0.106 10.76 1.82 9.86
6/1/2022 1:15:00 AM 14.28 57.704 0.106 10.93 2.08 9.86
6/1/2022 1:30:00 AM 14.25 57.65 0.106 10.72 1.99 9.87
6/1/2022 1:45:00 AM 14.22 57.596 0.105 10.7 2.2 9.88
6/1/2022 2:00:00 AM 14.2 57.56 0.105 10.66 2.16 9.88
6/1/2022 2:15:00 AM 14.17 57.506 0.105 10.63 2 9.89
6/1/2022 2:30:00 AM 14.14 57.452 0.105 10.63 2 9.89
6/1/2022 2:45:00 AM 14.12 57.416 0.105 10.69 1.93 9.9
6/1/2022 3:00:00 AM 14.1 57.38 0.105 10.63 1.94 9.9
6/1/2022 3:15:00 AM 14.08 57.344 0.105 10.59 1.97 9.91
6/1/2022 3:30:00 AM 14.06 57.308 0.105 10.67 1.97 9.91
6/1/2022 3:45:00 AM 14.04 57.272 0.105 10.65 1.97 9.91
6/1/2022 4:00:00 AM 14.03 57.254 0.105 10.52 2.08 9.91
6/1/2022 4:15:00 AM 14.02 57.236 0.105 10.64 1.92 9.92
6/1/2022 4:30:00 AM 14 57.2 0.105 10.71 2.05 9.91
6/1/2022 4:45:00 AM 13.99 57.182 0.105 10.81 2.15 9.92
6/1/2022 5:00:00 AM 13.98 57.164 0.105 10.9 2 9.92
6/1/2022 5:15:00 AM 13.97 57.146 0.105 10.91 2.1 9.92
6/1/2022 5:30:00 AM 13.96 57.128 0.105 10.87 2.09 9.93
6/1/2022 5:45:00 AM 13.94 57.092 0.105 10.79 2.08 9.93
6/1/2022 6:00:00 AM 13.93 57.074 0.105 10.74 1.98 9.93
6/1/2022 6:15:00 AM 13.92 57.056 0.105 10.71 2.53 9.94
6/1/2022 6:30:00 AM 13.91 57.038 0.105 10.68 2.75 9.94
6/1/2022 6:45:00 AM 13.89 57.002 0.105 10.69 1.99 9.94
6/1/2022 7:00:00 AM 13.88 56.984 0.105 10.63 1.91 9.95
6/1/2022 7:15:00 AM 13.88 56.984 0.105 10.61 1.95 9.95
6/1/2022 7:30:00 AM 13.89 57.002 0.105 10.64 1.86 9.95
6/1/2022 7:45:00 AM 13.9 57.02 0.105 10.61 1.85 9.95
6/1/2022 8:00:00 AM 13.92 57.056 0.104 10.64 2.24 9.95
6/1/2022 8:15:00 AM 13.96 57.128 0.104 10.57 2.13 9.94
6/1/2022 8:30:00 AM 14.01 57.218 0.104 10.7 1.91 9.93
6/1/2022 8:45:00 AM 14.07 57.326 0.104 10.75 1.88 9.92
6/1/2022 9:00:00 AM 14.14 57.452 0.104 10.77 1.75 9.9
6/1/2022 9:15:00 AM 14.21 57.578 0.104 10.77 1.79 9.89
6/1/2022 9:30:00 AM 14.3 57.74 0.104 10.88 2.03 9.88
6/1/2022 9:45:00 AM 14.38 57.884 0.1 10.98 2.81 9.86
6/1/2022 10:00:00 AM 14.44 57.992 0.104 10.8 1.77 9.84
6/1/2022 10:15:00 AM 14.53 58.154 0.104 10.96 1.72 9.81
6/1/2022 10:30:00 AM 14.62 58.316 0.104 10.92 1.68 9.8
6/1/2022 10:45:00 AM 14.7 58.46 0.102 10.97 2.64 9.78
6/1/2022 11:00:00 AM 14.78 58.604 0.104 10.83 1.84 9.76
6/1/2022 11:15:00 AM 14.85 58.73 0.105 10.81 1.77 9.74
6/1/2022 11:30:00 AM 14.93 58.874 0.105 10.82 1.79 9.73
6/1/2022 11:45:00 AM 14.99 58.982 0.103 10.89 2.74 9.71
6/1/2022 12:00:00 PM 15.08 59.144 0.105 10.87 1.75 9.69
6/1/2022 12:15:00 PM 15.23 59.414 0.099 10.67 2.51 9.66
6/1/2022 12:30:00 PM 15.36 59.648 0.105 10.9 1.69 9.64
6/1/2022 12:45:00 PM 15.5 59.9 0.103 10.79 2.55 9.61
6/1/2022 1:00:00 PM 15.65 60.17 0.103 10.82 2.81 9.57
6/1/2022 1:15:00 PM 15.75 60.35 0.105 10.7 1.8 9.53
6/1/2022 1:30:00 PM 15.88 60.584 0.105 10.72 1.79 9.51
6/1/2022 1:45:00 PM 16.01 60.818 0.105 10.74 1.76 9.49
6/1/2022 2:00:00 PM 16.09 60.962 0.1 10.71 2.61 9.46
6/1/2022 2:15:00 PM 16.13 61.034 0.106 10.79 1.75 9.44
6/1/2022 2:30:00 PM 16.15 61.07 0.1 10.72 2.66 9.44
6/1/2022 2:45:00 PM 16.17 61.106 0.106 10.52 1.75 9.43
6/1/2022 3:00:00 PM 16.21 61.178 0.101 10.36 2.73 9.43
6/1/2022 3:15:00 PM 16.22 61.196 0.1 10.34 2.82 9.43
6/1/2022 3:30:00 PM 16.19 61.142 0.104 10.73 2.54 9.42
6/1/2022 3:45:00 PM 16.16 61.088 0.101 10.27 2.57 9.42
6/1/2022 4:00:00 PM 16.18 61.124 0.101 10.34 2.65 9.42
6/1/2022 4:15:00 PM 16.17 61.106 0.106 10.15 1.74 9.43
6/1/2022 4:30:00 PM 16.17 61.106 0.106 9.67 2.56 9.42
6/1/2022 4:45:00 PM 16.18 61.124 0.104 9.69 2.71 9.42
6/1/2022 5:00:00 PM 16.16 61.088 0.103 9.63 2.36 9.42
6/1/2022 5:15:00 PM 16.14 61.052 0.107 9.54 1.62 9.42
6/1/2022 5:30:00 PM 16.12 61.016 0.105 9.62 2.52 9.41
6/1/2022 5:45:00 PM 16.08 60.944 0.103 9.62 2.5 9.41
6/1/2022 6:00:00 PM 16.04 60.872 0.107 8.57 1.71 9.43
6/1/2022 6:15:00 PM 16.01 60.818 0.107 9.17 1.67 9.43
6/1/2022 6:30:00 PM 15.98 60.764 0.105 8.71 2.48 9.43
6/1/2022 6:45:00 PM 15.95 60.71 0.107 9.52 1.66 9.44
6/1/2022 7:00:00 PM 15.9 60.62 0.107 9.5 1.79 9.44
6/1/2022 7:15:00 PM 15.82 60.476 0.107 9.18 1.69 9.46
6/1/2022 7:30:00 PM 15.74 60.332 0.107 9.27 1.71 9.47
6/1/2022 7:45:00 PM 15.67 60.206 0.107 9.32 1.8 9.49
6/1/2022 8:00:00 PM 15.61 60.098 0.107 9.2 1.75 9.5
6/1/2022 8:15:00 PM 15.54 59.972 0.107 8.94 1.68 9.52
6/1/2022 8:30:00 PM 15.47 59.846 0.108 9.99 1.68 9.54
6/1/2022 8:45:00 PM 15.41 59.738 0.108 9.81 1.76 9.54
6/1/2022 9:00:00 PM 15.35 59.63 0.104 9.97 2.71 9.56
6/1/2022 9:15:00 PM 15.3 59.54 0.108 9.79 1.76 9.57
6/1/2022 9:30:00 PM 15.27 59.486 0.108 9.7 1.84 9.59
6/1/2022 9:45:00 PM 15.22 59.396 0.108 9.69 2.32 9.6
6/1/2022 10:00:00 PM 15.17 59.306 0.107 9.81 2.64 9.6
6/1/2022 10:15:00 PM 15.13 59.234 0.107 9.72 2.61 9.6
6/1/2022 10:30:00 PM 15.08 59.144 0.107 9.62 2.52 9.61
6/1/2022 10:45:00 PM 15.03 59.054 0.107 9.76 2.39 9.62
6/1/2022 11:00:00 PM 14.97 58.946 0.107 9.56 2.34 9.63
6/1/2022 11:15:00 PM 14.91 58.838 0.107 9.48 2.25 9.65
6/1/2022 11:30:00 PM 14.86 58.748 0.107 9.55 2.2 9.66
6/1/2022 11:45:00 PM 14.81 58.658 0.107 9.57 2.29 9.67
6/2/2022 12:00:00 AM 14.77 58.586 0.107 9.71 2.37 9.68
6/2/2022 12:15:00 AM 14.73 58.514 0.107 9.63 2.09 9.69
6/2/2022 12:30:00 AM 14.69 58.442 0.107 9.79 2.13 9.71
6/2/2022 12:45:00 AM 14.65 58.37 0.107 9.74 1.99 9.72
6/2/2022 1:00:00 AM 14.61 58.298 0.107 9.65 1.99 9.73
6/2/2022 1:15:00 AM 14.58 58.244 0.107 9.64 1.96 9.74
6/2/2022 1:30:00 AM 14.54 58.172 0.106 9.81 2.18 9.74
6/2/2022 1:45:00 AM 14.52 58.136 0.106 9.84 2.16 9.74
6/2/2022 2:00:00 AM 14.5 58.1 0.106 9.87 2 9.74
6/2/2022 2:15:00 AM 14.48 58.064 0.106 9.51 2.06 9.75
6/2/2022 2:30:00 AM 14.46 58.028 0.106 9.23 2.05 9.75
6/2/2022 2:45:00 AM 14.43 57.974 0.106 9.64 2.14 9.76
6/2/2022 3:00:00 AM 14.41 57.938 0.106 9.54 2.51 9.76
6/2/2022 3:15:00 AM 14.38 57.884 0.106 9.49 2.31 9.77
6/2/2022 3:30:00 AM 14.36 57.848 0.106 9.58 2.32 9.77
6/2/2022 3:45:00 AM 14.34 57.812 0.106 9.73 2.33 9.78
6/2/2022 4:00:00 AM 14.32 57.776 0.106 9.74 2.42 9.78
6/2/2022 4:15:00 AM 14.3 57.74 0.106 9.65 2.12 9.79
6/2/2022 4:30:00 AM 14.28 57.704 0.106 9.78 2.82 9.8
6/2/2022 4:45:00 AM 14.27 57.686 0.106 9.82 2.73 9.8
6/2/2022 5:00:00 AM 14.25 57.65 0.106 9.69 2.17 9.81
6/2/2022 5:15:00 AM 14.24 57.632 0.106 8.9 1.93 9.81
6/2/2022 5:30:00 AM 14.22 57.596 0.106 9.55 2.38 9.81
6/2/2022 5:45:00 AM 14.19 57.542 0.106 9.65 1.91 9.82
6/2/2022 6:00:00 AM 14.17 57.506 0.106 9.73 1.83 9.82
6/2/2022 6:15:00 AM 14.15 57.47 0.106 9.96 1.82 9.83
6/2/2022 6:30:00 AM 14.14 57.452 0.106 9.86 1.78 9.83
6/2/2022 6:45:00 AM 14.12 57.416 0.106 10.15 2.37 9.84
6/2/2022 7:00:00 AM 14.11 57.398 0.106 10.1 2.1 9.84
6/2/2022 7:15:00 AM 14.1 57.38 0.106 10.04 1.81 9.84
6/2/2022 7:30:00 AM 14.09 57.362 0.106 10.04 1.67 9.85
6/2/2022 7:45:00 AM 14.08 57.344 0.106 10.08 1.78 9.85
6/2/2022 8:00:00 AM 14.08 57.344 0.106 9.74 1.75 9.85
6/2/2022 8:15:00 AM 14.06 57.308 0.106 9.8 1.73 9.85
6/2/2022 8:30:00 AM 14.05 57.29 0.106 9.58 1.7 9.85
6/2/2022 8:45:00 AM 14.04 57.272 0.106 9.85 1.6 9.85
6/2/2022 9:00:00 AM 14.03 57.254 0.106 9.74 1.79 9.86
6/2/2022 9:15:00 AM 14.02 57.236 0.106 9.85 1.82 9.86
6/2/2022 9:30:00 AM 14.01 57.218 0.106 9.82 1.77 9.87
6/2/2022 9:45:00 AM 14.01 57.218 0.106 10.04 1.67 9.87
6/2/2022 10:00:00 AM 14.03 57.254 0.106 9.89 1.63 9.87
6/2/2022 10:15:00 AM 14.05 57.29 0.106 10.01 1.62 9.87
6/2/2022 10:30:00 AM 14.07 57.326 0.106 9.86 1.63 9.87
6/2/2022 10:45:00 AM 14.11 57.398 0.106 9.88 1.72 9.86
6/2/2022 11:00:00 AM 14.15 57.47 0.106 9.87 1.82 9.85
6/2/2022 11:15:00 AM 14.17 57.506 0.106 10.01 1.68 9.84
6/2/2022 11:30:00 AM 14.19 57.542 0.106 9.67 1.69 9.84
6/2/2022 11:45:00 AM 14.22 57.596 0.106 9.52 1.69 9.83
6/2/2022 12:00:00 PM 14.25 57.65 0.106 9.42 1.7 9.82
6/2/2022 12:15:00 PM 14.27 57.686 0.106 9.35 1.67 9.82
6/2/2022 12:30:00 PM 14.31 57.758 0.106 9.14 1.71 9.82
6/2/2022 12:45:00 PM 14.34 57.812 0.106 9.01 1.58 9.81
6/2/2022 1:00:00 PM 14.37 57.866 0.106 9.14 1.7 9.8
6/2/2022 1:15:00 PM 14.41 57.938 0.106 9.04 1.7 9.78
6/2/2022 1:30:00 PM 14.43 57.974 0.106 9.18 1.69 9.78
6/2/2022 1:45:00 PM 14.45 58.01 0.106 9.15 1.7 9.77
6/2/2022 2:00:00 PM 14.49 58.082 0.106 9 1.67 9.77
6/2/2022 2:15:00 PM 14.51 58.118 0.106 9.43 1.64 9.76
6/2/2022 2:30:00 PM 14.53 58.154 0.106 8.87 1.65 9.75
6/2/2022 2:45:00 PM 14.56 58.208 0.103 9.07 2.63 9.75
6/2/2022 3:00:00 PM 14.63 58.334 0.1 9.05 3.2 9.74
6/2/2022 3:15:00 PM 14.68 58.424 0.106 9.24 1.73 9.73
6/2/2022 3:30:00 PM 14.7 58.46 0.106 9.14 1.66 9.73
6/2/2022 3:45:00 PM 14.73 58.514 0.104 9.29 2.78 9.71
6/2/2022 4:00:00 PM 14.77 58.586 0.106 9.39 1.7 9.7
6/2/2022 4:15:00 PM 14.81 58.658 0.106 9.21 1.77 9.68
6/2/2022 4:30:00 PM 14.82 58.676 0.106 9.01 1.64 9.67
6/2/2022 4:45:00 PM 14.84 58.712 0.104 8.86 3.2 9.67
6/2/2022 5:00:00 PM 14.86 58.748 0.106 8.95 1.77 9.67
6/2/2022 5:15:00 PM 14.86 58.748 0.106 8.71 1.77 9.66
6/2/2022 5:30:00 PM 14.85 58.73 0.106 8.98 1.71 9.65
6/2/2022 5:45:00 PM 14.83 58.694 0.106 9.31 1.62 9.66
6/2/2022 6:00:00 PM 14.82 58.676 0.104 9.18 2.6 9.67
6/2/2022 6:15:00 PM 14.79 58.622 0.106 8.82 1.64 9.67
6/2/2022 6:30:00 PM 14.75 58.55 0.104 9.03 2.69 9.68
6/2/2022 6:45:00 PM 14.71 58.478 0.104 9.13 2.57 9.68
6/2/2022 7:00:00 PM 14.67 58.406 0.107 9.21 1.73 9.69
6/2/2022 7:15:00 PM 14.63 58.334 0.107 9.33 1.67 9.7
6/2/2022 7:30:00 PM 14.6 58.28 0.107 9.34 1.68 9.7
6/2/2022 7:45:00 PM 14.56 58.208 0.105 9.02 2.45 9.71
6/2/2022 8:00:00 PM 14.52 58.136 0.107 8.98 1.62 9.72
6/2/2022 8:15:00 PM 14.49 58.082 0.107 9.38 1.73 9.73
6/2/2022 8:30:00 PM 14.46 58.028 0.107 9.61 1.91 9.74
6/2/2022 8:45:00 PM 14.42 57.956 0.107 9.74 1.86 9.74
6/2/2022 9:00:00 PM 14.36 57.848 0.107 9.74 2.03 9.76
6/2/2022 9:15:00 PM 14.31 57.758 0.107 9.81 1.92 9.78
6/2/2022 9:30:00 PM 14.26 57.668 0.107 9.49 1.85 9.79
6/2/2022 9:45:00 PM 14.21 57.578 0.107 9.87 1.79 9.81
6/2/2022 10:00:00 PM 14.16 57.488 0.107 9.8 1.8 9.82
6/2/2022 10:15:00 PM 14.11 57.398 0.107 9.93 1.79 9.83
6/2/2022 10:30:00 PM 14.06 57.308 0.104 10.2 2.68 9.85
6/2/2022 10:45:00 PM 14.02 57.236 0.107 10.22 1.8 9.86
6/2/2022 11:00:00 PM 13.97 57.146 0.107 10.19 1.9 9.87
6/2/2022 11:15:00 PM 13.93 57.074 0.107 10.07 2.03 9.88
6/2/2022 11:30:00 PM 13.89 57.002 0.107 10.43 1.81 9.88
6/2/2022 11:45:00 PM 13.84 56.912 0.107 10.31 1.9 9.89
6/3/2022 12:00:00 AM 13.8 56.84 0.107 10.24 1.85 9.9
6/3/2022 12:15:00 AM 13.75 56.75 0.107 10.27 1.74 9.91
6/3/2022 12:30:00 AM 13.7 56.66 0.107 10.08 1.76 9.93
6/3/2022 12:45:00 AM 13.66 56.588 0.107 10.19 1.78 9.95
6/3/2022 1:00:00 AM 13.61 56.498 0.107 10.31 1.72 9.96
6/3/2022 1:15:00 AM 13.55 56.39 0.107 10.32 1.72 9.97
6/3/2022 1:30:00 AM 13.5 56.3 0.107 10.21 1.84 9.99
6/3/2022 1:45:00 AM 13.45 56.21 0.107 10.55 1.77 10
6/3/2022 2:00:00 AM 13.39 56.102 0.107 10.48 1.73 10.01
6/3/2022 2:15:00 AM 13.34 56.012 0.107 10.66 1.75 10.02
6/3/2022 2:30:00 AM 13.28 55.904 0.107 10.66 1.81 10.03
6/3/2022 2:45:00 AM 13.22 55.796 0.107 10.39 1.72 10.04
6/3/2022 3:00:00 AM 13.16 55.688 0.107 10.51 1.72 10.06
6/3/2022 3:15:00 AM 13.1 55.58 0.107 10.68 1.84 10.08
6/3/2022 3:30:00 AM 13.04 55.472 0.107 10.38 1.73 10.09
6/3/2022 3:45:00 AM 12.98 55.364 0.106 10.74 1.82 10.11
6/3/2022 4:00:00 AM 12.92 55.256 0.106 10.64 1.73 10.12
6/3/2022 4:15:00 AM 12.85 55.13 0.106 10.4 1.84 10.14
6/3/2022 4:30:00 AM 12.79 55.022 0.101 10.58 2.54 10.15
6/3/2022 4:45:00 AM 12.74 54.932 0.106 10.75 1.85 10.17
6/3/2022 5:00:00 AM 12.68 54.824 0.101 10.59 3.11 10.18
6/3/2022 5:15:00 AM 12.63 54.734 0.106 10.68 1.76 10.19
6/3/2022 5:30:00 AM 12.57 54.626 0.106 10.77 1.84 10.21
6/3/2022 5:45:00 AM 12.51 54.518 0.106 10.74 1.77 10.23
6/3/2022 6:00:00 AM 12.46 54.428 0.106 10.75 1.8 10.25
6/3/2022 6:15:00 AM 12.4 54.32 0.106 10.67 1.82 10.26
6/3/2022 6:30:00 AM 12.35 54.23 0.106 10.54 1.81 10.28
6/3/2022 6:45:00 AM 12.31 54.158 0.106 10.55 1.85 10.29
6/3/2022 7:00:00 AM 12.27 54.086 0.106 10.63 1.78 10.3
6/3/2022 7:15:00 AM 12.24 54.032 0.106 10.33 1.76 10.31
6/3/2022 7:30:00 AM 12.23 54.014 0.106 10.54 1.77 10.32
6/3/2022 7:45:00 AM 12.22 53.996 0.106 10.64 1.92 10.32
6/3/2022 8:00:00 AM 12.22 53.996 0.106 10.62 1.78 10.33
6/3/2022 8:15:00 AM 12.22 53.996 0.106 10.68 1.68 10.33
6/3/2022 8:30:00 AM 12.24 54.032 0.106 10.7 1.66 10.32
6/3/2022 8:45:00 AM 12.27 54.086 0.106 10.61 1.69 10.31
6/3/2022 9:00:00 AM 12.32 54.176 0.106 10.55 1.61 10.31
6/3/2022 9:15:00 AM 12.38 54.284 0.106 10.54 1.72 10.3
6/3/2022 9:30:00 AM 12.44 54.392 0.106 10.54 1.77 10.28
6/3/2022 9:45:00 AM 12.51 54.518 0.106 10.57 2.1 10.26
6/3/2022 10:00:00 AM 12.58 54.644 0.106 10.63 1.67 10.25
6/3/2022 10:15:00 AM 12.66 54.788 0.101 10.51 2.71 10.23
6/3/2022 10:30:00 AM 12.73 54.914 0.106 10.48 1.67 10.22
6/3/2022 10:45:00 AM 12.81 55.058 0.106 10.56 1.79 10.2
6/3/2022 11:00:00 AM 12.9 55.22 0.106 10.54 1.75 10.18
6/3/2022 11:15:00 AM 13.01 55.418 0.106 10.44 1.73 10.15
6/3/2022 11:30:00 AM 13.09 55.562 0.106 10.53 1.58 10.13
6/3/2022 11:45:00 AM 13.18 55.724 0.106 10.5 1.69 10.1
6/3/2022 12:00:00 PM 13.29 55.922 0.106 10.34 1.71 10.08
6/3/2022 12:15:00 PM 13.42 56.156 0.106 10.36 1.7 10.05
6/3/2022 12:30:00 PM 13.55 56.39 0.106 10.32 1.81 10.01
6/3/2022 12:45:00 PM 13.66 56.588 0.106 10.38 1.67 9.98
6/3/2022 1:00:00 PM 13.76 56.768 0.106 10.42 1.68 9.95
6/3/2022 1:15:00 PM 13.85 56.93 0.106 10.37 1.72 9.93
6/3/2022 1:30:00 PM 13.94 57.092 0.106 10.43 1.77 9.91
6/3/2022 1:45:00 PM 14.03 57.254 0.106 10.35 1.72 9.9
6/3/2022 2:00:00 PM 14.1 57.38 0.106 10.29 1.66 9.88
6/3/2022 2:15:00 PM 14.15 57.47 0.106 10.33 1.68 9.87
6/3/2022 2:30:00 PM 14.23 57.614 0.106 10.21 1.64 9.85
6/3/2022 2:45:00 PM 14.28 57.704 0.104 10.39 2.85 9.84
6/3/2022 3:00:00 PM 14.28 57.704 0.107 10.36 1.68 9.83
6/3/2022 3:15:00 PM 14.23 57.614 0.107 10.39 1.72 9.83
6/3/2022 3:30:00 PM 14.24 57.632 0.107 10.13 1.69 9.84
6/3/2022 3:45:00 PM 14.27 57.686 0.105 10.14 2.56 9.83
6/3/2022 4:00:00 PM 14.27 57.686 0.107 10.23 1.7 9.83
6/3/2022 4:15:00 PM 14.24 57.632 0.107 10.26 1.69 9.84
6/3/2022 4:30:00 PM 14.21 57.578 0.105 10.14 2.49 9.84
6/3/2022 4:45:00 PM 14.19 57.542 0.105 10.24 2.55 9.85
6/3/2022 5:00:00 PM 14.17 57.506 0.107 10.23 1.76 9.85
6/3/2022 5:15:00 PM 14.15 57.47 0.107 10.25 1.63 9.85
6/3/2022 5:30:00 PM 14.16 57.488 0.108 10.31 1.71 9.85
6/3/2022 5:45:00 PM 14.15 57.47 0.108 10.34 1.67 9.84
6/3/2022 6:00:00 PM 14.15 57.47 0.102 10.21 2.54 9.85
6/3/2022 6:15:00 PM 14.14 57.452 0.108 10.61 2 9.85
6/3/2022 6:30:00 PM 14.1 57.38 0.106 10.26 2.44 9.85
6/3/2022 6:45:00 PM 14.06 57.308 0.108 10.5 1.76 9.86
6/3/2022 7:00:00 PM 14.02 57.236 0.108 10.8 1.77 9.87
6/3/2022 7:15:00 PM 13.97 57.146 0.108 10.74 1.75 9.88
6/3/2022 7:30:00 PM 13.92 57.056 0.108 10.69 1.79 9.89
6/3/2022 7:45:00 PM 13.88 56.984 0.108 10.44 1.7 9.9
6/3/2022 8:00:00 PM 13.83 56.894 0.108 10.44 1.66 9.91
6/3/2022 8:15:00 PM 13.77 56.786 0.108 10.57 1.71 9.92
6/3/2022 8:30:00 PM 13.71 56.678 0.108 10.43 1.69 9.94
6/3/2022 8:45:00 PM 13.64 56.552 0.109 10.46 1.83 9.96
6/3/2022 9:00:00 PM 13.58 56.444 0.109 10.41 1.85 9.97
6/3/2022 9:15:00 PM 13.51 56.318 0.109 10.57 1.79 9.99
6/3/2022 9:30:00 PM 13.44 56.192 0.109 10.47 1.81 10.01
6/3/2022 9:45:00 PM 13.36 56.048 0.109 10.44 2.36 10.03
6/3/2022 10:00:00 PM 13.28 55.904 0.109 10.51 2.13 10.04
6/3/2022 10:15:00 PM 13.2 55.76 0.109 10.47 2.07 10.06
6/3/2022 10:30:00 PM 13.12 55.616 0.109 10.54 2.08 10.09
6/3/2022 10:45:00 PM 13.04 55.472 0.109 10.5 2.43 10.11
6/3/2022 11:00:00 PM 12.97 55.346 0.109 10.29 1.93 10.13
6/3/2022 11:15:00 PM 12.91 55.238 0.109 10.31 1.9 10.14
6/3/2022 11:30:00 PM 12.84 55.112 0.109 10.48 1.78 10.16
6/3/2022 11:45:00 PM 12.78 55.004 0.109 10.45 1.78 10.17
6/4/2022 12:00:00 AM 12.72 54.896 0.109 10.41 1.78 10.19
6/4/2022 12:15:00 AM 12.66 54.788 0.109 10.46 1.76 10.2
6/4/2022 12:30:00 AM 12.61 54.698 0.109 10.45 1.8 10.21
6/4/2022 12:45:00 AM 12.55 54.59 0.108 10.48 1.83 10.23
6/4/2022 1:00:00 AM 12.5 54.5 0.108 10.51 1.74 10.24
6/4/2022 1:15:00 AM 12.44 54.392 0.108 10.6 1.81 10.25
6/4/2022 1:30:00 AM 12.39 54.302 0.108 10.44 1.74 10.27
6/4/2022 1:45:00 AM 12.34 54.212 0.108 10.34 1.76 10.29
6/4/2022 2:00:00 AM 12.3 54.14 0.108 10.53 1.7 10.3
6/4/2022 2:15:00 AM 12.26 54.068 0.108 10.39 2.07 10.31
6/4/2022 2:30:00 AM 12.23 54.014 0.108 10.23 1.92 10.32
6/4/2022 2:45:00 AM 12.2 53.96 0.108 10.43 1.86 10.32
6/4/2022 3:00:00 AM 12.17 53.906 0.108 10.55 2.04 10.33
6/4/2022 3:15:00 AM 12.14 53.852 0.108 10.23 2.6 10.33
6/4/2022 3:30:00 AM 12.11 53.798 0.108 10.2 2.37 10.34
6/4/2022 3:45:00 AM 12.09 53.762 0.108 10.22 1.89 10.34
6/4/2022 4:00:00 AM 12.07 53.726 0.108 10.26 2.04 10.35
6/4/2022 4:15:00 AM 12.05 53.69 0.108 10.28 1.88 10.36
6/4/2022 4:30:00 AM 12.02 53.636 0.108 10.32 2.06 10.36
6/4/2022 4:45:00 AM 12 53.6 0.108 10.34 1.9 10.37
6/4/2022 5:00:00 AM 11.96 53.528 0.108 10.31 1.8 10.37
6/4/2022 5:15:00 AM 11.93 53.474 0.108 10.28 1.76 10.39
6/4/2022 5:30:00 AM 11.9 53.42 0.108 10.26 1.99 10.4
6/4/2022 5:45:00 AM 11.87 53.366 0.108 10.23 1.83 10.41
6/4/2022 6:00:00 AM 11.83 53.294 0.108 10.08 1.77 10.42
6/4/2022 6:15:00 AM 11.8 53.24 0.108 10.33 1.76 10.43
6/4/2022 6:30:00 AM 11.76 53.168 0.108 10.4 1.67 10.44
6/4/2022 6:45:00 AM 11.72 53.096 0.108 10.37 1.64 10.46
6/4/2022 7:00:00 AM 11.69 53.042 0.108 10.35 1.7 10.46
6/4/2022 7:15:00 AM 11.68 53.024 0.108 10.37 1.67 10.47
6/4/2022 7:30:00 AM 11.68 53.024 0.108 10.35 1.84 10.48
6/4/2022 7:45:00 AM 11.68 53.024 0.108 10.37 1.79 10.48
6/4/2022 8:00:00 AM 11.7 53.06 0.108 10.49 1.74 10.48
6/4/2022 8:15:00 AM 11.72 53.096 0.107 10.45 1.69 10.47
6/4/2022 8:30:00 AM 11.75 53.15 0.102 10.46 2.71 10.47
6/4/2022 8:45:00 AM 11.78 53.204 0.107 10.44 1.7 10.46
6/4/2022 9:00:00 AM 11.83 53.294 0.107 10.45 1.63 10.45
6/4/2022 9:15:00 AM 11.89 53.402 0.107 10.39 1.65 10.44
6/4/2022 9:30:00 AM 11.95 53.51 0.107 10.34 1.64 10.43
6/4/2022 9:45:00 AM 12.01 53.618 0.107 10.28 1.6 10.41
6/4/2022 10:00:00 AM 12.07 53.726 0.105 10.28 2.42 10.4
6/4/2022 10:15:00 AM 12.13 53.834 0.107 10.15 1.69 10.39
6/4/2022 10:30:00 AM 12.19 53.942 0.107 10.44 1.66 10.37
6/4/2022 10:45:00 AM 12.25 54.05 0.107 10.34 1.67 10.35
6/4/2022 11:00:00 AM 12.33 54.194 0.107 10.46 1.66 10.33
6/4/2022 11:15:00 AM 12.41 54.338 0.107 10.42 1.7 10.32
6/4/2022 11:30:00 AM 12.49 54.482 0.107 10.29 1.63 10.3
6/4/2022 11:45:00 AM 12.55 54.59 0.107 10.33 1.61 10.28
6/4/2022 12:00:00 PM 12.64 54.752 0.107 10.42 1.73 10.25
6/4/2022 12:15:00 PM 12.76 54.968 0.107 10.3 1.57 10.22
6/4/2022 12:30:00 PM 12.89 55.202 0.108 10.31 1.69 10.2
6/4/2022 12:45:00 PM 13.02 55.436 0.108 10.56 1.73 10.16
6/4/2022 1:00:00 PM 13.15 55.67 0.108 10.28 1.63 10.13
6/4/2022 1:15:00 PM 13.29 55.922 0.108 10.11 1.69 10.09
6/4/2022 1:30:00 PM 13.41 56.138 0.108 10.12 1.71 10.06
6/4/2022 1:45:00 PM 13.52 56.336 0.108 10.48 1.7 10.02
6/4/2022 2:00:00 PM 13.63 56.534 0.108 10.59 1.7 10
6/4/2022 2:15:00 PM 13.71 56.678 0.108 10.24 1.72 9.99
6/4/2022 2:30:00 PM 13.76 56.768 0.108 10.2 1.68 9.97
6/4/2022 2:45:00 PM 13.8 56.84 0.108 10.16 1.77 9.96
6/4/2022 3:00:00 PM 13.82 56.876 0.109 10.12 1.71 9.95
6/4/2022 3:15:00 PM 13.82 56.876 0.109 10.12 1.66 9.95
6/4/2022 3:30:00 PM 13.83 56.894 0.109 10.12 1.64 9.95
6/4/2022 3:45:00 PM 13.83 56.894 0.109 10.08 1.78 9.94
6/4/2022 4:00:00 PM 13.84 56.912 0.109 10.06 1.82 9.94
6/4/2022 4:15:00 PM 13.83 56.894 0.109 10.07 1.77 9.94
6/4/2022 4:30:00 PM 13.81 56.858 0.109 10.03 1.77 9.94
6/4/2022 4:45:00 PM 13.79 56.822 0.109 10.1 1.86 9.95
6/4/2022 5:00:00 PM 13.76 56.768 0.109 9.97 1.67 9.95
6/4/2022 5:15:00 PM 13.74 56.732 0.11 10.22 1.68 9.96
6/4/2022 5:30:00 PM 13.71 56.678 0.11 10.37 1.65 9.97
6/4/2022 5:45:00 PM 13.68 56.624 0.11 10.27 1.66 9.97
6/4/2022 6:00:00 PM 13.65 56.57 0.11 10.25 1.71 9.98
6/4/2022 6:15:00 PM 13.63 56.534 0.11 10.37 1.74 9.98
6/4/2022 6:30:00 PM 13.59 56.462 0.11 10.33 1.76 9.99
6/4/2022 6:45:00 PM 13.54 56.372 0.11 10.31 1.7 10
6/4/2022 7:00:00 PM 13.51 56.318 0.11 10.4 1.72 10.01
6/4/2022 7:15:00 PM 13.47 56.246 0.11 10.8 1.69 10.01
6/4/2022 7:30:00 PM 13.42 56.156 0.11 10.64 1.63 10.03
6/4/2022 7:45:00 PM 13.37 56.066 0.11 10.6 1.6 10.04
6/4/2022 8:00:00 PM 13.31 55.958 0.11 10.73 1.73 10.05
6/4/2022 8:15:00 PM 13.23 55.814 0.11 10.85 1.66 10.07
6/4/2022 8:30:00 PM 13.13 55.634 0.111 10.92 1.63 10.09
6/4/2022 8:45:00 PM 13.04 55.472 0.111 10.99 1.65 10.12
6/4/2022 9:00:00 PM 12.95 55.31 0.111 10.99 1.75 10.14
6/4/2022 9:15:00 PM 12.86 55.148 0.111 11.07 1.67 10.17
6/4/2022 9:30:00 PM 12.77 54.986 0.111 11.01 1.82 10.18
6/4/2022 9:45:00 PM 12.67 54.806 0.111 10.83 1.8 10.21
6/4/2022 10:00:00 PM 12.58 54.644 0.111 10.75 1.71 10.23
6/4/2022 10:15:00 PM 12.48 54.464 0.111 10.89 1.72 10.26
6/4/2022 10:30:00 PM 12.39 54.302 0.111 11.05 1.76 10.29
6/4/2022 10:45:00 PM 12.3 54.14 0.111 10.91 1.72 10.31
6/4/2022 11:00:00 PM 12.22 53.996 0.111 10.87 1.75 10.33
6/4/2022 11:15:00 PM 12.14 53.852 0.111 11.07 1.67 10.36
6/4/2022 11:30:00 PM 12.06 53.708 0.111 11.15 1.65 10.37
6/4/2022 11:45:00 PM 12 53.6 0.111 10.95 1.73 10.39
6/5/2022 12:00:00 AM 11.94 53.492 0.111 10.89 1.79 10.4
6/5/2022 12:15:00 AM 11.9 53.42 0.111 10.84 1.67 10.42
6/5/2022 12:30:00 AM 11.87 53.366 0.111 10.94 1.63 10.42
6/5/2022 12:45:00 AM 11.84 53.312 0.111 10.93 1.64 10.43
6/5/2022 1:00:00 AM 11.82 53.276 0.11 10.93 1.71 10.44
6/5/2022 1:15:00 AM 11.81 53.258 0.11 10.9 1.59 10.44
6/5/2022 1:30:00 AM 11.81 53.258 0.11 10.9 1.63 10.44
6/5/2022 1:45:00 AM 11.8 53.24 0.11 10.92 1.99 10.45
6/5/2022 2:00:00 AM 11.78 53.204 0.11 10.87 1.9 10.44
6/5/2022 2:15:00 AM 11.76 53.168 0.11 10.89 1.71 10.45
6/5/2022 2:30:00 AM 11.74 53.132 0.11 10.89 1.92 10.45
6/5/2022 2:45:00 AM 11.72 53.096 0.11 11.11 1.78 10.46
6/5/2022 3:00:00 AM 11.68 53.024 0.11 10.97 1.88 10.47
6/5/2022 3:15:00 AM 11.63 52.934 0.11 11 1.87 10.48
6/5/2022 3:30:00 AM 11.58 52.844 0.11 10.82 1.86 10.49
6/5/2022 3:45:00 AM 11.52 52.736 0.11 10.83 2.19 10.5
6/5/2022 4:00:00 AM 11.45 52.61 0.104 10.81 2.57 10.52
6/5/2022 4:15:00 AM 11.38 52.484 0.11 10.82 1.7 10.54
6/5/2022 4:30:00 AM 11.31 52.358 0.11 10.87 1.72 10.56
6/5/2022 4:45:00 AM 11.25 52.25 0.11 10.82 1.75 10.58
6/5/2022 5:00:00 AM 11.18 52.124 0.11 11.01 1.79 10.6
6/5/2022 5:15:00 AM 11.11 51.998 0.11 11.03 1.76 10.62
6/5/2022 5:30:00 AM 11.04 51.872 0.11 11.04 1.7 10.64
6/5/2022 5:45:00 AM 10.99 51.782 0.11 11.13 1.71 10.65
6/5/2022 6:00:00 AM 10.94 51.692 0.11 11.07 1.61 10.66
6/5/2022 6:15:00 AM 10.9 51.62 0.11 11.01 1.71 10.67
6/5/2022 6:30:00 AM 10.87 51.566 0.11 11.01 1.67 10.68
6/5/2022 6:45:00 AM 10.84 51.512 0.11 11.06 1.68 10.69
6/5/2022 7:00:00 AM 10.83 51.494 0.11 11 1.64 10.7
6/5/2022 7:15:00 AM 10.83 51.494 0.109 11.05 1.54 10.7
6/5/2022 7:30:00 AM 10.84 51.512 0.109 11.02 1.61 10.7
6/5/2022 7:45:00 AM 10.86 51.548 0.109 10.94 1.57 10.7
6/5/2022 8:00:00 AM 10.89 51.602 0.109 11.01 1.48 10.7
6/5/2022 8:15:00 AM 10.93 51.674 0.109 10.97 1.53 10.69
6/5/2022 8:30:00 AM 10.97 51.746 0.109 10.93 1.59 10.69
6/5/2022 8:45:00 AM 11.03 51.854 0.109 11.1 1.56 10.68
6/5/2022 9:00:00 AM 11.1 51.98 0.109 11.02 1.55 10.67
6/5/2022 9:15:00 AM 11.16 52.088 0.109 10.95 1.52 10.65
6/5/2022 9:30:00 AM 11.21 52.178 0.109 11.16 1.53 10.63
6/5/2022 9:45:00 AM 11.26 52.268 0.109 11.02 1.53 10.62
6/5/2022 10:00:00 AM 11.32 52.376 0.109 11.17 1.72 10.61
6/5/2022 10:15:00 AM 11.39 52.502 0.109 11.15 1.51 10.6
6/5/2022 10:30:00 AM 11.46 52.628 0.109 10.79 1.51 10.58
6/5/2022 10:45:00 AM 11.54 52.772 0.109 11.04 1.5 10.56
6/5/2022 11:00:00 AM 11.63 52.934 0.104 11.19 2.46 10.54
6/5/2022 11:15:00 AM 11.72 53.096 0.109 11.06 1.53 10.52
6/5/2022 11:30:00 AM 11.81 53.258 0.109 11.08 1.58 10.49
6/5/2022 11:45:00 AM 11.88 53.384 0.109 11.06 1.5 10.47
6/5/2022 12:00:00 PM 11.95 53.51 0.109 11.1 1.45 10.45
6/5/2022 12:15:00 PM 12.04 53.672 0.109 11.06 1.53 10.43
6/5/2022 12:30:00 PM 12.13 53.834 0.109 11.13 1.61 10.41
6/5/2022 12:45:00 PM 12.25 54.05 0.109 10.94 1.58 10.38
6/5/2022 1:00:00 PM 12.33 54.194 0.109 11.02 1.57 10.35
6/5/2022 1:15:00 PM 12.42 54.356 0.109 11.1 1.68 10.34
6/5/2022 1:30:00 PM 12.52 54.536 0.109 10.99 1.61 10.3
6/5/2022 1:45:00 PM 12.62 54.716 0.11 10.92 1.56 10.28
6/5/2022 2:00:00 PM 12.71 54.878 0.11 10.87 1.65 10.25
6/5/2022 2:15:00 PM 12.78 55.004 0.11 10.94 1.56 10.24
6/5/2022 2:30:00 PM 12.79 55.022 0.11 10.81 1.57 10.22
6/5/2022 2:45:00 PM 12.82 55.076 0.11 10.95 1.59 10.22
6/5/2022 3:00:00 PM 12.87 55.166 0.11 10.75 1.56 10.21
6/5/2022 3:15:00 PM 12.9 55.22 0.11 10.67 1.6 10.2
6/5/2022 3:30:00 PM 12.91 55.238 0.11 10.64 1.68 10.19
6/5/2022 3:45:00 PM 12.92 55.256 0.11 10.8 1.62 10.18
6/5/2022 4:00:00 PM 12.93 55.274 0.111 10.69 1.54 10.17
6/5/2022 4:15:00 PM 12.95 55.31 0.111 10.73 1.75 10.17
6/5/2022 4:30:00 PM 12.97 55.346 0.111 10.68 1.63 10.17
6/5/2022 4:45:00 PM 12.98 55.364 0.111 10.7 1.56 10.17
6/5/2022 5:00:00 PM 12.97 55.346 0.111 10.72 1.6 10.17
6/5/2022 5:15:00 PM 12.96 55.328 0.111 11 1.62 10.16
6/5/2022 5:30:00 PM 12.94 55.292 0.111 11.02 1.6 10.16
6/5/2022 5:45:00 PM 12.93 55.274 0.111 10.91 1.54 10.16
6/5/2022 6:00:00 PM 12.92 55.256 0.111 11.08 1.54 10.17
6/5/2022 6:15:00 PM 12.9 55.22 0.112 10.84 1.57 10.16
6/5/2022 6:30:00 PM 12.89 55.202 0.112 10.94 1.61 10.17
6/5/2022 6:45:00 PM 12.89 55.202 0.112 10.94 1.59 10.17
6/5/2022 7:00:00 PM 12.89 55.202 0.112 10.96 1.61 10.17
6/5/2022 7:15:00 PM 12.86 55.148 0.112 10.82 1.65 10.17
6/5/2022 7:30:00 PM 12.84 55.112 0.112 10.88 1.67 10.17
6/5/2022 7:45:00 PM 12.82 55.076 0.112 10.86 1.61 10.17
6/5/2022 8:00:00 PM 12.79 55.022 0.112 10.77 1.63 10.18
6/5/2022 8:15:00 PM 12.76 54.968 0.112 10.77 1.64 10.19
6/5/2022 8:30:00 PM 12.72 54.896 0.112 10.74 1.58 10.2
6/5/2022 8:45:00 PM 12.66 54.788 0.112 10.79 1.56 10.22
6/5/2022 9:00:00 PM 12.61 54.698 0.113 10.75 1.67 10.23
6/5/2022 9:15:00 PM 12.54 54.572 0.113 10.69 1.67 10.24
6/5/2022 9:30:00 PM 12.48 54.464 0.113 10.73 1.73 10.27
6/5/2022 9:45:00 PM 12.41 54.338 0.113 10.78 1.63 10.29
6/5/2022 10:00:00 PM 12.33 54.194 0.113 10.82 1.66 10.31
6/5/2022 10:15:00 PM 12.26 54.068 0.112 10.82 1.63 10.32
6/5/2022 10:30:00 PM 12.18 53.924 0.112 10.68 1.79 10.35
6/5/2022 10:45:00 PM 12.11 53.798 0.112 10.81 1.62 10.37
6/5/2022 11:00:00 PM 12.04 53.672 0.112 10.96 1.66 10.38
6/5/2022 11:15:00 PM 11.98 53.564 0.112 11.01 1.68 10.4
6/5/2022 11:30:00 PM 11.92 53.456 0.112 10.85 1.77 10.41
6/5/2022 11:45:00 PM 11.87 53.366 0.112 10.93 1.73 10.42
6/6/2022 12:00:00 AM 11.83 53.294 0.112 10.89 1.63 10.44
6/6/2022 12:15:00 AM 11.78 53.204 0.112 10.79 1.68 10.45
6/6/2022 12:30:00 AM 11.74 53.132 0.112 10.82 1.63 10.46
6/6/2022 12:45:00 AM 11.69 53.042 0.112 10.87 1.75 10.47
6/6/2022 1:00:00 AM 11.64 52.952 0.112 10.89 1.66 10.48
6/6/2022 1:15:00 AM 11.6 52.88 0.112 10.83 1.84 10.49
6/6/2022 1:30:00 AM 11.55 52.79 0.112 10.86 1.74 10.51
6/6/2022 1:45:00 AM 11.5 52.7 0.112 10.87 1.71 10.52
6/6/2022 2:00:00 AM 11.45 52.61 0.112 10.9 1.63 10.53
6/6/2022 2:15:00 AM 11.4 52.52 0.112 11.02 1.72 10.54
6/6/2022 2:30:00 AM 11.35 52.43 0.112 10.71 1.7 10.55
6/6/2022 2:45:00 AM 11.31 52.358 0.112 11.06 1.67 10.56
6/6/2022 3:00:00 AM 11.27 52.286 0.112 10.93 1.57 10.57
6/6/2022 3:15:00 AM 11.22 52.196 0.112 10.92 1.66 10.59
6/6/2022 3:30:00 AM 11.18 52.124 0.112 10.91 1.67 10.59
6/6/2022 3:45:00 AM 11.14 52.052 0.112 10.91 1.61 10.61
6/6/2022 4:00:00 AM 11.11 51.998 0.111 10.93 1.6 10.62
6/6/2022 4:15:00 AM 11.07 51.926 0.111 10.95 1.71 10.62
6/6/2022 4:30:00 AM 11.03 51.854 0.111 11 1.62 10.63
6/6/2022 4:45:00 AM 11 51.8 0.111 10.98 1.56 10.65
6/6/2022 5:00:00 AM 10.96 51.728 0.111 10.97 1.71 10.65
6/6/2022 5:15:00 AM 10.93 51.674 0.111 10.81 1.67 10.66
6/6/2022 5:30:00 AM 10.91 51.638 0.111 10.89 1.63 10.67
6/6/2022 5:45:00 AM 10.88 51.584 0.111 10.96 1.67 10.68
6/6/2022 6:00:00 AM 10.86 51.548 0.111 11 1.68 10.69
6/6/2022 6:15:00 AM 10.83 51.494 0.111 11.07 1.6 10.69
6/6/2022 6:30:00 AM 10.81 51.458 0.111 10.97 1.67 10.7
6/6/2022 6:45:00 AM 10.8 51.44 0.111 11.02 1.63 10.71
6/6/2022 7:00:00 AM 10.79 51.422 0.111 10.97 1.68 10.71
6/6/2022 7:15:00 AM 10.79 51.422 0.111 11.05 1.7 10.71
6/6/2022 7:30:00 AM 10.8 51.44 0.111 10.99 1.57 10.71
6/6/2022 7:45:00 AM 10.82 51.476 0.111 10.99 1.54 10.71
6/6/2022 8:00:00 AM 10.85 51.53 0.111 11.13 1.49 10.71
6/6/2022 8:15:00 AM 10.89 51.602 0.111 11.06 1.43 10.7
6/6/2022 8:30:00 AM 10.94 51.692 0.111 10.95 1.53 10.69
6/6/2022 8:45:00 AM 11 51.8 0.111 10.94 1.57 10.67
6/6/2022 9:00:00 AM 11.09 51.962 0.111 10.98 1.65 10.65
6/6/2022 9:15:00 AM 11.19 52.142 0.111 10.93 1.54 10.63
6/6/2022 9:30:00 AM 11.3 52.34 0.111 10.86 1.55 10.61
6/6/2022 9:45:00 AM 11.38 52.484 0.111 10.87 1.7 10.58
6/6/2022 10:00:00 AM 11.46 52.628 0.111 10.85 1.48 10.56
6/6/2022 10:15:00 AM 11.55 52.79 0.111 10.88 1.58 10.54
6/6/2022 10:30:00 AM 11.64 52.952 0.111 10.85 1.52 10.52
6/6/2022 10:45:00 AM 11.74 53.132 0.111 10.86 1.52 10.49
6/6/2022 11:00:00 AM 11.81 53.258 0.111 10.83 1.65 10.48
6/6/2022 11:15:00 AM 11.89 53.402 0.111 10.92 1.56 10.45
6/6/2022 11:30:00 AM 11.97 53.546 0.111 10.84 1.51 10.42
6/6/2022 11:45:00 AM 12.09 53.762 0.111 10.87 1.59 10.4
6/6/2022 12:00:00 PM 12.24 54.032 0.111 10.87 1.66 10.37
6/6/2022 12:15:00 PM 12.37 54.266 0.111 10.87 1.65 10.34
6/6/2022 12:30:00 PM 12.51 54.518 0.111 10.8 1.78 10.3
6/6/2022 12:45:00 PM 12.65 54.77 0.111 10.75 1.68 10.25
6/6/2022 1:00:00 PM 12.79 55.022 0.111 10.72 1.59 10.22
6/6/2022 1:15:00 PM 12.9 55.22 0.111 10.73 1.71 10.19
6/6/2022 1:30:00 PM 13 55.4 0.111 10.75 1.6 10.16
6/6/2022 1:45:00 PM 13.09 55.562 0.111 10.75 1.62 10.14
6/6/2022 2:00:00 PM 13.17 55.706 0.111 10.69 1.62 10.11
6/6/2022 2:15:00 PM 13.26 55.868 0.111 10.68 1.73 10.09
6/6/2022 2:30:00 PM 13.36 56.048 0.111 10.75 1.69 10.07
6/6/2022 2:45:00 PM 13.45 56.21 0.111 10.79 1.65 10.05
6/6/2022 3:00:00 PM 13.5 56.3 0.112 10.81 1.62 10.04
6/6/2022 3:15:00 PM 13.53 56.354 0.112 10.91 1.68 10.02
6/6/2022 3:30:00 PM 13.58 56.444 0.112 10.83 1.64 10.01
6/6/2022 3:45:00 PM 13.63 56.534 0.112 10.75 1.66 9.99
6/6/2022 4:00:00 PM 13.69 56.642 0.112 10.7 1.89 9.97
6/6/2022 4:15:00 PM 13.72 56.696 0.112 10.78 1.69 9.96
6/6/2022 4:30:00 PM 13.74 56.732 0.112 10.69 1.66 9.95
6/6/2022 4:45:00 PM 13.75 56.75 0.112 10.7 1.77 9.95
6/6/2022 5:00:00 PM 13.77 56.786 0.112 10.67 1.67 9.94
6/6/2022 5:15:00 PM 13.78 56.804 0.113 10.62 1.66 9.94
6/6/2022 5:30:00 PM 13.78 56.804 0.113 10.62 1.62 9.94
6/6/2022 5:45:00 PM 13.77 56.786 0.11 10.61 2.5 9.94
6/6/2022 6:00:00 PM 13.77 56.786 0.113 10.61 1.67 9.94
6/6/2022 6:15:00 PM 13.75 56.75 0.107 10.62 3 9.94
6/6/2022 6:30:00 PM 13.73 56.714 0.113 10.62 1.78 9.94
6/6/2022 6:45:00 PM 13.7 56.66 0.113 10.65 1.62 9.95
6/6/2022 7:00:00 PM 13.68 56.624 0.113 10.64 1.61 9.95
6/6/2022 7:15:00 PM 13.65 56.57 0.114 10.66 1.65 9.95
6/6/2022 7:30:00 PM 13.63 56.534 0.114 10.63 1.91 9.96
6/6/2022 7:45:00 PM 13.6 56.48 0.114 10.62 1.72 9.96
6/6/2022 8:00:00 PM 13.57 56.426 0.114 10.61 1.58 9.97
6/6/2022 8:15:00 PM 13.54 56.372 0.114 10.68 1.71 9.98
6/6/2022 8:30:00 PM 13.51 56.318 0.114 10.69 1.59 9.99
6/6/2022 8:45:00 PM 13.48 56.264 0.114 10.76 1.58 10
6/6/2022 9:00:00 PM 13.44 56.192 0.114 10.71 1.57 10.01
6/6/2022 9:15:00 PM 13.41 56.138 0.114 10.66 1.55 10.01
6/6/2022 9:30:00 PM 13.37 56.066 0.114 10.64 1.63 10.02
6/6/2022 9:45:00 PM 13.34 56.012 0.114 10.65 1.7 10.03
6/6/2022 10:00:00 PM 13.3 55.94 0.114 10.68 1.58 10.04
6/6/2022 10:15:00 PM 13.27 55.886 0.114 10.72 1.66 10.05
6/6/2022 10:30:00 PM 13.24 55.832 0.114 10.78 1.65 10.05
6/6/2022 10:45:00 PM 13.21 55.778 0.114 10.86 1.61 10.06
6/6/2022 11:00:00 PM 13.18 55.724 0.114 10.81 1.59 10.07
6/6/2022 11:15:00 PM 13.16 55.688 0.114 10.87 1.61 10.08
6/6/2022 11:30:00 PM 13.14 55.652 0.114 10.95 1.63 10.09
6/6/2022 11:45:00 PM 13.11 55.598 0.114 10.87 1.69 10.09
6/7/2022 12:00:00 AM 13.1 55.58 0.114 10.81 1.78 10.09
6/7/2022 12:15:00 AM 13.08 55.544 0.114 10.8 1.62 10.1
6/7/2022 12:30:00 AM 13.06 55.508 0.114 10.77 1.71 10.11
6/7/2022 12:45:00 AM 13.04 55.472 0.114 10.76 1.7 10.11
6/7/2022 1:00:00 AM 13.02 55.436 0.114 10.77 1.65 10.12
6/7/2022 1:15:00 AM 13 55.4 0.114 10.73 1.85 10.12
6/7/2022 1:30:00 AM 12.99 55.382 0.114 10.84 1.74 10.13
6/7/2022 1:45:00 AM 12.97 55.346 0.114 10.88 1.65 10.13
6/7/2022 2:00:00 AM 12.96 55.328 0.114 10.87 1.64 10.13
6/7/2022 2:15:00 AM 12.94 55.292 0.113 10.84 1.7 10.13
6/7/2022 2:30:00 AM 12.92 55.256 0.113 10.84 1.66 10.14
6/7/2022 2:45:00 AM 12.91 55.238 0.113 10.82 1.73 10.14
6/7/2022 3:00:00 AM 12.89 55.202 0.113 10.86 1.71 10.14
6/7/2022 3:15:00 AM 12.88 55.184 0.113 10.85 1.64 10.14
6/7/2022 3:30:00 AM 12.86 55.148 0.113 10.79 1.7 10.14
6/7/2022 3:45:00 AM 12.85 55.13 0.113 10.77 1.68 10.15
6/7/2022 4:00:00 AM 12.84 55.112 0.113 10.81 1.67 10.15
6/7/2022 4:15:00 AM 12.82 55.076 0.113 10.8 1.67 10.15
6/7/2022 4:30:00 AM 12.8 55.04 0.113 10.79 1.68 10.16
6/7/2022 4:45:00 AM 12.78 55.004 0.113 10.8 1.75 10.16
6/7/2022 5:00:00 AM 12.76 54.968 0.113 11.17 1.64 10.17
6/7/2022 5:15:00 AM 12.74 54.932 0.113 10.9 2.08 10.17
6/7/2022 5:30:00 AM 12.72 54.896 0.113 11.13 1.8 10.18
6/7/2022 5:45:00 AM 12.7 54.86 0.113 11.12 1.78 10.18
6/7/2022 6:00:00 AM 12.68 54.824 0.113 11.2 1.87 10.19
6/7/2022 6:15:00 AM 12.66 54.788 0.113 11.15 1.72 10.19
6/7/2022 6:30:00 AM 12.65 54.77 0.113 11.1 1.75 10.2
6/7/2022 6:45:00 AM 12.64 54.752 0.113 11.1 1.72 10.2
6/7/2022 7:00:00 AM 12.63 54.734 0.113 11.11 1.71 10.2
6/7/2022 7:15:00 AM 12.62 54.716 0.113 11.03 1.68 10.2
6/7/2022 7:30:00 AM 12.62 54.716 0.113 11.01 1.74 10.2
6/7/2022 7:45:00 AM 12.62 54.716 0.113 11.11 1.74 10.19
6/7/2022 8:00:00 AM 12.62 54.716 0.113 10.97 1.66 10.2
6/7/2022 8:15:00 AM 12.61 54.698 0.113 10.99 1.7 10.2
6/7/2022 8:30:00 AM 12.61 54.698 0.112 11.09 1.81 10.2
6/7/2022 8:45:00 AM 12.6 54.68 0.112 10.99 2.09 10.21
6/7/2022 9:00:00 AM 12.6 54.68 0.112 11.01 2.22 10.2
6/7/2022 9:15:00 AM 12.6 54.68 0.112 11.04 2.03 10.2
6/7/2022 9:30:00 AM 12.6 54.68 0.112 11.12 2.36 10.2
6/7/2022 9:45:00 AM 12.61 54.698 0.112 11.14 2.37 10.19
6/7/2022 10:00:00 AM 12.62 54.716 0.112 11.13 2.1 10.19
6/7/2022 10:15:00 AM 12.63 54.734 0.112 11.14 1.97 10.19
6/7/2022 10:30:00 AM 12.64 54.752 0.112 11.11 2.65 10.19
6/7/2022 10:45:00 AM 12.65 54.77 0.112 11.06 2.57 10.18
6/7/2022 11:00:00 AM 12.66 54.788 0.111 11.07 2.94 10.18
6/7/2022 11:15:00 AM 12.67 54.806 0.11 11.05 3.15 10.18
6/7/2022 11:30:00 AM 12.68 54.824 0.11 11.02 3.32 10.17
6/7/2022 11:45:00 AM 12.69 54.842 0.11 11.06 3.54 10.17
6/7/2022 12:00:00 PM 12.69 54.842 0.11 11.06 3.54 10.17
6/7/2022 12:15:00 PM 12.7 54.86 0.109 11.02 3.97 10.17
6/7/2022 12:30:00 PM 12.7 54.86 0.11 11.05 4.04 10.17
6/7/2022 12:45:00 PM 12.7 54.86 0.11 11.07 4.16 10.17
6/7/2022 1:00:00 PM 12.7 54.86 0.11 11.09 4.41 10.17
6/7/2022 1:15:00 PM 12.71 54.878 0.11 11.13 4.47 10.18
6/7/2022 1:30:00 PM 12.73 54.914 0.109 11.03 5.27 10.18
6/7/2022 1:45:00 PM 12.74 54.932 0.109 11.06 6.14 10.18
6/7/2022 2:00:00 PM 12.76 54.968 0.109 10.82 6.42 10.17
6/7/2022 2:15:00 PM 12.79 55.022 0.109 10.77 5.75 10.16
6/7/2022 2:30:00 PM 12.8 55.04 0.11 10.77 5.5 10.16
6/7/2022 2:45:00 PM 12.81 55.058 0.111 10.76 4.57 10.16
6/7/2022 3:00:00 PM 12.81 55.058 0.111 10.8 4.57 10.16
6/7/2022 3:15:00 PM 12.82 55.076 0.111 10.85 4.92 10.16
6/7/2022 3:30:00 PM 12.82 55.076 0.111 10.83 4.21 10.16
6/7/2022 3:45:00 PM 12.82 55.076 0.111 10.83 4.13 10.16
6/7/2022 4:00:00 PM 12.82 55.076 0.112 10.81 3.88 10.16
6/7/2022 4:15:00 PM 12.82 55.076 0.113 10.76 3.77 10.16
6/7/2022 4:30:00 PM 12.83 55.094 0.113 10.71 3.36 10.15
6/7/2022 4:45:00 PM 12.83 55.094 0.113 10.77 3.22 10.16
6/7/2022 5:00:00 PM 12.84 55.112 0.113 10.86 3.46 10.15
6/7/2022 5:15:00 PM 12.84 55.112 0.113 10.77 3.18 10.15
6/7/2022 5:30:00 PM 12.83 55.094 0.114 10.79 2.9 10.15
6/7/2022 5:45:00 PM 12.83 55.094 0.114 10.88 2.7 10.15
6/7/2022 6:00:00 PM 12.82 55.076 0.114 10.85 2.63 10.16
6/7/2022 6:15:00 PM 12.83 55.094 0.114 10.83 2.67 10.16
6/7/2022 6:30:00 PM 12.83 55.094 0.114 10.77 2.45 10.15
6/7/2022 6:45:00 PM 12.83 55.094 0.114 10.78 2.54 10.15
6/7/2022 7:00:00 PM 12.82 55.076 0.114 10.82 2.36 10.15
6/7/2022 7:15:00 PM 12.81 55.058 0.114 10.52 2.62 10.15
6/7/2022 7:30:00 PM 12.8 55.04 0.115 10.84 2.52 10.15
6/7/2022 7:45:00 PM 12.79 55.022 0.115 10.76 2.29 10.15
6/7/2022 8:00:00 PM 12.79 55.022 0.114 10.82 2.57 10.15
6/7/2022 8:15:00 PM 12.82 55.076 0.113 10.82 3.42 10.14
6/7/2022 8:30:00 PM 12.82 55.076 0.112 10.74 3.06 10.14
6/7/2022 8:45:00 PM 12.81 55.058 0.113 10.74 3 10.14
6/7/2022 9:00:00 PM 12.8 55.04 0.113 10.73 3.08 10.15
6/7/2022 9:15:00 PM 12.79 55.022 0.114 10.72 3.44 10.15
6/7/2022 9:30:00 PM 12.78 55.004 0.114 10.72 3.4 10.15
6/7/2022 9:45:00 PM 12.77 54.986 0.114 10.73 3.4 10.16
6/7/2022 10:00:00 PM 12.75 54.95 0.114 10.72 3.3 10.17
6/7/2022 10:15:00 PM 12.75 54.95 0.114 10.67 3.5 10.17
6/7/2022 10:30:00 PM 12.73 54.914 0.115 10.71 3.9 10.18
6/7/2022 10:45:00 PM 12.73 54.914 0.116 10.7 4.15 10.18
6/7/2022 11:00:00 PM 12.72 54.896 0.117 10.73 4.55 10.19
6/7/2022 11:15:00 PM 12.71 54.878 0.116 10.64 3.92 10.19
6/7/2022 11:30:00 PM 12.7 54.86 0.115 10.71 3.56 10.2
6/7/2022 11:45:00 PM 12.7 54.86 0.115 10.75 3.43 10.2
6/8/2022 12:00:00 AM 12.7 54.86 0.115 10.84 2.81 10.2
6/8/2022 12:15:00 AM 12.69 54.842 0.115 10.9 2.86 10.2
6/8/2022 12:30:00 AM 12.7 54.86 0.115 10.75 2.87 10.2
6/8/2022 12:45:00 AM 12.69 54.842 0.115 10.72 2.73 10.2
6/8/2022 1:00:00 AM 12.69 54.842 0.115 10.75 2.76 10.2
6/8/2022 1:15:00 AM 12.68 54.824 0.115 10.7 2.77 10.2
6/8/2022 1:30:00 AM 12.67 54.806 0.115 10.68 2.56 10.21
6/8/2022 1:45:00 AM 12.65 54.77 0.115 10.69 2.62 10.21
6/8/2022 2:00:00 AM 12.62 54.716 0.115 10.68 2.59 10.22
6/8/2022 2:15:00 AM 12.59 54.662 0.115 10.57 2.35 10.22
6/8/2022 2:30:00 AM 12.56 54.608 0.116 10.64 2.34 10.24
6/8/2022 2:45:00 AM 12.52 54.536 0.116 10.73 3.14 10.24
6/8/2022 3:00:00 AM 12.48 54.464 0.116 10.76 2.79 10.26
6/8/2022 3:15:00 AM 12.44 54.392 0.116 10.75 2.58 10.27
6/8/2022 3:30:00 AM 12.4 54.32 0.116 10.75 2.35 10.28
6/8/2022 3:45:00 AM 12.35 54.23 0.116 10.7 3.72 10.29
6/8/2022 4:00:00 AM 12.31 54.158 0.116 10.63 2.78 10.31
6/8/2022 4:15:00 AM 12.26 54.068 0.116 10.66 2.59 10.32
6/8/2022 4:30:00 AM 12.22 53.996 0.116 10.75 2.31 10.32
6/8/2022 4:45:00 AM 12.18 53.924 0.116 10.73 2.39 10.34
6/8/2022 5:00:00 AM 12.14 53.852 0.116 10.69 2.44 10.35
6/8/2022 5:15:00 AM 12.1 53.78 0.116 10.67 2.87 10.36
6/8/2022 5:30:00 AM 12.07 53.726 0.116 10.69 2.43 10.37
6/8/2022 5:45:00 AM 12.05 53.69 0.116 10.71 2.29 10.38
6/8/2022 6:00:00 AM 12.03 53.654 0.116 10.68 2.21 10.38
6/8/2022 6:15:00 AM 12.01 53.618 0.116 10.66 1.99 10.38
6/8/2022 6:30:00 AM 12 53.6 0.115 10.72 2.55 10.39
6/8/2022 6:45:00 AM 12 53.6 0.115 10.74 2.02 10.4
6/8/2022 7:00:00 AM 11.99 53.582 0.115 10.84 2.01 10.4
6/8/2022 7:15:00 AM 11.99 53.582 0.115 10.73 1.91 10.4
6/8/2022 7:30:00 AM 11.98 53.564 0.115 10.74 1.87 10.4
6/8/2022 7:45:00 AM 11.99 53.582 0.115 10.77 1.96 10.41
6/8/2022 8:00:00 AM 12 53.6 0.115 10.73 1.87 10.41
6/8/2022 8:15:00 AM 12 53.6 0.115 10.71 1.98 10.41
6/8/2022 8:30:00 AM 12.02 53.636 0.115 10.73 2.01 10.4
6/8/2022 8:45:00 AM 12.04 53.672 0.115 10.72 1.84 10.4
6/8/2022 9:00:00 AM 12.06 53.708 0.115 10.69 2.12 10.4
6/8/2022 9:15:00 AM 12.1 53.78 0.115 10.66 1.84 10.4
6/8/2022 9:30:00 AM 12.14 53.852 0.115 10.72 1.8 10.39
6/8/2022 9:45:00 AM 12.19 53.942 0.115 10.65 1.79 10.38
6/8/2022 10:00:00 AM 12.25 54.05 0.115 10.6 1.81 10.37
6/8/2022 10:15:00 AM 12.29 54.122 0.115 10.6 1.81 10.36
6/8/2022 10:30:00 AM 12.35 54.23 0.115 10.63 1.82 10.34
6/8/2022 10:45:00 AM 12.41 54.338 0.116 10.68 1.86 10.32
6/8/2022 11:00:00 AM 12.47 54.446 0.116 10.65 1.83 10.31
6/8/2022 11:15:00 AM 12.51 54.518 0.116 10.5 1.83 10.29
6/8/2022 11:30:00 AM 12.56 54.608 0.116 10.48 1.8 10.28
6/8/2022 11:45:00 AM 12.64 54.752 0.116 10.52 1.97 10.26
6/8/2022 12:00:00 PM 12.71 54.878 0.116 10.55 1.9 10.24
6/8/2022 12:15:00 PM 12.81 55.058 0.116 10.55 1.86 10.22
6/8/2022 12:30:00 PM 12.93 55.274 0.116 10.53 1.87 10.19
6/8/2022 12:45:00 PM 13.06 55.508 0.116 10.43 1.91 10.15
6/8/2022 1:00:00 PM 13.2 55.76 0.116 10.48 1.9 10.12
6/8/2022 1:15:00 PM 13.33 55.994 0.116 10.47 2.01 10.09
6/8/2022 1:30:00 PM 13.44 56.192 0.116 10.42 1.88 10.05
6/8/2022 1:45:00 PM 13.55 56.39 0.116 10.56 1.98 10.03
6/8/2022 2:00:00 PM 13.66 56.588 0.116 10.51 3.17 10
6/8/2022 2:15:00 PM 13.75 56.75 0.116 10.54 1.89 9.97
6/8/2022 2:30:00 PM 13.85 56.93 0.116 10.55 1.85 9.94
6/8/2022 2:45:00 PM 13.92 57.056 0.116 10.63 1.79 9.92
6/8/2022 3:00:00 PM 13.95 57.11 0.114 10.47 3 9.91
6/8/2022 3:15:00 PM 13.97 57.146 0.116 10.47 3.3 9.9
6/8/2022 3:30:00 PM 13.99 57.182 0.116 10.44 3.01 9.9
6/8/2022 3:45:00 PM 14.01 57.218 0.117 10.41 2.85 9.88
6/8/2022 4:00:00 PM 14.04 57.272 0.117 10.46 1.79 9.88
6/8/2022 4:15:00 PM 14.05 57.29 0.117 10.41 1.82 9.87
6/8/2022 4:30:00 PM 14.05 57.29 0.117 10.46 1.84 9.87
6/8/2022 4:45:00 PM 14.05 57.29 0.117 10.51 2.92 9.87
6/8/2022 5:00:00 PM 14.04 57.272 0.117 10.54 1.81 9.86
6/8/2022 5:15:00 PM 14.03 57.254 0.117 10.5 1.87 9.86
6/8/2022 5:30:00 PM 14.02 57.236 0.117 10.54 3.24 9.86
6/8/2022 5:45:00 PM 14.01 57.218 0.117 10.66 3.4 9.86
6/8/2022 6:00:00 PM 14 57.2 0.117 10.67 1.74 9.87
6/8/2022 6:15:00 PM 13.98 57.164 0.118 10.69 1.76 9.86
6/8/2022 6:30:00 PM 13.95 57.11 0.118 10.8 3 9.87
6/8/2022 6:45:00 PM 13.92 57.056 0.118 10.73 1.76 9.87
6/8/2022 7:00:00 PM 13.9 57.02 0.118 10.77 2.92 9.87
6/8/2022 7:15:00 PM 13.87 56.966 0.118 10.62 1.74 9.88
6/8/2022 7:30:00 PM 13.83 56.894 0.118 10.62 1.72 9.88
6/8/2022 7:45:00 PM 13.79 56.822 0.118 10.55 1.73 9.89
6/8/2022 8:00:00 PM 13.75 56.75 0.119 10.57 1.67 9.9
6/8/2022 8:15:00 PM 13.7 56.66 0.119 10.53 1.74 9.91
6/8/2022 8:30:00 PM 13.64 56.552 0.119 10.61 1.62 9.92
6/8/2022 8:45:00 PM 13.6 56.48 0.119 10.61 1.75 9.93
6/8/2022 9:00:00 PM 13.55 56.39 0.119 10.58 1.72 9.93
6/8/2022 9:15:00 PM 13.5 56.3 0.119 10.62 1.77 9.94
6/8/2022 9:30:00 PM 13.46 56.228 0.119 10.68 1.86 9.95
6/8/2022 9:45:00 PM 13.41 56.138 0.119 10.8 1.86 9.96
6/8/2022 10:00:00 PM 13.38 56.084 0.119 10.87 1.8 9.97
6/8/2022 10:15:00 PM 13.34 56.012 0.119 10.7 1.8 9.98
6/8/2022 10:30:00 PM 13.31 55.958 0.119 10.68 1.82 9.98
6/8/2022 10:45:00 PM 13.28 55.904 0.119 10.69 1.77 9.99
6/8/2022 11:00:00 PM 13.26 55.868 0.119 10.64 2.39 9.99
6/8/2022 11:15:00 PM 13.25 55.85 0.118 10.8 3.8 10
6/8/2022 11:30:00 PM 13.24 55.832 0.116 10.59 3.83 9.99
6/8/2022 11:45:00 PM 13.25 55.85 0.114 10.71 4.78 9.98
6/9/2022 12:00:00 AM 13.23 55.814 0.113 10.83 5.08 9.98
6/9/2022 12:15:00 AM 13.23 55.814 0.114 10.68 10.49 9.98
6/9/2022 12:30:00 AM 13.21 55.778 0.116 10.66 10.05 9.98
6/9/2022 12:45:00 AM 13.19 55.742 0.118 11.05 8.56 9.98
6/9/2022 1:00:00 AM 13.18 55.724 0.118 11.13 9.51 10
6/9/2022 1:15:00 AM 13.17 55.706 0.116 11.16 17.13 10
6/9/2022 1:30:00 AM 13.18 55.724 0.126 10.86 23.17 10
6/9/2022 1:45:00 AM 13.19 55.742 0.128 11.26 19.8 10
6/9/2022 2:00:00 AM 13.19 55.742 0.13 11.26 17.62 10
6/9/2022 2:15:00 AM 13.16 55.688 0.127 11.09 16.73 10.01
6/9/2022 2:30:00 AM 13.12 55.616 0.125 11.2 17.23 10.03
6/9/2022 2:45:00 AM 13.11 55.598 0.125 11.22 16.62 10.03
6/9/2022 3:00:00 AM 13.1 55.58 0.125 11.26 13.78 10.03
6/9/2022 3:15:00 AM 13.09 55.562 0.124 11.25 11.27 10.04
6/9/2022 3:30:00 AM 13.07 55.526 0.122 10.91 9.92 10.04
6/9/2022 3:45:00 AM 13.05 55.49 0.122 11.27 8.65 10.04
6/9/2022 4:00:00 AM 13.03 55.454 0.122 11.06 7.77 10.05
6/9/2022 4:15:00 AM 13.03 55.454 0.122 11.14 7.4 10.05
6/9/2022 4:30:00 AM 13.05 55.49 0.122 11.36 6.67 10.04
6/9/2022 4:45:00 AM 13.07 55.526 0.123 11.19 6.25 10.04
6/9/2022 5:00:00 AM 13.09 55.562 0.124 11.02 5.99 10.03
6/9/2022 5:15:00 AM 13.11 55.598 0.125 11.06 5.3 10.03
6/9/2022 5:30:00 AM 13.11 55.598 0.126 10.97 5.11 10.03
6/9/2022 5:45:00 AM 13.1 55.58 0.126 10.98 5.49 10.03
6/9/2022 6:00:00 AM 13.09 55.562 0.127 11.08 4.99 10.04
6/9/2022 6:15:00 AM 13.06 55.508 0.127 11.11 4.61 10.05
6/9/2022 6:30:00 AM 13.02 55.436 0.126 11.2 4.67 10.06
6/9/2022 6:45:00 AM 12.98 55.364 0.126 11.19 4.53 10.08
6/9/2022 7:00:00 AM 12.95 55.31 0.125 10.9 4.58 10.09
6/9/2022 7:15:00 AM 12.91 55.238 0.125 10.94 4.85 10.1
6/9/2022 7:30:00 AM 12.89 55.202 0.125 10.89 4.41 10.11
6/9/2022 7:45:00 AM 12.86 55.148 0.125 10.93 4.4 10.12
6/9/2022 8:00:00 AM 12.84 55.112 0.125 10.92 4.14 10.12
6/9/2022 8:15:00 AM 12.82 55.076 0.125 10.91 4.06 10.13
6/9/2022 8:30:00 AM 12.8 55.04 0.125 10.98 3.98 10.14
6/9/2022 8:45:00 AM 12.78 55.004 0.125 10.86 3.65 10.14
6/9/2022 9:00:00 AM 12.76 54.968 0.125 10.91 3.72 10.15
6/9/2022 9:15:00 AM 12.75 54.95 0.125 10.84 3.77 10.16
6/9/2022 9:30:00 AM 12.76 54.968 0.126 10.96 3.71 10.16
6/9/2022 9:45:00 AM 12.77 54.986 0.126 10.79 3.69 10.16
6/9/2022 10:00:00 AM 12.77 54.986 0.126 10.67 3.41 10.16
6/9/2022 10:15:00 AM 12.77 54.986 0.127 10.16 3.29 10.16
6/9/2022 10:30:00 AM 12.78 55.004 0.127 10.41 3.3 10.16
6/9/2022 10:45:00 AM 12.77 54.986 0.128 10.54 3.3 10.16
6/9/2022 11:00:00 AM 12.77 54.986 0.128 10.39 3.32 10.17
6/9/2022 11:15:00 AM 12.77 54.986 0.129 10.42 3.27 10.17
6/9/2022 11:30:00 AM 12.76 54.968 0.129 10.31 3.11 10.18
6/9/2022 11:45:00 AM 12.76 54.968 0.129 10.46 3.33 10.17
6/9/2022 12:00:00 PM 12.75 54.95 0.129 10.05 2.92 10.18
6/9/2022 12:15:00 PM 12.75 54.95 0.129 10.55 3.04 10.18
6/9/2022 12:30:00 PM 12.76 54.968 0.129 10.29 2.94 10.18
6/9/2022 12:45:00 PM 12.78 55.004 0.13 10.26 3.08 10.18
6/9/2022 1:00:00 PM 12.79 55.022 0.13 10.19 2.71 10.18
6/9/2022 1:15:00 PM 12.83 55.094 0.13 10.76 2.9 10.17
6/9/2022 1:30:00 PM 12.86 55.148 0.13 10.42 2.99 10.17
6/9/2022 1:45:00 PM 12.92 55.256 0.13 9.93 2.81 10.15
6/9/2022 2:00:00 PM 12.99 55.382 0.13 10.57 2.85 10.14
6/9/2022 2:15:00 PM 13.01 55.418 0.13 10.62 2.73 10.12
6/9/2022 2:30:00 PM 13.05 55.49 0.13 9.92 2.73 10.12
6/9/2022 2:45:00 PM 13.12 55.616 0.13 10.61 2.63 10.1
6/9/2022 3:00:00 PM 13.11 55.598 0.13 10.54 2.73 10.09
6/9/2022 3:15:00 PM 13.13 55.634 0.13 10.38 2.55 10.09
6/9/2022 3:30:00 PM 13.11 55.598 0.13 10.5 2.6 10.09
6/9/2022 3:45:00 PM 13.09 55.562 0.13 10.55 2.57 10.1
6/9/2022 4:00:00 PM 13.07 55.526 0.13 10.6 2.69 10.11
6/9/2022 4:15:00 PM 13.05 55.49 0.13 10.12 2.55 10.11
6/9/2022 4:30:00 PM 13.02 55.436 0.13 10.49 2.54 10.12
6/9/2022 4:45:00 PM 12.99 55.382 0.13 10.18 2.62 10.13
6/9/2022 5:00:00 PM 12.97 55.346 0.13 10.64 2.62 10.13
6/9/2022 5:15:00 PM 12.97 55.346 0.131 10.6 2.48 10.14
6/9/2022 5:30:00 PM 12.96 55.328 0.131 10.06 2.64 10.13
6/9/2022 5:45:00 PM 12.94 55.292 0.131 10.18 2.51 10.14
6/9/2022 6:00:00 PM 12.94 55.292 0.131 10.01 2.57 10.14
6/9/2022 6:15:00 PM 12.93 55.274 0.131 10 2.44 10.13
6/9/2022 6:30:00 PM 12.93 55.274 0.131 10.05 2.36 10.13
6/9/2022 6:45:00 PM 12.92 55.256 0.132 10.64 2.19 10.14
6/9/2022 7:00:00 PM 12.91 55.238 0.132 10.41 2.35 10.14
6/9/2022 7:15:00 PM 12.89 55.202 0.132 10.71 2.19 10.14
6/9/2022 7:30:00 PM 12.87 55.166 0.132 10.68 2.18 10.15
6/9/2022 7:45:00 PM 12.84 55.112 0.132 10.1 2.16 10.16
6/9/2022 8:00:00 PM 12.8 55.04 0.132 10.55 2.17 10.16
6/9/2022 8:15:00 PM 12.76 54.968 0.132 10.21 2.14 10.17
6/9/2022 8:30:00 PM 12.72 54.896 0.132 9.99 2.13 10.18
6/9/2022 8:45:00 PM 12.67 54.806 0.132 10.08 2.16 10.19
6/9/2022 9:00:00 PM 12.62 54.716 0.131 10.68 2.26 10.2
6/9/2022 9:15:00 PM 12.58 54.644 0.131 10.18 2.12 10.21
6/9/2022 9:30:00 PM 12.53 54.554 0.131 10.25 2.2 10.23
6/9/2022 9:45:00 PM 12.48 54.464 0.132 10.48 2.21 10.24
6/9/2022 10:00:00 PM 12.43 54.374 0.132 10.41 2.17 10.26
6/9/2022 10:15:00 PM 12.38 54.284 0.132 10.2 2.16 10.27
6/9/2022 10:30:00 PM 12.33 54.194 0.133 9.89 2.16 10.29
6/9/2022 10:45:00 PM 12.28 54.104 0.133 9.9 2.25 10.3
6/9/2022 11:00:00 PM 12.23 54.014 0.133 10.45 2.16 10.3
6/9/2022 11:15:00 PM 12.19 53.942 0.134 10.33 2.02 10.32
6/9/2022 11:30:00 PM 12.15 53.87 0.133 10.68 2.16 10.32
6/9/2022 11:45:00 PM 12.11 53.798 0.133 10.46 2.13 10.34
6/10/2022 12:00:00 AM 12.07 53.726 0.133 10.66 2.14 10.34
6/10/2022 12:15:00 AM 12.04 53.672 0.133 10.48 2.17 10.36
6/10/2022 12:30:00 AM 12 53.6 0.133 10.77 2.23 10.37
6/10/2022 12:45:00 AM 11.97 53.546 0.133 10.68 1.98 10.37
6/10/2022 1:00:00 AM 11.94 53.492 0.133 10.67 2.15 10.38
6/10/2022 1:15:00 AM 11.91 53.438 0.133 10.56 2.12 10.38
6/10/2022 1:30:00 AM 11.89 53.402 0.133 10.11 2.08 10.39
6/10/2022 1:45:00 AM 11.87 53.366 0.133 10.56 2.06 10.4
6/10/2022 2:00:00 AM 11.85 53.33 0.133 10.21 1.89 10.4
6/10/2022 2:15:00 AM 11.84 53.312 0.132 10.88 2.08 10.4
6/10/2022 2:30:00 AM 11.83 53.294 0.133 10.8 1.89 10.4
6/10/2022 2:45:00 AM 11.81 53.258 0.133 10.45 1.92 10.41
6/10/2022 3:00:00 AM 11.8 53.24 0.133 9.25 1.97 10.42
6/10/2022 3:15:00 AM 11.78 53.204 0.133 10.26 1.99 10.41
6/10/2022 3:30:00 AM 11.78 53.204 0.133 10.1 1.94 10.42
6/10/2022 3:45:00 AM 11.78 53.204 0.133 10.78 1.87 10.42
6/10/2022 4:00:00 AM 11.77 53.186 0.133 10.83 1.93 10.42
6/10/2022 4:15:00 AM 11.77 53.186 0.133 10.49 1.9 10.42
6/10/2022 4:30:00 AM 11.77 53.186 0.132 10.49 1.91 10.42
6/10/2022 4:45:00 AM 11.75 53.15 0.132 10.77 1.87 10.42
6/10/2022 5:00:00 AM 11.73 53.114 0.132 10.86 2 10.43
6/10/2022 5:15:00 AM 11.7 53.06 0.132 10.17 1.89 10.43
6/10/2022 5:30:00 AM 11.67 53.006 0.132 10.93 1.78 10.45
6/10/2022 5:45:00 AM 11.64 52.952 0.132 10.86 1.88 10.45
6/10/2022 6:00:00 AM 11.6 52.88 0.132 10.78 1.8 10.46
6/10/2022 6:15:00 AM 11.57 52.826 0.132 10.9 1.84 10.47
6/10/2022 6:30:00 AM 11.54 52.772 0.132 10.91 2 10.48
6/10/2022 6:45:00 AM 11.51 52.718 0.132 10.88 1.82 10.49
6/10/2022 7:00:00 AM 11.49 52.682 0.132 10.84 1.79 10.49
6/10/2022 7:15:00 AM 11.48 52.664 0.131 10.92 1.75 10.5
6/10/2022 7:30:00 AM 11.49 52.682 0.132 10.85 1.77 10.5
6/10/2022 7:45:00 AM 11.5 52.7 0.132 10.81 1.8 10.49
6/10/2022 8:00:00 AM 11.52 52.736 0.132 10.91 1.79 10.5
6/10/2022 8:15:00 AM 11.55 52.79 0.132 10.82 1.79 10.49
6/10/2022 8:30:00 AM 11.58 52.844 0.131 10.91 1.83 10.48
6/10/2022 8:45:00 AM 11.64 52.952 0.131 10.94 1.79 10.47
6/10/2022 9:00:00 AM 11.7 53.06 0.131 10.87 1.82 10.46
6/10/2022 9:15:00 AM 11.77 53.186 0.131 10.77 1.82 10.45
6/10/2022 9:30:00 AM 11.85 53.33 0.131 10.74 1.72 10.43
6/10/2022 9:45:00 AM 11.9 53.42 0.131 10.59 1.74 10.42
6/10/2022 10:00:00 AM 11.96 53.528 0.131 10.54 1.75 10.4
6/10/2022 10:15:00 AM<